Provisional Data: Snake Creek near Lawsville Center, PA


Please select a monitoring station.
Please select start date.
Please select start date.

Toggle Unit: C/F Toggle Unit: C/F
Sample Time Temperature (C) Temperature (F) Specific Conductivity (mS/cm) pH   Turbidity (NTU+) DO (mg/L)
4/18/2023 12:00:00 AM 11.04 51.872 0.07 12.09 4.02 9.85
4/18/2023 12:15:00 AM 10.95 51.71 0.069 12.11 3.96 9.87
4/18/2023 12:30:00 AM 10.87 51.566 0.063 12.16 3.97 9.89
4/18/2023 12:45:00 AM 10.78 51.404 0.052 12.2 4.09 9.93
4/18/2023 1:00:00 AM 10.7 51.26 0.038 12.24 4.05 9.94
4/18/2023 1:15:00 AM 10.61 51.098 0.028 12.25 4.02 9.97
4/18/2023 1:30:00 AM 10.51 50.918 0.022 12.29 3.81 10.02
4/18/2023 1:45:00 AM 10.45 50.81 0.006 12.31 3.94 10.02
4/18/2023 2:00:00 AM 10.38 50.684 0.002 12.34 3.89 10.06
4/18/2023 2:15:00 AM 10.29 50.522 0.002 12.35 3.87 10.08
4/18/2023 2:30:00 AM 10.18 50.324 0.002 12.41 4.02 10.11
4/18/2023 2:45:00 AM 10 50 0.002 12.45 3.8 10.15
4/18/2023 3:00:00 AM 9.92 49.856 0.002 12.47 4.03 10.17
4/18/2023 3:15:00 AM 9.78 49.604 0.001 12.53 4.07 10.21
4/18/2023 3:30:00 AM 9.81 49.658 0 12.56 4.18 10.19
4/18/2023 3:45:00 AM 9.71 49.478 0 12.59 5.35 10.22
4/18/2023 4:00:00 AM 9.68 49.424 0 12.64 3.76 10.23
4/18/2023 4:15:00 AM 9.54 49.172 0 12.66 3.86 10.27
4/18/2023 4:30:00 AM 9.52 49.136 0 12.68 3.88 10.28
4/18/2023 4:45:00 AM 9.45 49.01 0 12.71 3.99 10.3
4/18/2023 5:00:00 AM 9.44 48.992 0 12.71 3.63 10.31
4/18/2023 5:15:00 AM 9.38 48.884 0 12.74 3.68 10.33
4/18/2023 5:30:00 AM 9.32 48.776 0 12.76 4.23 10.35
4/18/2023 5:45:00 AM 9.25 48.65 0 12.79 3.59 10.37
4/18/2023 6:00:00 AM 9.1 48.38 0 12.83 3.5 10.44
4/18/2023 6:15:00 AM 9.01 48.218 0 12.86 3.41 10.46
4/18/2023 6:30:00 AM 9 48.2 0 12.89 3.86 10.45
4/18/2023 6:45:00 AM 9.01 48.218 0 12.89 3.31 10.47
4/18/2023 7:00:00 AM 8.99 48.182 0 12.91 3.4 10.5
4/18/2023 7:15:00 AM 8.94 48.092 0 12.92 3.16 10.56
4/18/2023 7:30:00 AM 8.89 48.002 0 12.94 3.25 10.62
4/18/2023 7:45:00 AM 8.68 47.624 0 12.97 3.32 10.75
4/18/2023 8:00:00 AM 8.56 47.408 0 13.02 3.41 10.82
4/18/2023 8:15:00 AM 8.68 47.624 0 13.02 3.5 10.85
4/18/2023 8:30:00 AM 8.64 47.552 0 13.02 4.65 10.91
4/18/2023 8:45:00 AM 8.8 47.84 0 13.04 4.12 10.93
4/18/2023 9:00:00 AM 8.68 47.624 0 13.04 4.02 11.02
4/18/2023 9:15:00 AM 8.81 47.858 0 13.07 3.91 11
4/18/2023 9:30:00 AM 8.68 47.624 0 13.07 3.77 11.08
4/18/2023 9:45:00 AM 8.87 47.966 0 13.08 3.48 11.05
4/18/2023 10:00:00 AM 8.72 47.696 0 13.06 3.41 11.09
4/18/2023 10:15:00 AM 8.78 47.804 0 13.04 3.47 11.08
4/18/2023 10:30:00 AM 8.92 48.056 0 13.02 3.59 11.06
4/18/2023 10:45:00 AM 8.93 48.074 0 13.01 3.39 11.07
4/18/2023 11:00:00 AM 8.89 48.002 0 12.99 3.68 11.09
4/18/2023 11:15:00 AM 9.07 48.326 0 12.93 3.56 11.07
4/18/2023 11:30:00 AM 9.17 48.506 0 12.91 3.49 11.02
4/18/2023 11:45:00 AM 8.99 48.182 0 12.87 3.5 11.11
4/18/2023 12:00:00 PM 9.25 48.65 0 12.86 3.52 11.02
4/18/2023 12:15:00 PM 9.28 48.704 0 12.81 3.71 11.03
4/18/2023 12:30:00 PM 9.31 48.758 0 12.78 3.64 11.01
4/18/2023 12:45:00 PM 9.65 49.37 0 12.7 3.71 10.92
4/18/2023 1:00:00 PM 10.02 50.036 0 12.62 3.62 10.79
4/18/2023 1:15:00 PM 9.88 49.784 0 12.6 3.6 10.81
4/18/2023 1:30:00 PM 9.86 49.748 0 12.57 3.7 10.89
4/18/2023 1:45:00 PM 10.05 50.09 0 12.54 3.65 10.83
4/18/2023 2:00:00 PM 9.8 49.64 0 12.54 3.66 10.9
4/18/2023 2:15:00 PM 9.7 49.46 0 12.59 3.67 10.9
4/18/2023 2:30:00 PM 9.69 49.442 0 12.59 3.72 10.94
4/18/2023 2:45:00 PM 9.8 49.64 0 12.6 3.88 10.92
4/18/2023 3:00:00 PM 9.2 48.56 0 12.63 3.08 11.08
4/18/2023 3:15:00 PM 9.4 48.92 0 12.65 3.8 11.08
4/18/2023 3:30:00 PM 9.48 49.064 0 12.65 3.46 11.03
4/18/2023 3:45:00 PM 9.61 49.298 0 12.67 3.34 11.01
4/18/2023 4:00:00 PM 9.16 48.488 0 12.69 4.03 11.12
4/18/2023 4:15:00 PM 8.98 48.164 0 12.73 3.93 11.22
4/18/2023 4:30:00 PM 8.96 48.128 0 12.74 3.9 11.11
4/18/2023 4:45:00 PM 8.75 47.75 0 12.78 4.36 11.2
4/18/2023 5:00:00 PM 8.94 48.092 0 12.8 3.7 11.24
4/18/2023 5:15:00 PM 8.98 48.164 0 12.84 4.19 11.19
4/18/2023 5:30:00 PM 8.89 48.002 0 12.86 3.5 11.16
4/18/2023 5:45:00 PM 8.85 47.93 0 12.89 4.31 11.18
4/18/2023 6:00:00 PM 8.68 47.624 0 12.92 3.51 11.31
4/18/2023 6:15:00 PM 8.61 47.498 0 12.95 4.25 11.35
4/18/2023 6:30:00 PM 8.77 47.786 0 12.97 4.59 11.28
4/18/2023 6:45:00 PM 8.29 46.922 0 13.02 4.78 11.44
4/18/2023 7:00:00 PM 8.25 46.85 0 13.04 3.96 11.31
4/18/2023 7:15:00 PM 8.27 46.886 0 13.08 4.59 11.43
4/18/2023 7:30:00 PM 8.29 46.922 0 13.1 6.59 11.37
4/18/2023 7:45:00 PM 8.05 46.49 0 13.11 4.78 11.49
4/18/2023 8:00:00 PM 8 46.4 0 13.14 4.21 11.44
4/18/2023 8:15:00 PM 8.05 46.49 0 13.16 4.94 11.49
4/18/2023 8:30:00 PM 8.01 46.418 0 13.2 5.67 11.49
4/18/2023 8:45:00 PM 8.2 46.76 0 13.21 4.95 11.37
4/18/2023 9:00:00 PM 7.96 46.328 0 13.25 4.62 11.5
4/18/2023 9:15:00 PM 7.97 46.346 0 13.27 5.3 11.49
4/18/2023 9:30:00 PM 7.99 46.382 0 13.28 4.56 11.43
4/18/2023 9:45:00 PM 7.92 46.256 0 13.32 4.65 11.45
4/18/2023 10:00:00 PM 7.69 45.842 0 13.36 4.39 11.57
4/18/2023 10:15:00 PM 7.4 45.32 0 13.4 4.5 11.68
4/18/2023 10:30:00 PM 7.69 45.842 0 13.41 4.44 11.57
4/18/2023 10:45:00 PM 7.72 45.896 0 13.43 4.18 11.57
4/18/2023 11:00:00 PM 7.45 45.41 0 13.46 4.23 11.65
4/18/2023 11:15:00 PM 7.46 45.428 0 13.48 4.25 11.65
4/18/2023 11:30:00 PM 7.36 45.248 0 13.5 4.21 11.68
4/18/2023 11:45:00 PM 7.39 45.302 0 13.52 4.88 11.63
4/19/2023 12:00:00 AM 7.37 45.266 0 13.56 3.71 11.63
4/19/2023 12:15:00 AM 7.36 45.248 0 13.62 3.56 11.62
4/19/2023 12:30:00 AM 7.31 45.158 0 13.64 3.43 11.63
4/19/2023 12:45:00 AM 7.3 45.14 0 13.67 3.64 11.63
4/19/2023 1:00:00 AM 7.13 44.834 0 13.69 3.63 11.64
4/19/2023 1:15:00 AM 7.03 44.654 0 13.71 3.52 11.69
4/19/2023 1:30:00 AM 7.03 44.654 0 13.73 3.65 11.77
4/19/2023 1:45:00 AM 6.99 44.582 0 13.76 3.38 11.73
4/19/2023 2:00:00 AM 7.05 44.69 0 13.79 3.35 11.71
4/19/2023 2:15:00 AM 6.98 44.564 0 13.8 3.4 11.69
4/19/2023 2:30:00 AM 7.04 44.672 0 13.8 3.79 11.69
4/19/2023 2:45:00 AM 6.77 44.186 0 13.84 3.66 11.8
4/19/2023 3:00:00 AM 6.95 44.51 0 13.85 3.22 11.73
4/19/2023 3:15:00 AM 6.93 44.474 0 13.87 3.7 11.72
4/19/2023 3:30:00 AM 6.87 44.366 0 13.88 3.64 11.76
4/19/2023 3:45:00 AM 6.74 44.132 0 13.91 3.57 11.83
4/19/2023 4:00:00 AM 6.8 44.24 0 13.93 3.52 11.82
4/19/2023 4:15:00 AM 6.59 43.862 0 13.95 3.44 11.83
4/19/2023 4:30:00 AM 6.79 44.222 0 13.97 3.71 11.81
4/19/2023 4:45:00 AM 6.68 44.024 0 13.99 3.84 11.85
4/19/2023 5:00:00 AM 6.58 43.844 0 14.02 4 11.87
4/19/2023 5:15:00 AM 6.64 43.952 0 14.01 3.83 11.82
4/19/2023 5:30:00 AM 6.38 43.484 0 14.04 3.71 11.92
4/19/2023 5:45:00 AM 6.55 43.79 0 14.05 3.92 11.88
4/19/2023 6:00:00 AM 6.6 43.88 0 14.05 3.83 11.82
4/19/2023 6:15:00 AM 6.65 43.97 0 14.04 4.19 11.83
4/19/2023 6:30:00 AM 6.64 43.952 0 14.06 4.01 11.8
4/19/2023 6:45:00 AM 6.52 43.736 0 14.06 4.17 11.84
4/19/2023 7:00:00 AM 6.41 43.538 0 14.09 4.47 11.96
4/19/2023 7:15:00 AM 6.37 43.466 0 14.13 4.09 11.91
4/19/2023 7:30:00 AM 6.47 43.646 0 14.14 3.91 11.9
4/19/2023 7:45:00 AM 6.4 43.52 0 14.15 4.26 11.93
4/19/2023 8:00:00 AM 6.42 43.556 0 14.16 4.02 11.91
4/19/2023 8:15:00 AM 6.46 43.628 0 14.16 3.98 11.89
4/19/2023 8:30:00 AM 6.48 43.664 0 14.18 3.87 11.91
4/19/2023 8:45:00 AM 6.3 43.34 0 14.2 4.02 11.97
4/19/2023 9:00:00 AM 6.41 43.538 0 14.2 4.09 11.96
4/19/2023 9:15:00 AM 6.28 43.304 0 14.2 4.47 12
4/19/2023 9:30:00 AM 6.57 43.826 0 14.2 4.35 11.89
4/19/2023 9:45:00 AM 6.6 43.88 0 14.2 4.18 11.88
4/19/2023 10:00:00 AM 6.55 43.79 0 14.18 4.33 11.91
4/19/2023 10:15:00 AM 6.59 43.862 0 14.18 4.24 11.88
4/19/2023 10:30:00 AM 6.68 44.024 0 14.16 4.73 11.85
4/19/2023 10:45:00 AM 6.69 44.042 0 14.15 4.23 11.82
4/19/2023 11:00:00 AM 6.7 44.06 0 14.14 4.77 11.92
4/19/2023 11:15:00 AM 6.89 44.402 0 14.15 5.87 11.81
4/19/2023 11:30:00 AM 7 44.6 0 14.08 4.59 11.74
4/19/2023 11:45:00 AM 7.15 44.87 0 14.07 4.53 11.72
4/19/2023 12:00:00 PM 7.17 44.906 0 14.09 4.67 11.72
4/19/2023 12:15:00 PM 7.07 44.726 0 14.06 4.45 11.71
4/19/2023 12:30:00 PM 7.3 45.14 0 14.04 5.01 11.76
4/19/2023 12:45:00 PM 7.57 45.626 0 13.98 5.24 11.65
4/19/2023 1:00:00 PM 7.9 46.22 0 13.92 4.95 11.55
4/19/2023 1:15:00 PM 8.31 46.958 0 13.8 5.05 11.47
4/19/2023 1:30:00 PM 8.75 47.75 0 13.72 6.22 11.42
4/19/2023 1:45:00 PM 9.59 49.262 0 13.47 6.5 11.14
4/19/2023 2:00:00 PM 9.94 49.892 0 13.39 7.17 11.06
4/19/2023 2:15:00 PM 10.36 50.648 0 13.2 7.64 10.94
4/19/2023 2:30:00 PM 10.62 51.116 0 13.06 7.18 10.93
4/19/2023 2:45:00 PM 10.89 51.602 0 12.99 9.95 10.8
4/19/2023 3:00:00 PM 11.41 52.538 0 12.82 9.41 10.74
4/19/2023 3:15:00 PM 11.65 52.97 0 12.7 10.16 10.66
4/19/2023 3:30:00 PM 12.11 53.798 0 12.58 14.02 10.52
4/19/2023 3:45:00 PM 12.06 53.708 0 12.56 15.72 10.55
4/19/2023 4:00:00 PM 12.28 54.104 0 12.46 29.18 10.54
4/19/2023 4:15:00 PM 12.71 54.878 0 12.4 16.23 10.45
4/19/2023 4:30:00 PM 12.96 55.328 0 12.32 17.6 10.29
4/19/2023 4:45:00 PM 12.69 54.842 0 12.34 17.31 10.35
4/19/2023 5:00:00 PM 13.01 55.418 0 12.28 18 10.32
4/19/2023 5:15:00 PM 13.18 55.724 0 12.23 6.45 10.31
4/19/2023 5:30:00 PM 13.26 55.868 0 12.25 17.68 10.17
4/19/2023 5:45:00 PM 12.81 55.058 0 12.13 16.44 10.36
4/19/2023 6:00:00 PM 12.57 54.626 0 12.29 15.38 10.38
4/19/2023 6:15:00 PM 12.81 55.058 0 12.33 14.85 10.38
4/19/2023 6:30:00 PM 12.97 55.346 0 12.32 14.5 10.35
4/19/2023 6:45:00 PM 11.9 53.42 0 12.55 14.65 10.63
4/19/2023 7:00:00 PM 11.32 52.376 0 12.79 15.21 10.74
4/19/2023 7:15:00 PM 10.79 51.422 0 12.96 15.2 10.81
4/19/2023 7:30:00 PM 10.51 50.918 0 13.04 14.97 10.86
4/19/2023 7:45:00 PM 10.14 50.252 0 13.13 15.91 10.94
4/19/2023 8:00:00 PM 9.86 49.748 0 13.22 15.97 10.96
4/19/2023 8:15:00 PM 9.57 49.226 0 13.32 16.31 11.04
4/19/2023 8:30:00 PM 9.32 48.776 0 13.43 15.11 11.08
4/19/2023 8:45:00 PM 8.93 48.074 0 13.59 15.08 11.19
4/19/2023 9:00:00 PM 8.65 47.57 0 13.79 15.19 11.28
4/19/2023 9:15:00 PM 8.46 47.228 0 13.79 16.11 11.35
4/19/2023 9:30:00 PM 8.22 46.796 0 13.94 16.54 11.39
4/19/2023 9:45:00 PM 8.14 46.652 0 13.99 15.67 11.41
4/19/2023 10:00:00 PM 7.85 46.13 0 14.1 15.56 11.5
4/19/2023 10:15:00 PM 7.67 45.806 0 14.07 14.91 11.56
4/19/2023 10:30:00 PM 7.59 45.662 0 14.2 14.34 11.56
4/19/2023 10:45:00 PM 7.32 45.176 0 14.31 14.06 11.65
4/19/2023 11:00:00 PM 7.03 44.654 0 14.6 14.35 11.76
4/19/2023 11:15:00 PM 6.95 44.51 0 14.47 14.59 11.77
4/19/2023 11:30:00 PM 6.97 44.546 0 14.52 14.35 11.76
4/19/2023 11:45:00 PM 6.94 44.492 0 14.54 15.2 11.77
4/20/2023 12:00:00 AM 6.89 44.402 0 14.43 16.48 11.78
4/20/2023 12:15:00 AM 6.92 44.456 0 14.3 15.14 11.79
4/20/2023 12:30:00 AM 6.75 44.15 0 14.52 15.45 11.84
4/20/2023 12:45:00 AM 6.7 44.06 0 14.54 15.48 11.88
4/20/2023 1:00:00 AM 6.82 44.276 0 14.49 19.31 11.84
4/20/2023 1:15:00 AM 6.77 44.186 0 14.58 16.38 11.84
4/20/2023 1:30:00 AM 6.74 44.132 0 14.65 15.38 11.85
4/20/2023 1:45:00 AM 6.69 44.042 0 14.65 14.89 11.87
4/20/2023 2:00:00 AM 6.63 43.934 0 14.68 14.54 11.9
4/20/2023 2:15:00 AM 6.6 43.88 0 14.71 17.7 11.9
4/20/2023 2:30:00 AM 6.56 43.808 0 14.76 16.11 11.91
4/20/2023 2:45:00 AM 6.63 43.934 0 14.6 15.29 11.89
4/20/2023 3:00:00 AM 6.54 43.772 0 14.7 11.21 11.92
4/20/2023 3:15:00 AM 6.53 43.754 0 14.68 11.56 11.92
4/20/2023 3:30:00 AM 6.4 43.52 0 14.75 9.96 11.97
4/20/2023 3:45:00 AM 6.3 43.34 0 14.79 9.32 11.99
4/20/2023 4:00:00 AM 6.28 43.304 0 14.8 13.73 12
4/20/2023 4:15:00 AM 6.2 43.16 0 14.83 7.43 12.03
4/20/2023 4:30:00 AM 6.19 43.142 0 14.82 7.23 12.03
4/20/2023 4:45:00 AM 6.29 43.322 0 14.66 7.39 12
4/20/2023 5:00:00 AM 6.26 43.268 0 14.73 8.06 12.01
4/20/2023 5:15:00 AM 6.13 43.034 0 14.81 7.18 12.06
4/20/2023 5:30:00 AM 6.09 42.962 0 14.78 7.63 12.07
4/20/2023 5:45:00 AM 6.27 43.286 0 14.64 7.19 12.02
4/20/2023 6:00:00 AM 6.14 43.052 0 14.84 7.16 12.05
4/20/2023 6:15:00 AM 5.95 42.71 0 14.88 7.26 12.13
4/20/2023 6:30:00 AM 6.09 42.962 0 14.82 7.01 12.08
4/20/2023 6:45:00 AM 6.13 43.034 0 14.75 6.75 12.06
4/20/2023 7:00:00 AM 6.09 42.962 0 14.77 6.64 12.08
4/20/2023 7:15:00 AM 6.08 42.944 0 14.82 6.37 12.08
4/20/2023 7:30:00 AM 6.17 43.106 0 14.7 6.61 12.06
4/20/2023 7:45:00 AM 6.14 43.052 0 14.74 6.42 12.07
4/20/2023 8:00:00 AM 5.99 42.782 0 14.88 6.38 12.14
4/20/2023 8:15:00 AM 6.02 42.836 0 14.87 6.49 12.11
4/20/2023 8:30:00 AM 5.95 42.71 0 14.97 6.51 12.16
4/20/2023 8:45:00 AM 6.11 42.998 0 14.85 6.41 12.1
4/20/2023 9:00:00 AM 6.2 43.16 0 14.84 7.31 12.09
4/20/2023 9:15:00 AM 6.33 43.394 0 14.84 7.07 12.04
4/20/2023 9:30:00 AM 6.37 43.466 0 14.8 8.15 12.02
4/20/2023 9:45:00 AM 6.62 43.916 0 14.69 8.53 11.94
4/20/2023 10:00:00 AM 6.71 44.078 0 14.66 8.69 11.9
4/20/2023 10:15:00 AM 6.74 44.132 0 14.64 6.32 11.92
4/20/2023 10:30:00 AM 7.07 44.726 0 14.51 6.41 11.84
4/20/2023 10:45:00 AM 7.65 45.77 0 14.31 7.41 11.65
4/20/2023 11:00:00 AM 8.01 46.418 0 14.11 6.29 11.55
4/20/2023 11:15:00 AM 8.21 46.778 0 14.01 6.64 11.48
4/20/2023 11:30:00 AM 8.49 47.282 0 13.85 6.74 11.44
4/20/2023 11:45:00 AM 8.78 47.804 0 13.75 8.61 11.4
4/20/2023 12:00:00 PM 9.55 49.19 0 13.51 8.9 11.11
4/20/2023 12:15:00 PM 9.94 49.892 0 13.37 7.93 11.06
4/20/2023 12:30:00 PM 10.33 50.594 0 13.19 6.89 10.98
4/20/2023 12:45:00 PM 10.96 51.728 0 12.89 7.19 10.79
4/20/2023 1:00:00 PM 11.35 52.43 0 12.63 9.12 10.69
4/20/2023 1:15:00 PM 12.05 53.69 0 12.38 7.26 10.54
4/20/2023 1:30:00 PM 13.37 56.066 0 12.08 7.64 10.22
4/20/2023 1:45:00 PM 14.28 57.704 0 11.64 8.59 10.05
4/20/2023 2:00:00 PM 14.94 58.892 0 11.35 11.11 9.86
4/20/2023 2:15:00 PM 15.66 60.188 0 11.06 10.6 9.78
4/20/2023 2:30:00 PM 16.65 61.97 0 10.83 11.45 9.51
4/20/2023 2:45:00 PM 17.31 63.158 0 10.54 10.45 9.37
4/20/2023 3:00:00 PM 17.74 63.932 0 10.8 11.31 9.31
4/20/2023 3:15:00 PM 18.12 64.616 0 10.25 11.1 9.25
4/20/2023 3:30:00 PM 18.36 65.048 0 10.08 10.77 9.26
4/20/2023 3:45:00 PM 19.38 66.884 0 9.86 10.29 9.02
4/20/2023 4:00:00 PM 19.58 67.244 0 10.18 10.92 8.93
4/20/2023 4:15:00 PM 19.82 67.676 0 9.67 10.87 8.94
4/20/2023 4:30:00 PM 19.25 66.65 0 9.69 10.19 9.07
4/20/2023 4:45:00 PM 18.91 66.038 0 10.03 10.85 9.1
4/20/2023 5:00:00 PM 17.97 64.346 0 10.24 10.25 9.25
4/20/2023 5:15:00 PM 18.64 65.552 0 9.8 611.99 9.06
4/20/2023 5:30:00 PM 18.74 65.732 0 9.93 7.49 9.13
4/20/2023 5:45:00 PM 18.66 65.588 0 10.61 10.31 9.06
4/20/2023 6:00:00 PM 18.56 65.408 0 10.65 10.9 9.13
4/20/2023 6:15:00 PM 18.64 65.552 0 10.1 10.82 9.05
4/20/2023 6:30:00 PM 18.73 65.714 0 10.25 10.61 9.06
4/20/2023 6:45:00 PM 17.72 63.896 0 10.23 10.84 9.21
4/20/2023 7:00:00 PM 16.89 62.402 0 10.37 11.24 9.38
4/20/2023 7:15:00 PM 16 60.8 0 10.82 9.9 9.56
4/20/2023 7:30:00 PM 15.23 59.414 0 11.12 10.68 9.66
4/20/2023 7:45:00 PM 14.38 57.884 0 11.33 9.69 9.87
4/20/2023 8:00:00 PM 13.65 56.57 0 11.58 10.22 10.03
4/20/2023 8:15:00 PM 12.89 55.202 0 11.78 10.49 10.21
4/20/2023 8:30:00 PM 12.38 54.284 0 12.07 10.7 10.33
4/20/2023 8:45:00 PM 11.99 53.582 0 12.13 10.77 10.41
4/20/2023 9:00:00 PM 11.67 53.006 0 12.24 6.37 10.47
4/20/2023 9:15:00 PM 11.69 53.042 0 11.88 8.13 10.43
4/20/2023 9:30:00 PM 11.66 52.988 0 11.72 7.59 10.36
4/20/2023 9:45:00 PM 11.59 52.862 0 11.74 6.83 10.08
4/20/2023 10:00:00 PM 11.46 52.628 0 11.79 7.16 10.01
4/20/2023 10:15:00 PM 11.37 52.466 0 11.82 7.6 10.1
4/20/2023 10:30:00 PM 11.28 52.304 0 11.8 7.45 10.21
4/20/2023 10:45:00 PM 11.18 52.124 0 11.85 7.69 10.32
4/20/2023 11:00:00 PM 11.12 52.016 0 11.88 7.57 10.34
4/20/2023 11:15:00 PM 11.01 51.818 0 11.93 7.57 10.36
4/20/2023 11:30:00 PM 10.69 51.242 0 11.95 7.63 10.47
4/20/2023 11:45:00 PM 10.85 51.53 0 11.98 7.07 10.44
4/21/2023 12:00:00 AM 10.78 51.404 0 12.03 7.96 10.48
4/21/2023 12:15:00 AM 10.67 51.206 0 12.05 7.32 10.5
4/21/2023 12:30:00 AM 10.57 51.026 0 12.11 7.5 10.56
4/21/2023 12:45:00 AM 10.46 50.828 0 12.15 7.26 10.63
4/21/2023 1:00:00 AM 10.33 50.594 0 12.21 7.49 10.69
4/21/2023 1:15:00 AM 10.28 50.504 0 12.28 7.89 10.71
4/21/2023 1:30:00 AM 10.13 50.234 0 12.31 8.02 10.78
4/21/2023 1:45:00 AM 10.08 50.144 0 12.34 7.63 10.8
4/21/2023 2:00:00 AM 10 50 0 12.39 7.44 10.83
4/21/2023 2:15:00 AM 9.91 49.838 0 12.42 7.5 10.86
4/21/2023 2:30:00 AM 9.79 49.622 0 12.47 7.39 10.91
4/21/2023 2:45:00 AM 9.7 49.46 0 12.51 8.21 10.94
4/21/2023 3:00:00 AM 9.63 49.334 0 12.52 7.54 10.97
4/21/2023 3:15:00 AM 9.56 49.208 0 12.59 7.36 10.98
4/21/2023 3:30:00 AM 9.46 49.028 0 12.58 7.17 11.02
4/21/2023 3:45:00 AM 9.38 48.884 0 12.58 6.79 11.04
4/21/2023 4:00:00 AM 9.31 48.758 0 12.63 7.14 11.06
4/21/2023 4:15:00 AM 9.21 48.578 0 12.68 7.11 11.08
4/21/2023 4:30:00 AM 9.18 48.524 0 12.73 6.88 11.09
4/21/2023 4:45:00 AM 9.11 48.398 0 12.74 6.96 11.1
4/21/2023 5:00:00 AM 8.99 48.182 0 12.78 6.76 11.15
4/21/2023 5:15:00 AM 8.95 48.11 0 12.79 6.87 11.15
4/21/2023 5:30:00 AM 8.83 47.894 0 12.81 6.83 11.19
4/21/2023 5:45:00 AM 8.79 47.822 0 12.88 7.21 11.2
4/21/2023 6:00:00 AM 8.74 47.732 0 12.86 6.79 11.21
4/21/2023 6:15:00 AM 8.67 47.606 0 12.91 7.04 11.23
4/21/2023 6:30:00 AM 8.6 47.48 0 12.94 6.99 11.25
4/21/2023 6:45:00 AM 8.5 47.3 0 12.93 7.11 11.28
4/21/2023 7:00:00 AM 8.56 47.408 0 12.96 7.05 11.26
4/21/2023 7:15:00 AM 8.58 47.444 0 12.97 6.9 11.26
4/21/2023 7:30:00 AM 8.6 47.48 0 12.97 6.98 11.25
4/21/2023 7:45:00 AM 8.65 47.57 0 12.97 6.85 11.24
4/21/2023 8:00:00 AM 8.78 47.804 0 13 6.84 11.22
4/21/2023 8:15:00 AM 9.05 48.29 0 12.94 7.4 11.14
4/21/2023 8:30:00 AM 9.23 48.614 0 12.96 7.01 11.09
4/21/2023 8:45:00 AM 9.97 49.946 0 12.86 7.26 10.94
4/21/2023 9:00:00 AM 10.29 50.522 0 12.81 7.36 10.77
4/21/2023 9:15:00 AM 10.42 50.756 0 12.74 7.27 10.81
4/21/2023 9:30:00 AM 10.42 50.756 0 12.68 7.53 10.75
4/21/2023 9:45:00 AM 10.56 51.008 0 12.62 7.53 10.75
4/21/2023 10:00:00 AM 10.88 51.584 0 12.5 8.13 10.64
4/21/2023 10:15:00 AM 11.14 52.052 0 12.43 8.26 10.62
4/21/2023 10:30:00 AM 11.33 52.394 0 12.37 9.09 10.59
4/21/2023 10:45:00 AM 11.74 53.132 0 12.22 10.96 10.48
4/21/2023 11:00:00 AM 12.46 54.428 0 12.05 9.21 10.27
4/21/2023 11:15:00 AM 13.02 55.436 0 11.9 10.38 10.16
4/21/2023 11:30:00 AM 13.46 56.228 0 11.76 11.03 10.06
4/21/2023 11:45:00 AM 13.56 56.408 0 11.61 11.07 10.07
4/21/2023 12:00:00 PM 13.96 57.128 0 11.51 12 9.97
4/21/2023 12:15:00 PM 14.32 57.776 0 11.4 11.87 9.9
4/21/2023 12:30:00 PM 14.6 58.28 0 11.28 11.56 9.84
4/21/2023 12:45:00 PM 14.96 58.928 0 11.15 12.07 9.76
4/21/2023 1:00:00 PM 15.56 60.008 0 11.01 11.88 9.62
4/21/2023 1:15:00 PM 16.21 61.178 0 10.86 13.62 9.51
4/21/2023 1:30:00 PM 17.12 62.816 0 10.66 12.25 9.3
4/21/2023 1:45:00 PM 17.66 63.788 0 10.54 12.22 9.22
4/21/2023 2:00:00 PM 18.15 64.67 0 10.35 12.84 9.12
4/21/2023 2:15:00 PM 18.87 65.966 0 10.25 13.31 9
4/21/2023 2:30:00 PM 19.27 66.686 0 10.11 12.98 8.88
4/21/2023 2:45:00 PM 20.12 68.216 0 10.05 13.79 8.71
4/21/2023 3:00:00 PM 20.41 68.738 0 9.98 14.1 8.71
4/21/2023 3:15:00 PM 20.43 68.774 0 9.84 17.68 8.73
4/21/2023 3:30:00 PM 20.63 69.134 0 9.78 18.08 8.67
4/21/2023 3:45:00 PM 20.98 69.764 0 9.77 18.06 8.6
4/21/2023 4:00:00 PM 20.94 69.692 0 9.73 18.75 8.62
4/21/2023 4:15:00 PM 21.51 70.718 0 9.6 19.03 8.44
4/21/2023 4:30:00 PM 20.8 69.44 0 9.59 19.09 8.57
4/21/2023 4:45:00 PM 20.79 69.422 0 9.64 19.71 8.55
4/21/2023 5:00:00 PM 20.09 68.162 0 9.46 18.4 8.73
4/21/2023 5:15:00 PM 20.62 69.116 0 9.48 15.33 8.62
4/21/2023 5:30:00 PM 19.74 67.532 0 9.64 16.5 8.76
4/21/2023 5:45:00 PM 19.34 66.812 0 9.72 14.04 8.82
4/21/2023 6:00:00 PM 19.17 66.506 0 9.76 13.54 8.87
4/21/2023 6:15:00 PM 19.17 66.506 0 9.79 13.08 8.9
4/21/2023 6:30:00 PM 19.53 67.154 0 9.65 14.68 8.83
4/21/2023 6:45:00 PM 18.83 65.894 0 9.71 15.4 8.92
4/21/2023 7:00:00 PM 18.46 65.228 0 9.58 16.24 8.96
4/21/2023 7:15:00 PM 17.99 64.382 0 9.34 14.67 9.08
4/21/2023 7:30:00 PM 17.65 63.77 0 9.13 15.42 9.11
4/21/2023 7:45:00 PM 17.35 63.23 0 8.95 14.69 9.18
4/21/2023 8:00:00 PM 17.04 62.672 0 9.45 13.56 9.24
4/21/2023 8:15:00 PM 16.74 62.132 0 9.04 12.78 9.31
4/21/2023 8:30:00 PM 16.56 61.808 0 9.17 12.43 9.33
4/21/2023 8:45:00 PM 16.28 61.304 0 9.25 10.54 9.4
4/21/2023 9:00:00 PM 16.14 61.052 0 9.58 9.07 9.4
4/21/2023 9:15:00 PM 15.95 60.71 0 10.02 9.26 9.46
4/21/2023 9:30:00 PM 15.78 60.404 0 10 8.05 9.5
4/21/2023 9:45:00 PM 15.61 60.098 0 9.93 7.12 9.51
4/21/2023 10:00:00 PM 15.41 59.738 0 10.03 6.22 9.55
4/21/2023 10:15:00 PM 15.29 59.522 0 10.24 6.19 9.58
4/21/2023 10:30:00 PM 15.11 59.198 0 10.29 6.03 9.61
4/21/2023 10:45:00 PM 14.96 58.928 0 10.4 5.95 9.64
4/21/2023 11:00:00 PM 14.82 58.676 0 10.49 6.47 9.69
4/21/2023 11:15:00 PM 14.71 58.478 0 10.66 9.17 9.7
4/21/2023 11:30:00 PM 14.6 58.28 0 10.68 6.79 9.73
4/21/2023 11:45:00 PM 14.52 58.136 0 10.76 9.69 9.74
4/22/2023 12:00:00 AM 14.32 57.776 0 10.87 5.13 9.78
4/22/2023 12:15:00 AM 14.07 57.326 0 10.98 7.22 9.84
4/22/2023 12:30:00 AM 13.8 56.84 0 11.06 9 9.88
4/22/2023 12:45:00 AM 13.55 56.39 0 11.12 11.12 9.95
4/22/2023 1:00:00 AM 13.45 56.21 0 11.19 12.03 9.96
4/22/2023 1:15:00 AM 13.32 55.976 0 11.28 5.47 10
4/22/2023 1:30:00 AM 13.18 55.724 0 11.42 5.91 10.03
4/22/2023 1:45:00 AM 12.95 55.31 0 11.5 5.76 10.08
4/22/2023 2:00:00 AM 12.76 54.968 0 11.56 10.72 10.13
4/22/2023 2:15:00 AM 12.63 54.734 0 11.62 10.33 10.16
4/22/2023 2:30:00 AM 12.39 54.302 0 11.74 7.04 10.21
4/22/2023 2:45:00 AM 12.25 54.05 0 11.82 10.65 10.25
4/22/2023 3:00:00 AM 12.12 53.816 0 11.88 10.98 10.27
4/22/2023 3:15:00 AM 11.93 53.474 0 11.93 11.99 10.31
4/22/2023 3:30:00 AM 11.7 53.06 0 12.08 13.05 10.36
4/22/2023 3:45:00 AM 11.52 52.736 0 12.14 13.93 10.42
4/22/2023 4:00:00 AM 11.35 52.43 0 12.16 12.35 10.45
4/22/2023 4:15:00 AM 11.16 52.088 0 12.19 12.98 10.51
4/22/2023 4:30:00 AM 11.05 51.89 0 12.12 12.89 10.52
4/22/2023 4:45:00 AM 10.95 51.71 0 12.14 12.95 10.55
4/22/2023 5:00:00 AM 10.77 51.386 0 12.23 13.23 10.61
4/22/2023 5:15:00 AM 10.67 51.206 0 12.27 13.26 10.62
4/22/2023 5:30:00 AM 10.51 50.918 0 12.31 13.16 10.65
4/22/2023 5:45:00 AM 10.43 50.774 0 12.35 14.07 10.69
4/22/2023 6:00:00 AM 10.34 50.612 0 12.37 13.09 10.72
4/22/2023 6:15:00 AM 10.39 50.702 0 12.3 13.12 10.71
4/22/2023 6:30:00 AM 10.41 50.738 0 12.38 13.61 10.7
4/22/2023 6:45:00 AM 10.4 50.72 0 12.25 13.53 10.71
4/22/2023 7:00:00 AM 10.48 50.864 0 12.25 16.71 10.69
4/22/2023 7:15:00 AM 10.71 51.278 0 12.1 16.53 10.63
4/22/2023 7:30:00 AM 11.08 51.944 0 11.99 16.44 10.54
4/22/2023 7:45:00 AM 11.37 52.466 0 11.8 15.26 10.47
4/22/2023 8:00:00 AM 11.65 52.97 0 11.71 13.82 10.4
4/22/2023 8:15:00 AM 11.86 53.348 0 11.57 12.84 10.35
4/22/2023 8:30:00 AM 12.12 53.816 0 11.55 12.84 10.3
4/22/2023 8:45:00 AM 12.32 54.176 0 11.47 12.58 10.26
4/22/2023 9:00:00 AM 12.62 54.716 0 11.4 13.74 10.2
4/22/2023 9:15:00 AM 12.99 55.382 0 11.3 12.72 10.11
4/22/2023 9:30:00 AM 13.41 56.138 0 11.18 12.71 10
4/22/2023 9:45:00 AM 13.62 56.516 0 11.04 12.07 9.96
4/22/2023 10:00:00 AM 13.56 56.408 0 10.94 12.07 9.97
4/22/2023 10:15:00 AM 13.39 56.102 0 10.91 11.83 10.02
4/22/2023 10:30:00 AM 13.57 56.426 0 11.12 11.83 9.92
4/22/2023 10:45:00 AM 14.3 57.74 0 10.75 11.7 9.78
4/22/2023 11:00:00 AM 15.08 59.144 0 10.79 11.67 9.56
4/22/2023 11:15:00 AM 15.76 60.368 0 10.43 11.57 9.43
4/22/2023 11:30:00 AM 16.08 60.944 0 10.5 11.48 9.35
4/22/2023 11:45:00 AM 16.04 60.872 0 10.46 11.48 9.38
4/22/2023 12:00:00 PM 16.31 61.358 0 10.58 11.4 9.3
4/22/2023 12:15:00 PM 16.27 61.286 0 10.98 11.32 9.31
4/22/2023 12:30:00 PM 16.42 61.556 0 10.48 11.3 9.27
4/22/2023 12:45:00 PM 16.81 62.258 0 10.38 11.22 9.16
4/22/2023 1:00:00 PM 17.1 62.78 0 10.34 11.12 9.13
4/22/2023 1:15:00 PM 17.58 63.644 0 10.72 11.08 9.08
4/22/2023 1:30:00 PM 18.4 65.12 0 10.24 11.03 8.91
4/22/2023 1:45:00 PM 18.69 65.642 0 10.87 11.1 8.85
4/22/2023 2:00:00 PM 18.79 65.82201 0 10.23 11 8.84
4/22/2023 2:15:00 PM 18.82 65.876 0 10.89 10.98 8.81
4/22/2023 2:30:00 PM 19.16 66.488 0 9.97 10.95 8.73
4/22/2023 2:45:00 PM 19.79 67.622 0 10.01 10.91 8.63
4/22/2023 3:00:00 PM 19.92 67.856 0 10.06 10.92 8.59
4/22/2023 3:15:00 PM 20.5 68.9 0 10.08 10.9 8.49
4/22/2023 3:30:00 PM 20.93 69.674 0 9.54 10.98 8.39
4/22/2023 3:45:00 PM 21.17 70.106 0 9.91 11.01 8.36
4/22/2023 4:00:00 PM 21.99 71.582 0 9.72 11 8.2
4/22/2023 4:15:00 PM 21.44 70.592 0 10.27 11.12 8.31
4/22/2023 4:30:00 PM 20.27 68.486 0 10.68 11.24 8.5
4/22/2023 4:45:00 PM 19.42 66.956 0 10.42 11.27 8.66
4/22/2023 5:00:00 PM 18.83 65.894 0 11.15 11.33 8.77
4/22/2023 5:15:00 PM 17.37 63.266 0 9.69 11.44 9.06
4/22/2023 5:30:00 PM 15.75 60.35 0 9.9 11.4 9.38
4/22/2023 5:45:00 PM 15.32 59.576 0 10.23 10.93 9.48
4/22/2023 6:00:00 PM 14.94 58.892 0 10.26 10.95 9.58
4/22/2023 6:15:00 PM 14.45 58.01 0 10.41 10.94 9.68
4/22/2023 6:30:00 PM 13.96 57.128 0 10.71 10.95 9.78
4/22/2023 6:45:00 PM 13.58 56.444 0 10.99 10.71 9.87
4/22/2023 7:00:00 PM 13.32 55.976 0 11.17 10.89 9.96
4/22/2023 7:15:00 PM 13.18 55.724 0 11.18 10.77 9.97
4/22/2023 7:30:00 PM 13.16 55.688 0 11.25 11.07 9.97
4/22/2023 7:45:00 PM 13.14 55.652 0 11.27 10.74 10
4/22/2023 8:00:00 PM 13.13 55.634 0 11.32 10.26 9.97
4/22/2023 8:15:00 PM 13.01 55.418 0 11.36 10.29 10
4/22/2023 8:30:00 PM 12.9 55.22 0 11.4 10.18 10.03
4/22/2023 8:45:00 PM 12.87 55.166 0 11.32 9.69 10.04
4/22/2023 9:00:00 PM 12.88 55.184 0 11.45 10.46 10.03
4/22/2023 9:15:00 PM 12.88 55.184 0 11.41 9.43 10.03
4/22/2023 9:30:00 PM 12.8 55.04 0 11.33 11.63 10.06
4/22/2023 9:45:00 PM 12.79 55.022 0 11.34 10.29 10.06
4/22/2023 10:00:00 PM 12.71 54.878 0 11.37 9.49 10.09
4/22/2023 10:15:00 PM 12.76 54.968 0 11.5 10.1 10.08
4/22/2023 10:30:00 PM 12.88 55.184 0 11.72 9.65 10.03
4/22/2023 10:45:00 PM 12.87 55.166 0 11.62 36.77 10.03
4/22/2023 11:00:00 PM 12.84 55.112 0 11.67 21.1 10.03
4/22/2023 11:15:00 PM 12.85 55.13 0 11.6 30.43 10.03
4/22/2023 11:30:00 PM 12.79 55.022 0 11.7 746.22 10.04
4/22/2023 11:45:00 PM 12.79 55.022 0 11.72 28.67 10.04
4/23/2023 12:00:00 AM 12.85 55.13 0 11.6 12.07 10.03
4/23/2023 12:15:00 AM 12.85 55.13 0 11.51 13.92 10.03
4/23/2023 12:30:00 AM 12.89 55.202 0 11.31 9.95 10.02
4/23/2023 12:45:00 AM 12.88 55.184 0 11.31 6.94 10.03
4/23/2023 1:00:00 AM 12.86 55.148 0 11.28 6.6 10.05
4/23/2023 1:15:00 AM 12.81 55.058 0 11.28 7.98 10.06
4/23/2023 1:30:00 AM 12.76 54.968 0 11.25 7.33 10.08
4/23/2023 1:45:00 AM 12.74 54.932 0 11.22 6.19 9.99
4/23/2023 2:00:00 AM 12.67 54.806 0 11.29 6.3 9.72
4/23/2023 2:15:00 AM 12.61 54.698 0 11.39 5.94 9.51
4/23/2023 2:30:00 AM 12.51 54.518 0 11.45 6.11 9.47
4/23/2023 2:45:00 AM 12.47 54.446 0 11.45 7.16 9.48
4/23/2023 3:00:00 AM 12.41 54.338 0.002 11.54 6.48 9.49
4/23/2023 3:15:00 AM 12.36 54.248 0.002 11.53 7.37 9.51
4/23/2023 3:30:00 AM 12.29 54.122 0.046 11.57 6.01 9.52
4/23/2023 3:45:00 AM 12.23 54.014 0.07 11.5 6.89 9.53
4/23/2023 4:00:00 AM 12.17 53.906 0.088 11.58 8.13 9.55
4/23/2023 4:15:00 AM 12.1 53.78 0.093 11.55 8.33 9.57
4/23/2023 4:30:00 AM 12.03 53.654 0.095 11.53 8.17 9.59
4/23/2023 4:45:00 AM 11.96 53.528 0.095 11.57 6.23 9.61
4/23/2023 5:00:00 AM 11.9 53.42 0.095 11.64 5.56 9.64
4/23/2023 5:15:00 AM 11.83 53.294 0.095 11.63 7.7 9.67
4/23/2023 5:30:00 AM 11.76 53.168 0.095 11.69 7.23 9.68
4/23/2023 5:45:00 AM 11.7 53.06 0.095 11.63 7.12 9.69
4/23/2023 6:00:00 AM 11.64 52.952 0.095 11.67 6.81 9.72
4/23/2023 6:15:00 AM 11.58 52.844 0.095 11.65 6.42 9.74
4/23/2023 6:30:00 AM 11.51 52.718 0.096 11.66 6.94 9.76
4/23/2023 6:45:00 AM 11.45 52.61 0.096 11.72 4.76 9.79
4/23/2023 7:00:00 AM 11.4 52.52 0.096 11.7 4.65 9.82
4/23/2023 7:15:00 AM 11.35 52.43 0.096 11.75 4.6 9.87
4/23/2023 7:30:00 AM 11.3 52.34 0.096 11.75 4.6 9.91
4/23/2023 7:45:00 AM 11.27 52.286 0.096 11.75 4.43 9.97
4/23/2023 8:00:00 AM 11.23 52.214 0.096 11.83 4.43 10.03
4/23/2023 8:15:00 AM 11.19 52.142 0.096 11.84 4.36 10.08
4/23/2023 8:30:00 AM 11.17 52.106 0.096 11.87 4.34 10.13
4/23/2023 8:45:00 AM 11.18 52.124 0.096 11.83 4.19 10.19
4/23/2023 9:00:00 AM 11.2 52.16 0.096 11.82 3.99 10.24
4/23/2023 9:15:00 AM 11.22 52.196 0.095 11.83 4.12 10.29
4/23/2023 9:30:00 AM 11.26 52.268 0.094 11.87 4.16 10.34
4/23/2023 9:45:00 AM 11.33 52.394 0.091 11.87 4.09 10.37
4/23/2023 10:00:00 AM 11.44 52.592 0.082 11.84 3.86 10.4
4/23/2023 10:15:00 AM 11.52 52.736 0.074 11.79 3.94 10.42
4/23/2023 10:30:00 AM 11.62 52.916 0.056 11.76 4.09 10.43
4/23/2023 10:45:00 AM 11.78 53.204 0.024 11.73 3.88 10.44
4/23/2023 11:00:00 AM 11.99 53.582 0.002 11.66 3.68 10.4
4/23/2023 11:15:00 AM 12.29 54.122 0.002 11.63 3.6 10.36
4/23/2023 11:30:00 AM 12.37 54.266 0.001 11.52 4.03 10.36
4/23/2023 11:45:00 AM 12.39 54.302 0 11.5 3.87 10.34
4/23/2023 12:00:00 PM 12.48 54.464 0 11.5 3.72 10.29
4/23/2023 12:15:00 PM 12.55 54.59 0 11.46 3.61 10.28
4/23/2023 12:30:00 PM 12.87 55.166 0 11.38 3.78 10.24
4/23/2023 12:45:00 PM 13 55.4 0 11.34 3.85 10.24
4/23/2023 1:00:00 PM 13.11 55.598 0 11.41 3.87 10.19
4/23/2023 1:15:00 PM 13.11 55.598 0 11.33 3.73 10.15
4/23/2023 1:30:00 PM 13.14 55.652 0 11.35 3.87 10.11
4/23/2023 1:45:00 PM 13.13 55.634 0 11.27 3.55 10.08
4/23/2023 2:00:00 PM 13.43 56.174 0 11.23 3.67 10.01
4/23/2023 2:15:00 PM 13.65 56.57 0 11.21 3.78 9.93
4/23/2023 2:30:00 PM 13.61 56.498 0 11.2 3.69 9.94
4/23/2023 2:45:00 PM 13.47 56.246 0 11.18 4.52 9.97
4/23/2023 3:00:00 PM 13.44 56.192 0 11.18 3.93 9.97
4/23/2023 3:15:00 PM 12.73 54.914 0 11.15 7.37 10.11
4/23/2023 3:30:00 PM 13.03 55.454 0 11.18 3.54 10.09
4/23/2023 3:45:00 PM 12.96 55.328 0 11.22 3.77 10.09
4/23/2023 4:00:00 PM 12.72 54.896 0 11.25 3.64 10.16
4/23/2023 4:15:00 PM 12.76 54.968 0 11.27 3.43 10.13
4/23/2023 4:30:00 PM 12.72 54.896 0 11.29 4.04 10.14
4/23/2023 4:45:00 PM 12.64 54.752 0 11.28 3.6 10.17
4/23/2023 5:00:00 PM 12.57 54.626 0 11.31 3.46 10.18
4/23/2023 5:15:00 PM 12.51 54.518 0 11.34 3.45 10.21
4/23/2023 5:30:00 PM 12.47 54.446 0 11.36 4.49 10.21
4/23/2023 5:45:00 PM 12.41 54.338 0 11.39 4.44 10.22
4/23/2023 6:00:00 PM 12.24 54.032 0 11.39 4.3 10.27
4/23/2023 6:15:00 PM 11.83 53.294 0 11.46 3.86 10.28
4/23/2023 6:30:00 PM 11.58 52.844 0 11.52 5.28 10.41
4/23/2023 6:45:00 PM 11.51 52.718 0 11.57 3.97 10.5
4/23/2023 7:00:00 PM 11.47 52.646 0 11.6 4.48 10.43
4/23/2023 7:15:00 PM 11.48 52.664 0 11.64 3.7 10.46
4/23/2023 7:30:00 PM 11.37 52.466 0 11.65 4.41 10.49
4/23/2023 7:45:00 PM 11.23 52.214 0 11.7 4.18 10.53
4/23/2023 8:00:00 PM 10.99 51.782 0 11.71 4.33 10.61
4/23/2023 8:15:00 PM 10.68 51.224 0 11.75 4.44 10.68
4/23/2023 8:30:00 PM 10.69 51.242 0 11.76 7.46 10.65
4/23/2023 8:45:00 PM 10.76 51.368 0 11.74 5.27 10.67
4/23/2023 9:00:00 PM 10.68 51.224 0 11.77 4.87 10.68
4/23/2023 9:15:00 PM 10.5 50.9 0 11.77 4.66 10.68
4/23/2023 9:30:00 PM 10.57 51.026 0 11.82 4.53 10.68
4/23/2023 9:45:00 PM 10.5 50.9 0 11.86 4.58 10.69
4/23/2023 10:00:00 PM 10.38 50.684 0 11.85 4.82 10.75
4/23/2023 10:15:00 PM 10.27 50.486 0 11.93 4.52 10.75
4/23/2023 10:30:00 PM 10.19 50.342 0 11.92 4.35 10.8
4/23/2023 10:45:00 PM 10.13 50.234 0 11.95 4.5 10.82
4/23/2023 11:00:00 PM 10.06 50.108 0 11.99 3.77 10.85
4/23/2023 11:15:00 PM 9.99 49.982 0 11.96 4.26 10.86
4/23/2023 11:30:00 PM 9.87 49.766 0 12.01 3.99 10.88
4/23/2023 11:45:00 PM 9.8 49.64 0 12.1 3.95 10.9
4/24/2023 12:00:00 AM 9.78 49.604 0 12.1 4.07 10.9
4/24/2023 12:15:00 AM 9.57 49.226 0 12.21 3.94 10.98
4/24/2023 12:30:00 AM 9.63 49.334 0 12.19 4.15 10.94
4/24/2023 12:45:00 AM 9.53 49.154 0 12.21 4.2 10.97
4/24/2023 1:00:00 AM 9.5 49.1 0 12.27 3.82 10.99
4/24/2023 1:15:00 AM 9.44 48.992 0 12.26 3.68 11
4/24/2023 1:30:00 AM 9.39 48.902 0 12.29 3.94 11.02
4/24/2023 1:45:00 AM 9.29 48.722 0 12.3 3.79 11.01
4/24/2023 2:00:00 AM 9.21 48.578 0 12.31 4.61 11.05
4/24/2023 2:15:00 AM 9.11 48.398 0 12.36 3.92 11.08
4/24/2023 2:30:00 AM 8.96 48.128 0 12.48 3.94 11.11
4/24/2023 2:45:00 AM 8.81 47.858 0 12.55 3.96 11.11
4/24/2023 3:00:00 AM 8.76 47.768 0 12.52 3.84 11.1
4/24/2023 3:15:00 AM 8.56 47.408 0 12.55 3.92 11.15
4/24/2023 3:30:00 AM 8.42 47.156 0 12.61 3.27 11.31
4/24/2023 3:45:00 AM 8.38 47.084 0 12.69 3.56 11.24
4/24/2023 4:00:00 AM 8.38 47.084 0 12.72 3.61 11.31
4/24/2023 4:15:00 AM 8.39 47.102 0 12.72 3.39 11.28
4/24/2023 4:30:00 AM 8.4 47.12 0 12.75 3.62 11.27
4/24/2023 4:45:00 AM 8.26 46.868 0 12.78 3.51 11.3
4/24/2023 5:00:00 AM 8.1 46.58 0 12.81 3.43 11.33
4/24/2023 5:15:00 AM 8.1 46.58 0 12.92 3.36 11.3
4/24/2023 5:30:00 AM 8.02 46.436 0 12.93 3.29 11.37
4/24/2023 5:45:00 AM 7.93 46.274 0 12.95 3.31 11.42
4/24/2023 6:00:00 AM 7.78 46.004 0 13.06 3.5 11.41
4/24/2023 6:15:00 AM 7.63 45.734 0 13.14 3.37 11.51
4/24/2023 6:30:00 AM 7.55 45.59 0 13.17 3.91 11.51
4/24/2023 6:45:00 AM 7.58 45.644 0 13.2 3.78 11.49
4/24/2023 7:00:00 AM 7.58 45.644 0 13.17 4.13 11.51
4/24/2023 7:15:00 AM 7.54 45.572 0 13.23 3.98 11.54
4/24/2023 7:30:00 AM 7.44 45.392 0 13.26 3.7 11.55
4/24/2023 7:45:00 AM 7.55 45.59 0 13.27 3.92 11.5
4/24/2023 8:00:00 AM 7.58 45.644 0 13.35 5.31 11.54
4/24/2023 8:15:00 AM 7.62 45.716 0 13.35 4.15 11.52
4/24/2023 8:30:00 AM 7.63 45.734 0 13.3 4.39 11.52
4/24/2023 8:45:00 AM 8.15 46.67 0 13.25 4.32 11.36
4/24/2023 9:00:00 AM 9.15 48.47 0 13.12 4.47 11.04
4/24/2023 9:15:00 AM 9.34 48.812 0 13.04 4.71 10.99
4/24/2023 9:30:00 AM 9.42 48.956 0 13.09 5.41 10.95
4/24/2023 9:45:00 AM 9.22 48.596 0 12.97 6.16 11.08
4/24/2023 10:00:00 AM 9.09 48.362 0 13.04 6.25 11.14
4/24/2023 10:15:00 AM 9.16 48.488 0 13.07 6.35 11.1
4/24/2023 10:30:00 AM 9.4 48.92 0 12.97 6.3 11.09
4/24/2023 10:45:00 AM 9.4 48.92 0 12.94 6.36 11.11
4/24/2023 11:00:00 AM 9.58 49.244 0 12.91 6.45 11.03
4/24/2023 11:15:00 AM 9.79 49.622 0 12.9 6.42 10.96
4/24/2023 11:30:00 AM 10.01 50.018 0 12.87 6.43 10.89
4/24/2023 11:45:00 AM 9.9 49.82 0 12.86 6.34 10.98
4/24/2023 12:00:00 PM 9.67 49.406 0 12.87 6.18 11.05
4/24/2023 12:15:00 PM 9.5 49.1 0 12.86 6.52 11.09
4/24/2023 12:30:00 PM 10.18 50.324 0 12.6 6.82 10.87
4/24/2023 12:45:00 PM 10.21 50.378 0 12.47 7.14 10.93
4/24/2023 1:00:00 PM 10.48 50.864 0 12.33 7.42 10.89
4/24/2023 1:15:00 PM 10.69 51.242 0 12.26 7.58 10.8
4/24/2023 1:30:00 PM 10.81 51.458 0 12.12 8.45 10.78
4/24/2023 1:45:00 PM 11.01 51.818 0 12.2 7.63 10.64
4/24/2023 2:00:00 PM 10.8 51.44 0 12.28 7.65 10.76
4/24/2023 2:15:00 PM 10.81 51.458 0 12.24 7.91 10.76
4/24/2023 2:30:00 PM 10.77 51.386 0 12.21 7.63 10.77
4/24/2023 2:45:00 PM 10.75 51.35 0 12.25 7.11 10.74
4/24/2023 3:00:00 PM 11.32 52.376 0 11.96 11.77 10.61
4/24/2023 3:15:00 PM 11.51 52.718 0 11.98 15.49 10.59
4/24/2023 3:30:00 PM 11.33 52.394 0 12.05 14.24 10.62
4/24/2023 3:45:00 PM 10.93 51.674 0 12.19 10.38 10.74
4/24/2023 4:00:00 PM 11.48 52.664 0 11.99 15.41 10.57
4/24/2023 4:15:00 PM 11.98 53.564 0 11.87 18.75 10.49
4/24/2023 4:30:00 PM 12.12 53.816 0 11.88 17.01 10.38
4/24/2023 4:45:00 PM 12.19 53.942 0 11.67 24.51 10.42
4/24/2023 5:00:00 PM 12.26 54.068 0 11.62 20.84 10.46
4/24/2023 5:15:00 PM 12.48 54.464 0 11.58 38.33 10.41
4/24/2023 5:30:00 PM 12.22 53.996 0 11.77 20.68 10.44
4/24/2023 5:45:00 PM 11.72 53.096 0 11.96 19.49 10.55
4/24/2023 6:00:00 PM 11.34 52.412 0 12.05 18.22 10.61
4/24/2023 6:15:00 PM 11.09 51.962 0 12.14 23.66 10.68
4/24/2023 6:30:00 PM 10.17 50.306 0 12.49 15.82 10.87
4/24/2023 6:45:00 PM 9.92 49.856 0 12.69 17.4 10.92
4/24/2023 7:00:00 PM 9.75 49.55 0 12.77 11.3 11
4/24/2023 7:15:00 PM 9.54 49.172 0 12.82 7.22 11.04
4/24/2023 7:30:00 PM 9.43 48.974 0 13.06 7.2 11.09
4/24/2023 7:45:00 PM 9.26 48.668 0 13.03 6.23 11.1
4/24/2023 8:00:00 PM 9.23 48.614 0 13.07 5.33 11.08
4/24/2023 8:15:00 PM 9.2 48.56 0 13.02 5.12 11.07
4/24/2023 8:30:00 PM 9.03 48.254 0 13.09 4.92 11.12
4/24/2023 8:45:00 PM 8.87 47.966 0 13.28 4.82 11.17
4/24/2023 9:00:00 PM 8.42 47.156 0 13.34 4.53 11.36
4/24/2023 9:15:00 PM 8.28 46.904 0 13.48 4.42 11.38
4/24/2023 9:30:00 PM 8.22 46.796 0 13.47 4.42 11.39
4/24/2023 9:45:00 PM 8.15 46.67 0 13.55 4.31 11.38
4/24/2023 10:00:00 PM 8.28 46.904 0 13.54 4.32 11.32
4/24/2023 10:15:00 PM 8.27 46.886 0 13.52 4.22 11.33
4/24/2023 10:30:00 PM 8.14 46.652 0 13.59 4.15 11.38
4/24/2023 10:45:00 PM 8.04 46.472 0 13.62 4.18 11.42
4/24/2023 11:00:00 PM 7.88 46.184 0 13.76 4.16 11.47
4/24/2023 11:15:00 PM 7.66 45.788 0 13.98 4.19 11.54
4/24/2023 11:30:00 PM 7.68 45.824 0 13.91 4.17 11.51
4/24/2023 11:45:00 PM 7.62 45.716 0 13.93 4.18 11.54
4/25/2023 12:00:00 AM 7.56 45.608 0 13.98 4.19 11.57
4/25/2023 12:15:00 AM 7.48 45.464 0 14.08 4.23 11.59
4/25/2023 12:30:00 AM 7.51 45.518 0 14.07 4.2 11.57
4/25/2023 12:45:00 AM 7.41 45.338 0 14.12 4.19 11.59
4/25/2023 1:00:00 AM 7.42 45.356 0 14.13 4.19 11.59
4/25/2023 1:15:00 AM 7.4 45.32 0 14.08 4.16 11.6
4/25/2023 1:30:00 AM 7.3 45.14 0 14.15 4.19 11.63
4/25/2023 1:45:00 AM 7.29 45.122 0 14.07 4.15 11.63
4/25/2023 2:00:00 AM 7.19 44.942 0 14.02 4.2 11.66
4/25/2023 2:15:00 AM 7.07 44.726 0 14.16 4.17 11.7
4/25/2023 2:30:00 AM 7 44.6 0 14.22 4.2 11.71
4/25/2023 2:45:00 AM 6.82 44.276 0 14.39 4.13 11.76
4/25/2023 3:00:00 AM 6.57 43.826 0 14.53 4.21 11.85
4/25/2023 3:15:00 AM 6.32 43.376 0 14.65 4.32 11.91
4/25/2023 3:30:00 AM 6.06 42.908 0 14.85 4.36 11.98
4/25/2023 3:45:00 AM 5.89 42.602 0 14.98 4.34 12.04
4/25/2023 4:00:00 AM 5.7 42.26 0 14.97 4.28 12.11
4/25/2023 4:15:00 AM 5.5 41.9 0 15.08 4.42 12.18
4/25/2023 4:30:00 AM 5.34 41.612 0 15.16 4.41 12.22
4/25/2023 4:45:00 AM 5.15 41.27 0 15.26 4.39 12.29
4/25/2023 5:00:00 AM 5.05 41.09 0 15.36 4.46 12.32
4/25/2023 5:15:00 AM 4.84 40.712 0 15.53 4.48 12.39
4/25/2023 5:30:00 AM 4.69 40.442 0 15.59 4.43 12.44
4/25/2023 5:45:00 AM 4.48 40.064 0 15.69 4.47 12.52
4/25/2023 6:00:00 AM 4.4 39.92 0 15.76 4.54 12.56
4/25/2023 6:15:00 AM 4.27 39.686 0 15.88 4.43 12.59
4/25/2023 6:30:00 AM 4.21 39.578 0 15.93 4.38 12.63
4/25/2023 6:45:00 AM 4.13 39.434 0 15.94 4.48 12.66
4/25/2023 7:00:00 AM 4.05 39.29 0 15.91 4.37 12.7
4/25/2023 7:15:00 AM 4.06 39.308 0 15.85 4.38 12.72
4/25/2023 7:30:00 AM 4.19 39.542 0 15.75 4.26 12.67
4/25/2023 7:45:00 AM 4.15 39.47 0 15.83 4.47 12.69
4/25/2023 8:00:00 AM 4.21 39.578 0 15.78 4.26 12.67
4/25/2023 8:15:00 AM 4.64 40.352 0 15.4 4.23 12.52
4/25/2023 8:30:00 AM 5 41 0 15.15 4.16 12.4
4/25/2023 8:45:00 AM 5.91 42.638 0 14.85 4.22 12.08
4/25/2023 9:00:00 AM 6.98 44.564 0 14.52 4.34 11.73
4/25/2023 9:15:00 AM 7.29 45.122 0 14.17 5.15 11.65
4/25/2023 9:30:00 AM 7.85 46.13 0 14.08 5.93 11.49
4/25/2023 9:45:00 AM 7.69 45.842 0 14.04 4.95 11.64
4/25/2023 10:00:00 AM 7.58 45.644 0 13.95 5.38 11.69
4/25/2023 10:15:00 AM 7.61 45.698 0 13.96 6.95 11.73
4/25/2023 10:30:00 AM 7.67 45.806 0 13.73 5.24 11.64
4/25/2023 10:45:00 AM 7.66 45.788 0 13.79 7.79 11.72
4/25/2023 11:00:00 AM 8.14 46.652 0 13.6 7.64 11.54
4/25/2023 11:15:00 AM 8.46 47.228 0 13.56 8.38 11.48
4/25/2023 11:30:00 AM 8.3 46.94 0 13.67 8.44 11.54
4/25/2023 11:45:00 AM 8.11 46.598 0 13.73 8.03 11.57
4/25/2023 12:00:00 PM 7.81 46.058 0 13.67 8.5 11.68
4/25/2023 12:15:00 PM 7.9 46.22 0 13.91 8.56 11.59
4/25/2023 12:30:00 PM 8.04 46.472 0 13.58 8.59 11.63
4/25/2023 12:45:00 PM 8.52 47.336 0 13.34 8.31 11.5
4/25/2023 1:00:00 PM 9.13 48.434 0 14.16 8.86 11.23
4/25/2023 1:15:00 PM 9.21 48.578 0 13 9.16 11.32
4/25/2023 1:30:00 PM 9.31 48.758 0 13.11 8.46 11.23
4/25/2023 1:45:00 PM 9.7 49.46 0 13.71 9.01 11.09
4/25/2023 2:00:00 PM 10.48 50.864 0 12.56 9.01 10.92
4/25/2023 2:15:00 PM 10.41 50.738 0 12.96 9.35 10.92
4/25/2023 2:30:00 PM 10.83 51.494 0 13.59 9.65 10.79
4/25/2023 2:45:00 PM 11.55 52.79 0 12.57 9.75 10.64
4/25/2023 3:00:00 PM 13.33 55.994 0 12.4 9.71 10.13
4/25/2023 3:15:00 PM 13.73 56.714 0 14.05 9.6 9.99
4/25/2023 3:30:00 PM 13.34 56.012 0 13.09 9.67 10.15
4/25/2023 3:45:00 PM 12.14 53.852 0 13.26 9.66 10.5
4/25/2023 4:00:00 PM 11.58 52.844 0 13.79 9.65 10.56
4/25/2023 4:15:00 PM 11.36 52.448 0 12.98 9.71 10.63
4/25/2023 4:30:00 PM 11.27 52.286 0 12.44 9.62 10.65
4/25/2023 4:45:00 PM 11.86 53.348 0 12.52 9.6 10.5
4/25/2023 5:00:00 PM 12.05 53.69 0 12.62 9.48 10.44
4/25/2023 5:15:00 PM 12.18 53.924 0 12.21 9.8 10.44
4/25/2023 5:30:00 PM 12.04 53.672 0 14.04 9.68 10.42
4/25/2023 5:45:00 PM 13.08 55.544 0 12.22 9.79 10.2
4/25/2023 6:00:00 PM 12.19 53.942 0 12.87 9.64 10.38
4/25/2023 6:15:00 PM 11.95 53.51 0 12.74 9.71 10.53
4/25/2023 6:30:00 PM 11.75 53.15 0 13.14 9.76 10.6
4/25/2023 6:45:00 PM 12.05 53.69 0 12.43 9.67 10.49
4/25/2023 7:00:00 PM 11.36 52.448 0 12.88 9.76 10.63
4/25/2023 7:15:00 PM 10.45 50.81 0 13.75 9.62 10.89
4/25/2023 7:30:00 PM 9.72 49.496 0 13.64 9.83 11.06
4/25/2023 7:45:00 PM 8.97 48.146 0 13.42 9.79 11.29
4/25/2023 8:00:00 PM 8.14 46.652 0 13.83 10.03 11.51
4/25/2023 8:15:00 PM 7.58 45.644 0 14.28 9.96 11.65
4/25/2023 8:30:00 PM 7.17 44.906 0 14.24 9.92 11.76
4/25/2023 8:45:00 PM 6.63 43.934 0 14.48 10.01 11.95
4/25/2023 9:00:00 PM 6.11 42.998 0 14.54 9.98 12.16
4/25/2023 9:15:00 PM 5.85 42.53 0 14.75 10.1 12.2
4/25/2023 9:30:00 PM 5.57 42.026 0 14.79 10.13 12.28
4/25/2023 9:45:00 PM 5.27 41.486 0 15 10.15 12.38
4/25/2023 10:00:00 PM 5.04 41.072 0 15.2 10.06 12.46
4/25/2023 10:15:00 PM 4.68 40.424 0 15.4 10.09 12.59
4/25/2023 10:30:00 PM 4.5 40.1 0 15.6 10.13 12.64
4/25/2023 10:45:00 PM 4.17 39.506 0 15.48 9.99 12.76
4/25/2023 11:00:00 PM 4.05 39.29 0 15.84 10.12 12.79
4/25/2023 11:15:00 PM 3.84 38.912 0 15.8 10.14 12.88
4/25/2023 11:30:00 PM 3.7 38.66 0 15.88 10.11 12.94
4/25/2023 11:45:00 PM 3.57 38.426 0 15.88 10.28 12.96
4/26/2023 12:00:00 AM 3.44 38.192 0 15.83 10.26 13.03
4/26/2023 12:15:00 AM 3.27 37.886 0 16.08 10.18 13.07
4/26/2023 12:30:00 AM 3.19 37.742 0 16.21 10.18 13.1
4/26/2023 12:45:00 AM 2.99 37.382 0 16.3 9.96 13.19
4/26/2023 1:00:00 AM 2.95 37.31 0 16.43 10.21 13.19
4/26/2023 1:15:00 AM 2.87 37.166 0 16.42 10.25 13.23
4/26/2023 1:30:00 AM 2.76 36.968 0 16.49 10.29 13.27
4/26/2023 1:45:00 AM 2.6 36.68 0 16.54 10.29 13.33
4/26/2023 2:00:00 AM 2.54 36.572 0 16.75 10.2 13.34
4/26/2023 2:15:00 AM 2.52 36.536 0 16.74 10.18 13.36
4/26/2023 2:30:00 AM 2.38 36.284 0 16.74 9.95 13.38
4/26/2023 2:45:00 AM 2.24 36.032 0 16.77 10.17 13.49
4/26/2023 3:00:00 AM 2.11 35.798 0 16.99 9.94 13.49
4/26/2023 3:15:00 AM 1.96 35.528 0 16.93 10.18 13.59
4/26/2023 3:30:00 AM 1.89 35.402 0 16.93 10.11 13.62
4/26/2023 3:45:00 AM 1.99 35.582 0 17.21 10.39 13.54
4/26/2023 4:00:00 AM 2.02 35.636 0 16.98 10.29 13.55
4/26/2023 4:15:00 AM 2.13 35.834 0 16.88 10.3 13.5
4/26/2023 4:30:00 AM 2.17 35.906 0 17 9.99 13.48
4/26/2023 4:45:00 AM 2.21 35.978 0 16.97 10.07 13.45
4/26/2023 5:00:00 AM 2.3 36.14 0 16.89 10.52 13.42
4/26/2023 5:15:00 AM 2.4 36.32 0 16.74 10.5 13.39
4/26/2023 5:30:00 AM 2.46 36.428 0 16.55 10.31 13.35
4/26/2023 5:45:00 AM 2.52 36.536 0 16.68 9.86 13.32
4/26/2023 6:00:00 AM 2.6 36.68 0 16.59 10.98 13.31
4/26/2023 6:15:00 AM 2.67 36.806 0 16.55 10.58 13.27
4/26/2023 6:30:00 AM 2.73 36.914 0 16.45 10.08 13.25
4/26/2023 6:45:00 AM 2.81 37.058 0 16.51 10.12 13.22
4/26/2023 7:00:00 AM 2.93 37.274 0 16.29 10.1 13.18
4/26/2023 7:15:00 AM 3.17 37.706 0 16.43 10.43 13.1
4/26/2023 7:30:00 AM 3.45 38.21 0 15.98 9.61 12.95
4/26/2023 7:45:00 AM 3.81 38.858 0 15.92 9.42 12.81
4/26/2023 8:00:00 AM 4.35 39.83 0 15.54 9.49 12.6
4/26/2023 8:15:00 AM 5.15 41.27 0 15.2 9.32 12.33
4/26/2023 8:30:00 AM 5.65 42.17 0 14.81 9.67 12.2
4/26/2023 8:45:00 AM 6.04 42.872 0 14.49 9.85 12.04
4/26/2023 9:00:00 AM 7.03 44.654 0 13.94 9.86 11.68
4/26/2023 9:15:00 AM 7.34 45.212 0 13.81 9.88 11.61
4/26/2023 9:30:00 AM 7.74 45.932 0 13.75 9.83 11.48
4/26/2023 9:45:00 AM 7.75 45.95 0 13.56 9.87 11.49
4/26/2023 10:00:00 AM 8.14 46.652 0 13.47 9.9 11.37
4/26/2023 10:15:00 AM 8.5 47.3 0 13.38 9.85 11.25
4/26/2023 10:30:00 AM 8.59 47.462 0 13.18 9.83 11.23
4/26/2023 10:45:00 AM 9.11 48.398 0 13.06 9.78 11.06
4/26/2023 11:00:00 AM 9.86 49.748 0 12.71 9.76 10.83
4/26/2023 11:15:00 AM 10.35 50.63 0 12.66 9.75 10.72
4/26/2023 11:30:00 AM 10.81 51.458 0 12.53 9.78 10.61
4/26/2023 11:45:00 AM 10.46 50.828 0 12.62 9.7 10.72
4/26/2023 12:00:00 PM 10.72 51.296 0 12.47 9.68 10.63
4/26/2023 12:15:00 PM 11.16 52.088 0 12.33 9.72 10.51
4/26/2023 12:30:00 PM 11.96 53.528 0 12.07 9.62 10.31
4/26/2023 12:45:00 PM 12.07 53.726 0 12.05 9.62 10.28
4/26/2023 1:00:00 PM 9.98 49.964 0.099 12.88 8.9 11.24
4/26/2023 1:15:00 PM 10.25 50.45 0.099 12.7 3.2 11.13
4/26/2023 1:30:00 PM 10.56 51.008 0.099 12.56 2.59 11.05
4/26/2023 1:45:00 PM 10.88 51.584 0.099 12.4 2.35 10.98
4/26/2023 2:00:00 PM 11.07 51.926 0.099 12.29 2.34 10.87
4/26/2023 2:15:00 PM 11.15 52.07 0.099 12.22 2.41 10.75
4/26/2023 2:30:00 PM 11.14 52.052 0.099 12.19 2.59 10.65
4/26/2023 2:45:00 PM 11.12 52.016 0.099 12.18 2.5 10.55
4/26/2023 3:00:00 PM 11.04 51.872 0.099 12.19 2.58 10.48
4/26/2023 3:15:00 PM 10.96 51.728 0.099 12.21 2.68 10.44
4/26/2023 3:30:00 PM 10.9 51.62 0.098 12.22 2.68 10.41
4/26/2023 3:45:00 PM 10.89 51.602 0.098 12.22 2.62 10.44
4/26/2023 4:00:00 PM 10.88 51.584 0.098 12.22 2.61 10.49
4/26/2023 4:15:00 PM 10.88 51.584 0.098 12.21 2.63 10.53
4/26/2023 4:30:00 PM 10.88 51.584 0.098 12.21 2.7 10.58
4/26/2023 4:45:00 PM 10.93 51.674 0.098 12.22 2.81 10.64
4/26/2023 5:00:00 PM 11 51.8 0.098 12.22 2.88 10.68
4/26/2023 5:15:00 PM 11.07 51.926 0.098 12.2 3.05 10.71
4/26/2023 5:30:00 PM 11.15 52.07 0.098 12.17 3.15 10.71
4/26/2023 5:45:00 PM 11.13 52.034 0.098 12.17 3.22 10.71
4/26/2023 6:00:00 PM 11.1 51.98 0.098 12.21 3.29 10.68
4/26/2023 6:15:00 PM 11.08 51.944 0.098 12.2 3.35 10.65
4/26/2023 6:30:00 PM 11 51.8 0.098 12.22 3.67 10.6
4/26/2023 6:45:00 PM 10.88 51.584 0.098 12.25 3.61 10.54
4/26/2023 7:00:00 PM 10.68 51.224 0.098 12.3 3.64 10.47
4/26/2023 7:15:00 PM 10.51 50.918 0.097 12.36 3.63 10.45
4/26/2023 7:30:00 PM 10.38 50.684 0.097 12.4 3.39 10.45
4/26/2023 7:45:00 PM 10.25 50.45 0.097 12.45 3.24 10.45
4/26/2023 8:00:00 PM 10.13 50.234 0.097 12.5 3.15 10.44
4/26/2023 8:15:00 PM 9.99 49.982 0.097 12.54 3.24 10.43
4/26/2023 8:30:00 PM 9.85 49.73 0.097 12.6 3.92 10.42
4/26/2023 8:45:00 PM 9.71 49.478 0.097 12.65 4.55 10.41
4/26/2023 9:00:00 PM 9.58 49.244 0.097 12.68 4.68 10.42
4/26/2023 9:15:00 PM 9.47 49.046 0.097 12.69 4.8 10.42
4/26/2023 9:30:00 PM 9.38 48.884 0.097 12.77 4.76 10.43
4/26/2023 9:45:00 PM 9.29 48.722 0.096 12.82 5.43 10.45
4/26/2023 10:00:00 PM 9.21 48.578 0.096 12.85 5.62 10.49
4/26/2023 10:15:00 PM 9.12 48.416 0.096 12.9 6.03 10.5
4/26/2023 10:30:00 PM 9.03 48.254 0.096 12.94 5.23 10.56
4/26/2023 10:45:00 PM 8.95 48.11 0.095 12.98 5.37 10.57
4/26/2023 11:00:00 PM 8.88 47.984 0.095 13.03 5.23 10.61
4/26/2023 11:15:00 PM 8.82 47.876 0.095 13.06 5.18 10.63
4/26/2023 11:30:00 PM 8.75 47.75 0.096 13.1 5.03 10.67
4/26/2023 11:45:00 PM 8.68 47.624 0.096 13.12 5.07 10.69
4/27/2023 12:00:00 AM 8.62 47.516 0.096 13.15 5.12 10.71
4/27/2023 12:15:00 AM 8.55 47.39 0.096 13.17 4.9 10.75
4/27/2023 12:30:00 AM 8.48 47.264 0.095 13.19 4.83 10.76
4/27/2023 12:45:00 AM 8.42 47.156 0.095 13.21 4.94 10.79
4/27/2023 1:00:00 AM 8.36 47.048 0.095 13.25 4.94 10.81
4/27/2023 1:15:00 AM 8.3 46.94 0.095 13.28 4.8 10.83
4/27/2023 1:30:00 AM 8.24 46.832 0.096 13.31 4.9 10.85
4/27/2023 1:45:00 AM 8.2 46.76 0.096 13.32 5.46 10.86
4/27/2023 2:00:00 AM 8.15 46.67 0.096 13.33 5.09 10.87
4/27/2023 2:15:00 AM 8.11 46.598 0.096 13.36 5.07 10.89
4/27/2023 2:30:00 AM 8.07 46.526 0.096 13.38 4.8 10.9
4/27/2023 2:45:00 AM 8.03 46.454 0.097 13.41 4.81 10.92
4/27/2023 3:00:00 AM 7.99 46.382 0.097 13.4 5.08 10.92
4/27/2023 3:15:00 AM 7.96 46.328 0.097 13.42 4.97 10.92
4/27/2023 3:30:00 AM 7.93 46.274 0.097 13.44 4.77 10.93
4/27/2023 3:45:00 AM 7.89 46.202 0.097 13.46 4.77 10.94
4/27/2023 4:00:00 AM 7.86 46.148 0.097 13.46 4.81 10.95
4/27/2023 4:15:00 AM 7.83 46.094 0.097 13.46 4.61 10.95
4/27/2023 4:30:00 AM 7.81 46.058 0.097 13.48 4.74 10.97
4/27/2023 4:45:00 AM 7.78 46.004 0.097 13.5 4.61 10.97
4/27/2023 5:00:00 AM 7.76 45.968 0.098 13.51 4.53 10.99
4/27/2023 5:15:00 AM 7.74 45.932 0.098 13.54 4.66 10.98
4/27/2023 5:30:00 AM 7.73 45.914 0.098 13.55 4.51 10.99
4/27/2023 5:45:00 AM 7.71 45.878 0.098 13.53 4.47 10.99
4/27/2023 6:00:00 AM 7.69 45.842 0.097 13.54 4.49 11
4/27/2023 6:15:00 AM 7.68 45.824 0.097 13.54 4.48 11.01
4/27/2023 6:30:00 AM 7.66 45.788 0.097 13.54 4.23 11.01
4/27/2023 6:45:00 AM 7.65 45.77 0.097 13.57 4.1 11.03
4/27/2023 7:00:00 AM 7.64 45.752 0.097 13.56 4.21 11.04
4/27/2023 7:15:00 AM 7.63 45.734 0.097 13.56 4.16 11.06
4/27/2023 7:30:00 AM 7.64 45.752 0.097 13.56 4.05 11.1
4/27/2023 7:45:00 AM 7.67 45.806 0.097 13.56 3.99 11.15
4/27/2023 8:00:00 AM 7.69 45.842 0.097 13.54 3.99 11.2
4/27/2023 8:15:00 AM 7.71 45.878 0.097 13.56 3.91 11.26
4/27/2023 8:30:00 AM 7.75 45.95 0.097 13.69 3.89 11.3
4/27/2023 8:45:00 AM 7.78 46.004 0.097 13.69 3.75 11.34
4/27/2023 9:00:00 AM 7.81 46.058 0.097 13.7 3.71 11.36
4/27/2023 9:15:00 AM 7.85 46.13 0.097 13.67 3.69 11.39
4/27/2023 9:30:00 AM 7.89 46.202 0.097 13.67 3.77 11.41
4/27/2023 9:45:00 AM 7.92 46.256 0.097 13.64 3.67 11.42
4/27/2023 10:00:00 AM 7.98 46.364 0.097 13.63 3.66 11.43
4/27/2023 10:15:00 AM 8.05 46.49 0.097 13.6 3.68 11.43
4/27/2023 10:30:00 AM 8.13 46.634 0.097 13.58 3.72 11.44
4/27/2023 10:45:00 AM 8.21 46.778 0.097 13.55 3.84 11.46
4/27/2023 11:00:00 AM 8.26 46.868 0.097 13.51 3.65 11.45
4/27/2023 11:15:00 AM 8.29 46.922 0.097 13.5 3.44 11.44
4/27/2023 11:30:00 AM 8.33 46.994 0.097 13.5 3.52 11.43
4/27/2023 11:45:00 AM 8.39 47.102 0.097 13.45 3.46 11.43
4/27/2023 12:00:00 PM 8.46 47.228 0.097 13.42 3.44 11.41
4/27/2023 12:15:00 PM 8.63 47.534 0.097 13.35 3.4 11.42
4/27/2023 12:30:00 PM 8.86 47.948 0.097 13.25 3.37 11.4
4/27/2023 12:45:00 PM 9.12 48.416 0.097 13.14 3.31 11.39
4/27/2023 1:00:00 PM 9.36 48.848 0.097 13.03 3.37 11.38
4/27/2023 1:15:00 PM 9.64 49.352 0.097 12.9 3.29 11.35
4/27/2023 1:30:00 PM 10 50 0.097 12.77 3.34 11.3
4/27/2023 1:45:00 PM 10.45 50.81 0.096 12.58 3.3 11.24
4/27/2023 2:00:00 PM 10.97 51.746 0.096 12.36 3.3 11.16
4/27/2023 2:15:00 PM 11.28 52.304 0.097 12.24 3.3 11.06
4/27/2023 2:30:00 PM 11.64 52.952 0.096 12.11 3.14 10.95
4/27/2023 2:45:00 PM 12.16 53.888 0.097 11.92 3.3 10.86
4/27/2023 3:00:00 PM 12.46 54.428 0.097 11.79 3.19 10.77
4/27/2023 3:15:00 PM 12.55 54.59 0.097 11.75 3.1 10.69
4/27/2023 3:30:00 PM 12.44 54.392 0.097 11.76 3.18 10.63
4/27/2023 3:45:00 PM 12.34 54.212 0.097 11.79 3.18 10.61
4/27/2023 4:00:00 PM 12.16 53.888 0.097 11.84 3.17 10.61
4/27/2023 4:15:00 PM 12.03 53.654 0.097 11.88 3.06 10.6
4/27/2023 4:30:00 PM 12.07 53.726 0.097 11.87 3.23 10.61
4/27/2023 4:45:00 PM 12.11 53.798 0.097 11.85 3.08 10.61
4/27/2023 5:00:00 PM 12.25 54.05 0.097 11.8 3.1 10.58
4/27/2023 5:15:00 PM 12.38 54.284 0.097 11.74 3.12 10.55
4/27/2023 5:30:00 PM 12.5 54.5 0.097 11.69 3.25 10.53
4/27/2023 5:45:00 PM 12.57 54.626 0.097 11.67 3.3 10.5
4/27/2023 6:00:00 PM 12.56 54.608 0.097 11.66 3.44 10.47
4/27/2023 6:15:00 PM 12.5 54.5 0.098 11.7 3.54 10.45
4/27/2023 6:30:00 PM 12.4 54.32 0.099 11.71 3.49 10.41
4/27/2023 6:45:00 PM 12.28 54.104 0.099 11.74 3.49 10.38
4/27/2023 7:00:00 PM 12.13 53.834 0.1 11.79 3.78 10.35
4/27/2023 7:15:00 PM 11.99 53.582 0.1 11.84 3.62 10.32
4/27/2023 7:30:00 PM 11.87 53.366 0.101 11.88 3.58 10.27
4/27/2023 7:45:00 PM 11.73 53.114 0.101 11.93 3.66 10.23
4/27/2023 8:00:00 PM 11.59 52.862 0.102 11.97 3.74 10.18
4/27/2023 8:15:00 PM 11.46 52.628 0.102 12.01 3.9 10.13
4/27/2023 8:30:00 PM 11.32 52.376 0.103 12.06 3.9 10.1
4/27/2023 8:45:00 PM 11.17 52.106 0.103 12.1 4.04 10.09
4/27/2023 9:00:00 PM 11.02 51.836 0.104 12.19 4.06 10.09
4/27/2023 9:15:00 PM 10.88 51.584 0.106 12.26 4.31 10.09
4/27/2023 9:30:00 PM 10.75 51.35 0.107 12.29 4.35 10.11
4/27/2023 9:45:00 PM 10.61 51.098 0.108 12.35 4.29 10.14
4/27/2023 10:00:00 PM 10.48 50.864 0.109 12.39 4.48 10.15
4/27/2023 10:15:00 PM 10.35 50.63 0.109 12.46 4.54 10.17
4/27/2023 10:30:00 PM 10.21 50.378 0.108 12.5 4.27 10.21
4/27/2023 10:45:00 PM 10.09 50.162 0.108 12.54 4.4 10.24
4/27/2023 11:00:00 PM 9.96 49.928 0.106 12.61 4.46 10.27
4/27/2023 11:15:00 PM 9.84 49.712 0.105 12.66 4.44 10.31
4/27/2023 11:30:00 PM 9.71 49.478 0.104 12.7 4.29 10.34
4/27/2023 11:45:00 PM 9.58 49.244 0.103 12.76 4.44 10.38
4/28/2023 12:00:00 AM 9.46 49.028 0.102 12.78 4.59 10.4
4/28/2023 12:15:00 AM 9.34 48.812 0.101 12.83 4.23 10.44
4/28/2023 12:30:00 AM 9.23 48.614 0.1 12.9 4.23 10.46
4/28/2023 12:45:00 AM 9.13 48.434 0.1 12.95 4.36 10.5
4/28/2023 1:00:00 AM 9.02 48.236 0.099 12.98 4.46 10.53
4/28/2023 1:15:00 AM 8.92 48.056 0.099 13.03 4.45 10.56
4/28/2023 1:30:00 AM 8.85 47.93 0.098 13.06 4.36 10.58
4/28/2023 1:45:00 AM 8.78 47.804 0.098 13.08 4.29 10.61
4/28/2023 2:00:00 AM 8.71 47.678 0.098 13.15 4.43 10.63
4/28/2023 2:15:00 AM 8.63 47.534 0.097 13.16 4.3 10.65
4/28/2023 2:30:00 AM 8.54 47.372 0.097 13.15 4.43 10.67
4/28/2023 2:45:00 AM 8.46 47.228 0.097 13.21 4.19 10.69
4/28/2023 3:00:00 AM 8.39 47.102 0.097 13.23 4.47 10.72
4/28/2023 3:15:00 AM 8.33 46.994 0.097 13.3 4.32 10.74
4/28/2023 3:30:00 AM 8.26 46.868 0.096 13.31 4.21 10.76
4/28/2023 3:45:00 AM 8.19 46.742 0.096 13.35 4.09 10.78
4/28/2023 4:00:00 AM 8.12 46.616 0.096 13.38 4.29 10.8
4/28/2023 4:15:00 AM 8.05 46.49 0.096 13.43 4.11 10.81
4/28/2023 4:30:00 AM 7.98 46.364 0.096 13.45 4.21 10.83
4/28/2023 4:45:00 AM 7.91 46.238 0.096 13.5 3.85 10.85
4/28/2023 5:00:00 AM 7.85 46.13 0.096 13.53 3.94 10.88
4/28/2023 5:15:00 AM 7.79 46.022 0.096 13.57 3.94 10.89
4/28/2023 5:30:00 AM 7.73 45.914 0.096 13.6 3.83 10.9
4/28/2023 5:45:00 AM 7.69 45.842 0.096 13.62 3.85 10.92
4/28/2023 6:00:00 AM 7.64 45.752 0.096 13.64 3.77 10.93
4/28/2023 6:15:00 AM 7.6 45.68 0.096 13.68 3.85 10.95
4/28/2023 6:30:00 AM 7.56 45.608 0.096 13.75 3.68 10.97
4/28/2023 6:45:00 AM 7.53 45.554 0.096 13.74 3.5 11.01
4/28/2023 7:00:00 AM 7.51 45.518 0.096 13.74 3.65 11.05
4/28/2023 7:15:00 AM 7.5 45.5 0.096 13.74 3.58 11.11
4/28/2023 7:30:00 AM 7.5 45.5 0.096 13.75 3.53 11.16
4/28/2023 7:45:00 AM 7.51 45.518 0.096 13.76 3.62 11.23
4/28/2023 8:00:00 AM 7.54 45.572 0.095 13.78 3.51 11.28
4/28/2023 8:15:00 AM 7.59 45.662 0.095 13.77 3.51 11.35
4/28/2023 8:30:00 AM 7.66 45.788 0.095 13.75 3.69 11.39
4/28/2023 8:45:00 AM 7.75 45.95 0.095 13.71 3.55 11.44
4/28/2023 9:00:00 AM 7.85 46.13 0.095 13.69 3.62 11.47
4/28/2023 9:15:00 AM 7.96 46.328 0.095 13.67 3.47 11.49
4/28/2023 9:30:00 AM 8.08 46.544 0.095 13.6 3.52 11.5
4/28/2023 9:45:00 AM 8.23 46.814 0.095 13.57 3.37 11.5
4/28/2023 10:00:00 AM 8.39 47.102 0.095 13.51 3.53 11.5
4/28/2023 10:15:00 AM 8.57 47.426 0.095 13.51 3.38 11.49
4/28/2023 10:30:00 AM 8.77 47.786 0.095 13.38 3.45 11.46
4/28/2023 10:45:00 AM 8.99 48.182 0.094 13.31 3.39 11.44
4/28/2023 11:00:00 AM 9.18 48.524 0.094 13.25 3.47 11.4
4/28/2023 11:15:00 AM 9.35 48.83 0.094 13.16 3.41 11.37
4/28/2023 11:30:00 AM 9.48 49.064 0.094 13.12 3.43 11.35
4/28/2023 11:45:00 AM 9.6 49.28 0.094 13.07 3.33 11.31
4/28/2023 12:00:00 PM 9.71 49.478 0.094 13.01 3.44 11.26
4/28/2023 12:15:00 PM 9.83 49.694 0.094 12.96 3.29 11.23
4/28/2023 12:30:00 PM 9.93 49.874 0.094 12.93 3.32 11.18
4/28/2023 12:45:00 PM 10.04 50.072 0.094 12.9 3.29 11.16
4/28/2023 1:00:00 PM 10.12 50.216 0.094 12.86 3.4 11.13
4/28/2023 1:15:00 PM 10.2 50.36 0.094 12.79 3.38 11.1
4/28/2023 1:30:00 PM 10.25 50.45 0.094 12.77 3.3 11.08
4/28/2023 1:45:00 PM 10.3 50.54 0.094 12.74 3.38 11.06
4/28/2023 2:00:00 PM 10.35 50.63 0.094 12.73 3.22 11.03
4/28/2023 2:15:00 PM 10.4 50.72 0.094 12.73 3.23 11.02
4/28/2023 2:30:00 PM 10.43 50.774 0.094 12.72 3.27 10.98
4/28/2023 2:45:00 PM 10.46 50.828 0.094 12.71 3.44 10.98
4/28/2023 3:00:00 PM 10.47 50.846 0.094 12.74 3.36 10.96
4/28/2023 3:15:00 PM 10.47 50.846 0.094 12.72 3.3 10.92
4/28/2023 3:30:00 PM 10.46 50.828 0.094 12.71 3.31 10.9
4/28/2023 3:45:00 PM 10.44 50.792 0.094 12.72 3.36 10.88
4/28/2023 4:00:00 PM 10.41 50.738 0.094 12.75 3.32 10.87
4/28/2023 4:15:00 PM 10.38 50.684 0.094 12.76 3.4 10.84
4/28/2023 4:30:00 PM 10.34 50.612 0.094 12.78 3.35 10.82
4/28/2023 4:45:00 PM 10.29 50.522 0.094 12.82 3.43 10.78
4/28/2023 5:00:00 PM 10.24 50.432 0.094 12.82 3.35 10.76
4/28/2023 5:15:00 PM 10.2 50.36 0.094 12.85 3.46 10.72
4/28/2023 5:30:00 PM 10.16 50.288 0.094 12.88 3.33 10.71
4/28/2023 5:45:00 PM 10.12 50.216 0.094 12.87 3.53 10.68
4/28/2023 6:00:00 PM 10.08 50.144 0.094 12.85 3.38 10.68
4/28/2023 6:15:00 PM 10.03 50.054 0.094 12.86 3.64 10.68
4/28/2023 6:30:00 PM 9.98 49.964 0.094 12.87 3.53 10.67
4/28/2023 6:45:00 PM 9.94 49.892 0.094 12.9 3.45 10.66
4/28/2023 7:00:00 PM 9.89 49.802 0.094 12.9 3.38 10.66
4/28/2023 7:15:00 PM 9.84 49.712 0.094 12.91 3.37 10.63
4/28/2023 7:30:00 PM 9.78 49.604 0.094 12.92 3.47 10.62
4/28/2023 7:45:00 PM 9.73 49.514 0.094 12.93 3.6 10.6
4/28/2023 8:00:00 PM 9.67 49.406 0.094 12.96 3.54 10.56
4/28/2023 8:15:00 PM 9.61 49.298 0.094 12.98 3.67 10.54
4/28/2023 8:30:00 PM 9.55 49.19 0.094 13.01 3.84 10.52
4/28/2023 8:45:00 PM 9.49 49.082 0.094 13.05 3.81 10.48
4/28/2023 9:00:00 PM 9.43 48.974 0.094 13.07 4.1 10.48
4/28/2023 9:15:00 PM 9.37 48.866 0.094 13.11 4.24 10.48
4/28/2023 9:30:00 PM 9.3 48.74 0.094 13.11 4.29 10.47
4/28/2023 9:45:00 PM 9.24 48.632 0.095 13.15 4.09 10.49
4/28/2023 10:00:00 PM 9.18 48.524 0.095 13.19 4.43 10.48
4/28/2023 10:15:00 PM 9.13 48.434 0.095 13.19 4.29 10.49
4/28/2023 10:30:00 PM 9.09 48.362 0.095 13.2 4.33 10.5
4/28/2023 10:45:00 PM 9.04 48.272 0.095 13.23 4.08 10.52
4/28/2023 11:00:00 PM 9 48.2 0.095 13.26 4.17 10.52
4/28/2023 11:15:00 PM 8.95 48.11 0.095 13.28 4.2 10.54
4/28/2023 11:30:00 PM 8.89 48.002 0.095 13.29 4 10.55
4/28/2023 11:45:00 PM 8.85 47.93 0.095 13.33 4.14 10.57
4/29/2023 12:00:00 AM 8.8 47.84 0.095 13.36 4.13 10.57
4/29/2023 12:15:00 AM 8.74 47.732 0.095 13.38 4.23 10.59
4/29/2023 12:30:00 AM 8.7 47.66 0.095 13.4 4 10.61
4/29/2023 12:45:00 AM 8.66 47.588 0.095 13.44 4.08 10.61
4/29/2023 1:00:00 AM 8.6 47.48 0.095 13.46 4.01 10.63
4/29/2023 1:15:00 AM 8.55 47.39 0.095 13.5 4.02 10.67
4/29/2023 1:30:00 AM 8.49 47.282 0.094 13.53 4.04 10.68
4/29/2023 1:45:00 AM 8.44 47.192 0.094 13.55 4.11 10.71
4/29/2023 2:00:00 AM 8.4 47.12 0.094 13.58 4.05 10.72
4/29/2023 2:15:00 AM 8.36 47.048 0.094 13.58 4.22 10.73
4/29/2023 2:30:00 AM 8.33 46.994 0.094 13.59 4.28 10.74
4/29/2023 2:45:00 AM 8.3 46.94 0.094 13.62 5.01 10.73
4/29/2023 3:00:00 AM 8.27 46.886 0.094 13.62 5.64 10.74
4/29/2023 3:15:00 AM 8.23 46.814 0.094 13.65 6.04 10.76
4/29/2023 3:30:00 AM 8.2 46.76 0.094 13.68 6.34 10.78
4/29/2023 3:45:00 AM 8.17 46.706 0.094 13.71 6.74 10.77
4/29/2023 4:00:00 AM 8.14 46.652 0.094 13.72 6.76 10.79
4/29/2023 4:15:00 AM 8.12 46.616 0.094 13.74 7.12 10.79
4/29/2023 4:30:00 AM 8.09 46.562 0.094 13.74 7.31 10.8
4/29/2023 4:45:00 AM 8.06 46.508 0.093 13.75 6.99 10.8
4/29/2023 5:00:00 AM 8.04 46.472 0.094 13.77 6.37 10.82
4/29/2023 5:15:00 AM 8.02 46.436 0.094 13.78 6.52 10.84
4/29/2023 5:30:00 AM 8 46.4 0.094 13.81 6.01 10.85
4/29/2023 5:45:00 AM 7.98 46.364 0.094 13.8 6.2 10.87
4/29/2023 6:00:00 AM 7.96 46.328 0.094 13.82 5.94 10.88
4/29/2023 6:15:00 AM 7.94 46.292 0.094 13.84 5.67 10.9
4/29/2023 6:30:00 AM 7.92 46.256 0.094 13.85 5.75 10.91
4/29/2023 6:45:00 AM 7.9 46.22 0.094 13.86 5.9 10.94
4/29/2023 7:00:00 AM 7.89 46.202 0.094 13.87 6 10.96
4/29/2023 7:15:00 AM 7.87 46.166 0.093 13.89 6.16 10.97
4/29/2023 7:30:00 AM 7.87 46.166 0.093 13.89 6.15 11
4/29/2023 7:45:00 AM 7.87 46.166 0.093 13.88 6.43 11.02
4/29/2023 8:00:00 AM 7.88 46.184 0.093 13.91 6.47 11.1
4/29/2023 8:15:00 AM 7.91 46.238 0.092 13.9 6.94 11.13
4/29/2023 8:30:00 AM 7.94 46.292 0.092 13.91 7.02 11.18
4/29/2023 8:45:00 AM 7.96 46.328 0.092 13.89 7.64 11.2
4/29/2023 9:00:00 AM 7.99 46.382 0.092 13.9 7.16 11.21
4/29/2023 9:15:00 AM 8.02 46.436 0.092 13.89 6.74 11.24
4/29/2023 9:30:00 AM 8.06 46.508 0.092 13.87 7.18 11.26
4/29/2023 9:45:00 AM 8.11 46.598 0.092 13.88 7.41 11.29
4/29/2023 10:00:00 AM 8.14 46.652 0.092 13.86 7.45 11.3
4/29/2023 10:15:00 AM 8.19 46.742 0.093 13.84 7.02 11.31
4/29/2023 10:30:00 AM 8.23 46.814 0.093 13.84 7.09 11.32
4/29/2023 10:45:00 AM 8.3 46.94 0.093 13.82 7.41 11.33
4/29/2023 11:00:00 AM 8.38 47.084 0.093 13.77 7.68 11.33
4/29/2023 11:15:00 AM 8.46 47.228 0.093 13.75 7.93 11.33
4/29/2023 11:30:00 AM 8.55 47.39 0.092 13.71 7.78 11.34
4/29/2023 11:45:00 AM 8.66 47.588 0.092 13.69 7.99 11.33
4/29/2023 12:00:00 PM 8.75 47.75 0.092 13.65 7.95 11.32
4/29/2023 12:15:00 PM 8.8 47.84 0.092 13.6 8.18 11.3
4/29/2023 12:30:00 PM 8.86 47.948 0.092 13.57 8.08 11.28
4/29/2023 12:45:00 PM 8.94 48.092 0.092 13.53 8.01 11.26
4/29/2023 1:00:00 PM 9.04 48.272 0.092 13.47 7.97 11.25
4/29/2023 1:15:00 PM 9.11 48.398 0.092 13.45 7.89 11.23
4/29/2023 1:30:00 PM 9.15 48.47 0.092 13.42 7.56 11.2
4/29/2023 1:45:00 PM 9.22 48.596 0.092 13.4 7.75 11.18
4/29/2023 2:00:00 PM 9.28 48.704 0.092 13.38 7.5 11.16
4/29/2023 2:15:00 PM 9.33 48.794 0.092 13.35 7.27 11.15
4/29/2023 2:30:00 PM 9.36 48.848 0.092 13.32 7.06 11.11
4/29/2023 2:45:00 PM 9.41 48.938 0.092 13.29 7.07 11.09
4/29/2023 3:00:00 PM 9.5 49.1 0.092 13.24 6.65 11.08
4/29/2023 3:15:00 PM 9.58 49.244 0.092 13.22 6.56 11.07
4/29/2023 3:30:00 PM 9.62 49.316 0.092 13.21 6.55 11.05
4/29/2023 3:45:00 PM 9.65 49.37 0.092 13.18 6.56 11.03
4/29/2023 4:00:00 PM 9.68 49.424 0.092 13.14 6.37 10.99
4/29/2023 4:15:00 PM 9.71 49.478 0.092 13.15 6.19 10.96
4/29/2023 4:30:00 PM 9.72 49.496 0.092 13.13 6.35 10.93
4/29/2023 4:45:00 PM 9.73 49.514 0.092 13.12 6.32 10.89
4/29/2023 5:00:00 PM 9.73 49.514 0.092 13.12 6.03 10.86
4/29/2023 5:15:00 PM 9.73 49.514 0.092 13.12 6.1 10.82
4/29/2023 5:30:00 PM 9.73 49.514 0.092 13.11 6.05 10.79
4/29/2023 5:45:00 PM 9.72 49.496 0.093 13.09 5.88 10.76
4/29/2023 6:00:00 PM 9.71 49.478 0.093 13.11 5.84 10.75
4/29/2023 6:15:00 PM 9.7 49.46 0.093 13.12 5.71 10.74
4/29/2023 6:30:00 PM 9.69 49.442 0.093 13.11 5.84 10.74
4/29/2023 6:45:00 PM 9.67 49.406 0.093 13.12 5.7 10.73
4/29/2023 7:00:00 PM 9.65 49.37 0.093 13.14 5.76 10.71
4/29/2023 7:15:00 PM 9.63 49.334 0.093 13.13 5.59 10.7
4/29/2023 7:30:00 PM 9.62 49.316 0.093 13.15 5.73 10.7
4/29/2023 7:45:00 PM 9.6 49.28 0.093 13.16 5.53 10.68
4/29/2023 8:00:00 PM 9.57 49.226 0.093 13.15 5.6 10.64
4/29/2023 8:15:00 PM 9.54 49.172 0.094 13.17 5.59 10.61
4/29/2023 8:30:00 PM 9.52 49.136 0.094 13.18 5.51 10.59
4/29/2023 8:45:00 PM 9.49 49.082 0.094 13.19 5.47 10.57
4/29/2023 9:00:00 PM 9.46 49.028 0.094 13.2 5.66 10.57
4/29/2023 9:15:00 PM 9.42 48.956 0.094 13.2 5.71 10.56
4/29/2023 9:30:00 PM 9.39 48.902 0.094 13.2 6.46 10.54
4/29/2023 9:45:00 PM 9.36 48.848 0.094 13.22 5.6 10.55
4/29/2023 10:00:00 PM 9.34 48.812 0.095 13.21 5.82 10.55
4/29/2023 10:15:00 PM 9.3 48.74 0.095 13.23 5.7 10.56
4/29/2023 10:30:00 PM 9.25 48.65 0.095 13.27 5.51 10.56
4/29/2023 10:45:00 PM 9.22 48.596 0.095 13.28 5.62 10.57
4/29/2023 11:00:00 PM 9.19 48.542 0.096 13.28 5.55 10.59
4/29/2023 11:15:00 PM 9.16 48.488 0.096 13.29 5.5 10.59
4/29/2023 11:30:00 PM 9.14 48.452 0.096 13.32 5.55 10.59
4/29/2023 11:45:00 PM 9.11 48.398 0.096 13.33 5.46 10.59
4/30/2023 12:00:00 AM 9.09 48.362 0.096 13.33 5.41 10.6
4/30/2023 12:15:00 AM 9.07 48.326 0.096 13.35 5.38 10.6
4/30/2023 12:30:00 AM 9.05 48.29 0.096 13.35 5.54 10.61
4/30/2023 12:45:00 AM 9.04 48.272 0.096 13.38 5.48 10.61
4/30/2023 1:00:00 AM 9.02 48.236 0.096 13.37 5.43 10.61
4/30/2023 1:15:00 AM 9 48.2 0.096 13.39 5.48 10.62
4/30/2023 1:30:00 AM 8.98 48.164 0.096 13.4 5.28 10.62
4/30/2023 1:45:00 AM 8.97 48.146 0.097 13.45 5.31 10.63
4/30/2023 2:00:00 AM 8.95 48.11 0.097 13.45 5.38 10.62
4/30/2023 2:15:00 AM 8.93 48.074 0.097 13.46 5.25 10.63
4/30/2023 2:30:00 AM 8.91 48.038 0.097 13.46 5.02 10.63
4/30/2023 2:45:00 AM 8.89 48.002 0.097 13.48 4.99 10.63
4/30/2023 3:00:00 AM 8.88 47.984 0.097 13.53 5.07 10.64
4/30/2023 3:15:00 AM 8.86 47.948 0.097 13.5 5.35 10.63
4/30/2023 3:30:00 AM 8.85 47.93 0.097 13.49 5.33 10.63
4/30/2023 3:45:00 AM 8.84 47.912 0.097 13.49 5.32 10.64
4/30/2023 4:00:00 AM 8.82 47.876 0.097 13.51 5.26 10.64
4/30/2023 4:15:00 AM 8.81 47.858 0.097 13.51 5.2 10.64
4/30/2023 4:30:00 AM 8.8 47.84 0.097 13.52 5.96 10.64
4/30/2023 4:45:00 AM 8.79 47.822 0.097 13.52 6.28 10.64
4/30/2023 5:00:00 AM 8.78 47.804 0.096 13.56 5.81 10.65
4/30/2023 5:15:00 AM 8.77 47.786 0.096 13.54 5.52 10.65
4/30/2023 5:30:00 AM 8.76 47.768 0.096 13.56 5.45 10.65
4/30/2023 5:45:00 AM 8.75 47.75 0.096 13.54 5.66 10.65
4/30/2023 6:00:00 AM 8.74 47.732 0.096 13.55 6.17 10.65
4/30/2023 6:15:00 AM 8.72 47.696 0.096 13.57 5.86 10.65
4/30/2023 6:30:00 AM 8.72 47.696 0.097 13.6 5.72 10.66
4/30/2023 6:45:00 AM 8.72 47.696 0.097 13.59 5.65 10.67
4/30/2023 7:00:00 AM 8.71 47.678 0.096 13.6 5.64 10.68
4/30/2023 7:15:00 AM 8.71 47.678 0.096 13.62 5.56 10.7
4/30/2023 7:30:00 AM 8.71 47.678 0.096 13.61 5.62 10.71
4/30/2023 7:45:00 AM 8.71 47.678 0.096 13.59 6.26 10.73
4/30/2023 8:00:00 AM 8.72 47.696 0.095 13.58 12.58 10.76
4/30/2023 8:15:00 AM 8.72 47.696 0.095 13.59 17.06 10.78
4/30/2023 8:30:00 AM 8.73 47.714 0.094 13.59 16.05 10.8
4/30/2023 8:45:00 AM 8.74 47.732 0.093 13.6 14.49 10.81
4/30/2023 9:00:00 AM 8.75 47.75 0.093 13.6 22.15 10.82
4/30/2023 9:15:00 AM 8.77 47.786 0.092 13.59 39.13 10.83
4/30/2023 9:30:00 AM 8.79 47.822 0.092 13.58 54.48 10.83
4/30/2023 9:45:00 AM 8.8 47.84 0.09 13.56 58.82 10.84
4/30/2023 10:00:00 AM 8.82 47.876 0.089 13.55 67.87 10.83
4/30/2023 10:15:00 AM 8.84 47.912 0.088 13.54 115.67 10.83
4/30/2023 10:30:00 AM 8.88 47.984 0.087 13.51 119.06 10.82
4/30/2023 10:45:00 AM 8.9 48.02 0.085 13.49 138.4 10.82
4/30/2023 11:00:00 AM 8.93 48.074 0.083 13.48 136.86 10.82
4/30/2023 11:15:00 AM 8.95 48.11 0.081 13.46 133.42 10.82
4/30/2023 11:30:00 AM 8.96 48.128 0.079 13.5 123.06 10.82
4/30/2023 11:45:00 AM 8.99 48.182 0.077 13.47 115.89 10.81
4/30/2023 12:00:00 PM 9.03 48.254 0.075 13.43 109.04 10.81
4/30/2023 12:15:00 PM 9.07 48.326 0.074 13.42 100.46 10.8
4/30/2023 12:30:00 PM 9.11 48.398 0.073 13.38 89.62 10.79
4/30/2023 12:45:00 PM 9.15 48.47 0.073 13.36 79.98 10.78
4/30/2023 1:00:00 PM 9.19 48.542 0.072 13.33 73.25 10.78
4/30/2023 1:15:00 PM 9.22 48.596 0.071 13.31 68.27 10.77
4/30/2023 1:30:00 PM 9.24 48.632 0.07 13.32 62.83 10.75
4/30/2023 1:45:00 PM 9.27 48.686 0.07 13.33 59.59 10.73
4/30/2023 2:00:00 PM 9.31 48.758 0.07 13.33 57.88 10.72
4/30/2023 2:15:00 PM 9.36 48.848 0.07 13.31 50.89 10.72
4/30/2023 2:30:00 PM 9.4 48.92 0.07 13.26 55.53 10.7
4/30/2023 2:45:00 PM 9.45 49.01 0.069 13.25 56.97 10.68
4/30/2023 3:00:00 PM 9.49 49.082 0.069 13.24 58.63 10.67
4/30/2023 3:15:00 PM 9.52 49.136 0.069 13.2 62.36 10.66
4/30/2023 3:30:00 PM 9.56 49.208 0.069 13.22 65.62 10.64
4/30/2023 3:45:00 PM 9.59 49.262 0.068 13.17 68.45 10.63
4/30/2023 4:00:00 PM 9.62 49.316 0.068 13.14 77.25 10.61
4/30/2023 4:15:00 PM 9.64 49.352 0.068 13.19 77.97 10.6
4/30/2023 4:30:00 PM 9.66 49.388 0.067 13.17 80.59 10.59
4/30/2023 4:45:00 PM 9.66 49.388 0.067 13.18 82.27 10.57
4/30/2023 5:00:00 PM 9.67 49.406 0.067 13.17 86.33 10.56
4/30/2023 5:15:00 PM 9.67 49.406 0.066 13.16 79.58 10.56
4/30/2023 5:30:00 PM 9.68 49.424 0.066 13.14 76.96 10.55
4/30/2023 5:45:00 PM 9.69 49.442 0.066 13.13 72.32 10.54
4/30/2023 6:00:00 PM 9.7 49.46 0.066 13.12 67.57 10.54
4/30/2023 6:15:00 PM 9.7 49.46 0.066 13.14 69.11 10.53
4/30/2023 6:30:00 PM 9.71 49.478 0.066 13.14 60.57 10.53
4/30/2023 6:45:00 PM 9.71 49.478 0.066 13.11 55.9 10.52
4/30/2023 7:00:00 PM 9.71 49.478 0.066 13.15 54.74 10.52
4/30/2023 7:15:00 PM 9.71 49.478 0.066 13.17 54.07 10.51
4/30/2023 7:30:00 PM 9.72 49.496 0.066 13.2 50.53 10.51
4/30/2023 7:45:00 PM 9.72 49.496 0.066 13.14 46.44 10.51
4/30/2023 8:00:00 PM 9.72 49.496 0.065 13.17 58.4 10.51
4/30/2023 8:15:00 PM 9.72 49.496 0.064 13.18 76.63 10.51
4/30/2023 8:30:00 PM 9.72 49.496 0.063 13.18 223.52 10.52
4/30/2023 8:45:00 PM 9.72 49.496 0.061 13.17 152.21 10.52
4/30/2023 9:00:00 PM 9.72 49.496 0.059 13.07 4238.69 10.51
4/30/2023 9:15:00 PM 9.72 49.496 0.057 12.99 480.56 10.52
4/30/2023 9:30:00 PM 9.71 49.478 0.053 12.71 670.02 10.52
4/30/2023 9:45:00 PM 9.71 49.478 0.049 12.8 803.5 10.52
4/30/2023 10:00:00 PM 9.7 49.46 0.046 12.8 874.41 10.53
4/30/2023 10:15:00 PM 9.69 49.442 0.044 12.75 836.94 10.56
4/30/2023 10:30:00 PM 9.68 49.424 0.042 12.75 887.3 10.57
4/30/2023 10:45:00 PM 9.67 49.406 0.041 12.73 897.43 10.58
4/30/2023 11:00:00 PM 9.66 49.388 0.04 12.68 731.05 10.59
4/30/2023 11:15:00 PM 9.64 49.352 0.04 12.73 689.18 10.6
4/30/2023 11:30:00 PM 9.62 49.316 0.04 12.75 644.1 10.62
4/30/2023 11:45:00 PM 9.59 49.262 0.04 12.8 558.06 10.63
5/1/2023 12:00:00 AM 9.55 49.19 0.04 12.81 521.18 10.64
5/1/2023 12:15:00 AM 9.5 49.1 0.041 12.86 460.34 10.65
5/1/2023 12:30:00 AM 9.44 48.992 0.041 12.92 436.77 10.66
5/1/2023 12:45:00 AM 9.38 48.884 0.042 13 375.42 10.69
5/1/2023 1:00:00 AM 9.32 48.776 0.042 13.06 356.43 10.7
5/1/2023 1:15:00 AM 9.27 48.686 0.043 13.13 308.42 10.72
5/1/2023 1:30:00 AM 9.2 48.56 0.044 13.18 288.94 10.73
5/1/2023 1:45:00 AM 9.13 48.434 0.045 13.24 261.32 10.74
5/1/2023 2:00:00 AM 9.07 48.326 0.046 13.29 251.13 10.76
5/1/2023 2:15:00 AM 9.01 48.218 0.046 13.33 239.89 10.77
5/1/2023 2:30:00 AM 8.94 48.092 0.047 13.37 215.38 10.78
5/1/2023 2:45:00 AM 8.88 47.984 0.048 13.39 199.03 10.8
5/1/2023 3:00:00 AM 8.83 47.894 0.048 13.45 190.5 10.81
5/1/2023 3:15:00 AM 8.78 47.804 0.048 13.47 186.04 10.83
5/1/2023 3:30:00 AM 8.74 47.732 0.049 13.48 179.19 10.83
5/1/2023 3:45:00 AM 8.7 47.66 0.049 13.54 172.15 10.84
5/1/2023 4:00:00 AM 8.67 47.606 0.05 13.57 163.02 10.85
5/1/2023 4:15:00 AM 8.64 47.552 0.05 13.6 158.62 10.85
5/1/2023 4:30:00 AM 8.61 47.498 0.05 13.61 147.9 10.86
5/1/2023 4:45:00 AM 8.58 47.444 0.05 13.63 145.1 10.86
5/1/2023 5:00:00 AM 8.56 47.408 0.05 13.65 137.25 10.87
5/1/2023 5:15:00 AM 8.53 47.354 0.05 13.66 133.93 10.87
5/1/2023 5:30:00 AM 8.51 47.318 0.05 13.69 129.11 10.88
5/1/2023 5:45:00 AM 8.48 47.264 0.051 13.68 123.21 10.88
5/1/2023 6:00:00 AM 8.46 47.228 0.051 13.71 119.67 10.89
5/1/2023 6:15:00 AM 8.43 47.174 0.051 13.71 133.86 10.9
5/1/2023 6:30:00 AM 8.41 47.138 0.051 13.71 116.37 10.9
5/1/2023 6:45:00 AM 8.39 47.102 0.051 13.73 105.63 10.91
5/1/2023 7:00:00 AM 8.38 47.084 0.051 13.76 104.72 10.91
5/1/2023 7:15:00 AM 8.37 47.066 0.052 13.75 100.38 10.92
5/1/2023 7:30:00 AM 8.35 47.03 0.052 13.75 97.36 10.93
5/1/2023 7:45:00 AM 8.34 47.012 0.052 13.79 90.37 10.93
5/1/2023 8:00:00 AM 8.33 46.994 0.052 13.79 87.57 10.93
5/1/2023 8:15:00 AM 8.34 47.012 0.052 13.78 83.81 10.94
5/1/2023 8:30:00 AM 8.35 47.03 0.053 13.78 79.28 10.93
5/1/2023 8:45:00 AM 8.39 47.102 0.053 13.76 81.53 10.93
5/1/2023 9:00:00 AM 8.43 47.174 0.053 13.75 77.5 10.93
5/1/2023 9:15:00 AM 8.48 47.264 0.053 13.73 74.81 10.92
5/1/2023 9:30:00 AM 8.56 47.408 0.054 13.7 72.54 10.91
5/1/2023 9:45:00 AM 8.62 47.516 0.054 13.65 69.56 10.89
5/1/2023 10:00:00 AM 8.68 47.624 0.054 13.63 66.31 10.88
5/1/2023 10:15:00 AM 8.7 47.66 0.055 13.58 66.48 10.87
5/1/2023 10:30:00 AM 8.83 47.894 0.055 13.55 64.89 10.84
5/1/2023 10:45:00 AM 9.01 48.218 0.055 13.45 60.68 10.81
5/1/2023 11:00:00 AM 9.09 48.362 0.055 13.44 56.95 10.79
5/1/2023 11:15:00 AM 9.18 48.524 0.055 13.39 58.42 10.76
5/1/2023 11:30:00 AM 9.27 48.686 0.055 13.37 57.98 10.74
5/1/2023 11:45:00 AM 9.37 48.866 0.056 13.32 55.9 10.71
5/1/2023 12:00:00 PM 9.52 49.136 0.056 13.24 54.4 10.68
5/1/2023 12:15:00 PM 9.65 49.37 0.056 13.2 52.74 10.66
5/1/2023 12:30:00 PM 9.73 49.514 0.056 13.16 50.43 10.65
5/1/2023 12:45:00 PM 9.83 49.694 0.057 13.11 49.63 10.62
5/1/2023 1:00:00 PM 10.01 50.018 0.057 13.04 49.37 10.58
5/1/2023 1:15:00 PM 10.09 50.162 0.057 12.98 49.49 10.54
5/1/2023 1:30:00 PM 10.05 50.09 0.057 12.97 49.3 10.52
5/1/2023 1:45:00 PM 10.03 50.054 0.057 13.01 47.44 10.51
5/1/2023 2:00:00 PM 10.09 50.162 0.058 12.96 44.48 10.51
5/1/2023 2:15:00 PM 10.13 50.234 0.058 12.95 45.21 10.51
5/1/2023 2:30:00 PM 10.2 50.36 0.058 12.94 43.15 10.51
5/1/2023 2:45:00 PM 10.24 50.432 0.058 12.91 42.73 10.49
5/1/2023 3:00:00 PM 10.2 50.36 0.058 12.92 43.12 10.48
5/1/2023 3:15:00 PM 10.12 50.216 0.058 12.96 41.85 10.48
5/1/2023 3:30:00 PM 10.1 50.18 0.058 12.97 42.26 10.49
5/1/2023 3:45:00 PM 10.09 50.162 0.059 12.98 41.34 10.5
5/1/2023 4:00:00 PM 10.08 50.144 0.059 13 40.84 10.51
5/1/2023 4:15:00 PM 10.11 50.198 0.059 13.02 40.74 10.52
5/1/2023 4:30:00 PM 10.16 50.288 0.059 12.99 39.7 10.51
5/1/2023 4:45:00 PM 10.18 50.324 0.059 12.98 38.99 10.51
5/1/2023 5:00:00 PM 10.21 50.378 0.059 12.96 37.88 10.5
5/1/2023 5:15:00 PM 10.14 50.252 0.06 13 36.97 10.5
5/1/2023 5:30:00 PM 10.11 50.198 0.06 13.03 38.45 10.5
5/1/2023 5:45:00 PM 10.08 50.144 0.06 13.05 38.29 10.51
5/1/2023 6:00:00 PM 10.04 50.072 0.061 13.05 35.79 10.5
5/1/2023 6:15:00 PM 9.96 49.928 0.061 13.09 35.67 10.51
5/1/2023 6:30:00 PM 9.86 49.748 0.06 13.15 40.57 10.53
5/1/2023 6:45:00 PM 9.77 49.586 0.06 13.19 38.42 10.55
5/1/2023 7:00:00 PM 9.7 49.46 0.061 13.23 37.52 10.56
5/1/2023 7:15:00 PM 9.63 49.334 0.061 13.25 40.71 10.58
5/1/2023 7:30:00 PM 9.54 49.172 0.061 13.31 38.61 10.6
5/1/2023 7:45:00 PM 9.49 49.082 0.061 13.35 52.41 10.62
5/1/2023 8:00:00 PM 9.42 48.956 0.061 13.35 52.08 10.64
5/1/2023 8:15:00 PM 9.36 48.848 0.061 13.4 46.02 10.65
5/1/2023 8:30:00 PM 9.29 48.722 0.061 13.43 42.76 10.67
5/1/2023 8:45:00 PM 9.22 48.596 0.061 13.47 43.26 10.69
5/1/2023 9:00:00 PM 9.15 48.47 0.061 13.5 41.44 10.71
5/1/2023 9:15:00 PM 9.09 48.362 0.061 13.54 40.94 10.73
5/1/2023 9:30:00 PM 9.04 48.272 0.061 13.56 39.05 10.75
5/1/2023 9:45:00 PM 8.99 48.182 0.061 13.59 39.37 10.76
5/1/2023 10:00:00 PM 8.94 48.092 0.061 13.62 39.08 10.77
5/1/2023 10:15:00 PM 8.9 48.02 0.061 13.63 36.86 10.79
5/1/2023 10:30:00 PM 8.86 47.948 0.061 13.66 35.07 10.79
5/1/2023 10:45:00 PM 8.82 47.876 0.062 13.68 32.94 10.8
5/1/2023 11:00:00 PM 8.79 47.822 0.062 13.69 32.27 10.81
5/1/2023 11:15:00 PM 8.76 47.768 0.062 13.71 28.08 10.81
5/1/2023 11:30:00 PM 8.73 47.714 0.062 13.73 31.78 10.81
5/1/2023 11:45:00 PM 8.7 47.66 0.062 13.75 31.5 10.82
5/2/2023 12:00:00 AM 8.68 47.624 0.063 13.76 31.47 10.83
5/2/2023 12:15:00 AM 8.65 47.57 0.063 13.77 29.91 10.83
5/2/2023 12:30:00 AM 8.63 47.534 0.063 13.78 30.76 10.84
5/2/2023 12:45:00 AM 8.61 47.498 0.064 13.79 29.74 10.84
5/2/2023 1:00:00 AM 8.58 47.444 0.064 13.81 30.29 10.84
5/2/2023 1:15:00 AM 8.56 47.408 0.064 13.83 29.35 10.85
5/2/2023 1:30:00 AM 8.53 47.354 0.064 13.85 28.66 10.86
5/2/2023 1:45:00 AM 8.51 47.318 0.064 13.87 34.61 10.86
5/2/2023 2:00:00 AM 8.49 47.282 0.065 13.89 30.22 10.86
5/2/2023 2:15:00 AM 8.47 47.246 0.065 13.9 28.19 10.87
5/2/2023 2:30:00 AM 8.45 47.21 0.066 13.9 29.14 10.87
5/2/2023 2:45:00 AM 8.43 47.174 0.066 13.91 27.07 10.87
5/2/2023 3:00:00 AM 8.41 47.138 0.066 13.93 27.46 10.88
5/2/2023 3:15:00 AM 8.39 47.102 0.066 13.94 26.48 10.89
5/2/2023 3:30:00 AM 8.37 47.066 0.067 13.94 26.68 10.89
5/2/2023 3:45:00 AM 8.34 47.012 0.067 13.96 25.95 10.9
5/2/2023 4:00:00 AM 8.31 46.958 0.067 13.98 25.78 10.91
5/2/2023 4:15:00 AM 8.28 46.904 0.067 14.01 26.29 10.91
5/2/2023 4:30:00 AM 8.25 46.85 0.067 14.02 26.14 10.92
5/2/2023 4:45:00 AM 8.23 46.814 0.068 14.05 26.15 10.93
5/2/2023 5:00:00 AM 8.2 46.76 0.068 14.06 25.29 10.93
5/2/2023 5:15:00 AM 8.18 46.724 0.068 14.05 24.84 10.93
5/2/2023 5:30:00 AM 8.16 46.688 0.068 14.07 31.39 10.95
5/2/2023 5:45:00 AM 8.14 46.652 0.068 14.08 19.52 10.95
5/2/2023 6:00:00 AM 8.12 46.616 0.068 14.1 24.12 10.95
5/2/2023 6:15:00 AM 8.09 46.562 0.068 14.11 24.08 10.97
5/2/2023 6:30:00 AM 8.07 46.526 0.068 14.13 23.53 10.97
5/2/2023 6:45:00 AM 8.05 46.49 0.068 14.13 25.51 10.98
5/2/2023 7:00:00 AM 8.03 46.454 0.068 14.15 23.66 10.99
5/2/2023 7:15:00 AM 8.02 46.436 0.069 14.17 23.78 10.99
5/2/2023 7:30:00 AM 8.01 46.418 0.069 14.17 24.17 11.01
5/2/2023 7:45:00 AM 8.01 46.418 0.069 14.16 23.17 11.02
5/2/2023 8:00:00 AM 8.01 46.418 0.069 14.16 21.75 11.02
5/2/2023 8:15:00 AM 8.03 46.454 0.069 14.17 23.23 11.02
5/2/2023 8:30:00 AM 8.04 46.472 0.069 14.16 23 11.03
5/2/2023 8:45:00 AM 8.06 46.508 0.07 14.14 22.54 11.03
5/2/2023 9:00:00 AM 8.09 46.562 0.07 14.13 22.53 11.02
5/2/2023 9:15:00 AM 8.16 46.688 0.07 14.08 23.59 11.02
5/2/2023 9:30:00 AM 8.2 46.76 0.07 14.08 21.91 11.02
5/2/2023 9:45:00 AM 8.25 46.85 0.07 14.03 22.34 10.99
5/2/2023 10:00:00 AM 8.33 46.994 0.07 14.02 22.79 10.99
5/2/2023 10:15:00 AM 8.4 47.12 0.07 13.97 22.58 10.97
5/2/2023 10:30:00 AM 8.47 47.246 0.07 13.94 22.91 10.95
5/2/2023 10:45:00 AM 8.56 47.408 0.07 13.9 22.58 10.94
5/2/2023 11:00:00 AM 8.64 47.552 0.07 13.86 22.36 10.92
5/2/2023 11:15:00 AM 8.69 47.642 0.07 13.83 22.29 10.9
5/2/2023 11:30:00 AM 8.75 47.75 0.07 13.82 22.18 10.89
5/2/2023 11:45:00 AM 8.82 47.876 0.07 13.79 21.64 10.87
5/2/2023 12:00:00 PM 8.93 48.074 0.071 13.74 22.56 10.86
5/2/2023 12:15:00 PM 9.06 48.308 0.071 13.69 22.38 10.83
5/2/2023 12:30:00 PM 9.13 48.434 0.071 13.64 21.27 10.81
5/2/2023 12:45:00 PM 9.16 48.488 0.071 13.61 20.86 10.79
5/2/2023 1:00:00 PM 9.26 48.668 0.071 13.58 22.43 10.76
5/2/2023 1:15:00 PM 9.41 48.938 0.071 13.5 21.46 10.74
5/2/2023 1:30:00 PM 9.64 49.352 0.071 13.39 20.88 10.71
5/2/2023 1:45:00 PM 9.85 49.73 0.071 13.32 21.02 10.66
5/2/2023 2:00:00 PM 9.79 49.622 0.071 13.33 21.03 10.63
5/2/2023 2:15:00 PM 9.81 49.658 0.071 13.32 21.26 10.62
5/2/2023 2:30:00 PM 9.93 49.874 0.071 13.27 21.55 10.6
5/2/2023 2:45:00 PM 9.92 49.856 0.072 13.29 21.34 10.58
5/2/2023 3:00:00 PM 10.03 50.054 0.072 13.22 20.83 10.56
5/2/2023 3:15:00 PM 10.07 50.126 0.072 13.21 20.57 10.55
5/2/2023 3:30:00 PM 10.06 50.108 0.072 13.2 21.3 10.55
5/2/2023 3:45:00 PM 10.1 50.18 0.072 13.17 21.67 10.54
5/2/2023 4:00:00 PM 10.14 50.252 0.072 13.16 21.22 10.53
5/2/2023 4:15:00 PM 10.17 50.306 0.072 13.15 21.24 10.52
5/2/2023 4:30:00 PM 10.17 50.306 0.072 13.15 20.91 10.51
5/2/2023 4:45:00 PM 10.18 50.324 0.072 13.15 20.3 10.5
5/2/2023 5:00:00 PM 10.2 50.36 0.072 13.13 19.91 10.51
5/2/2023 5:15:00 PM 10.22 50.396 0.072 13.11 20.77 10.5
5/2/2023 5:30:00 PM 10.25 50.45 0.072 13.1 20.15 10.5
5/2/2023 5:45:00 PM 10.21 50.378 0.072 13.11 20.69 10.5
5/2/2023 6:00:00 PM 10.15 50.27 0.073 13.14 20.45 10.51
5/2/2023 6:15:00 PM 10.08 50.144 0.073 13.18 20.08 10.51
5/2/2023 6:30:00 PM 10.03 50.054 0.074 13.22 20.07 10.52
5/2/2023 6:45:00 PM 9.98 49.964 0.074 13.24 20.56 10.53
5/2/2023 7:00:00 PM 9.93 49.874 0.075 13.25 21.07 10.54
5/2/2023 7:15:00 PM 9.85 49.73 0.075 13.28 19.88 10.55
5/2/2023 7:30:00 PM 9.78 49.604 0.074 13.33 20.59 10.57
5/2/2023 7:45:00 PM 9.71 49.478 0.074 13.36 20.18 10.58
5/2/2023 8:00:00 PM 9.65 49.37 0.074 13.37 20.47 10.59
5/2/2023 8:15:00 PM 9.58 49.244 0.074 13.39 20.76 10.6
5/2/2023 8:30:00 PM 9.51 49.118 0.074 13.42 20.64 10.62
5/2/2023 8:45:00 PM 9.45 49.01 0.075 13.45 20.69 10.63
5/2/2023 9:00:00 PM 9.39 48.902 0.075 13.47 20.73 10.64
5/2/2023 9:15:00 PM 9.33 48.794 0.074 13.44 19.92 10.65
5/2/2023 9:30:00 PM 9.27 48.686 0.074 13.45 20.34 10.68
5/2/2023 9:45:00 PM 9.22 48.596 0.074 13.48 19.82 10.69
5/2/2023 10:00:00 PM 9.17 48.506 0.074 13.54 20.24 10.7
5/2/2023 10:15:00 PM 9.12 48.416 0.074 13.56 19.6 10.72
5/2/2023 10:30:00 PM 9.07 48.326 0.074 13.6 19.32 10.73
5/2/2023 10:45:00 PM 9.03 48.254 0.074 13.63 18.33 10.75
5/2/2023 11:00:00 PM 8.98 48.164 0.075 13.66 19.23 10.76
5/2/2023 11:15:00 PM 8.94 48.092 0.075 13.7 18.57 10.77
5/2/2023 11:30:00 PM 8.9 48.02 0.075 13.72 18.56 10.78
5/2/2023 11:45:00 PM 8.85 47.93 0.075 13.77 18.21 10.79
5/3/2023 12:00:00 AM 8.8 47.84 0.075 13.8 18.22 10.8
5/3/2023 12:15:00 AM 8.76 47.768 0.075 13.82 17.69 10.82
5/3/2023 12:30:00 AM 8.71 47.678 0.075 13.83 18.12 10.82
5/3/2023 12:45:00 AM 8.66 47.588 0.075 13.87 17.48 10.83
5/3/2023 1:00:00 AM 8.62 47.516 0.075 13.87 17.18 10.85
5/3/2023 1:15:00 AM 8.58 47.444 0.075 13.9 17.13 10.86
5/3/2023 1:30:00 AM 8.55 47.39 0.075 13.92 16.5 10.87
5/3/2023 1:45:00 AM 8.51 47.318 0.075 13.94 16.7 10.88
5/3/2023 2:00:00 AM 8.48 47.264 0.075 13.95 16.97 10.89
5/3/2023 2:15:00 AM 8.45 47.21 0.075 13.96 16.73 10.9
5/3/2023 2:30:00 AM 8.42 47.156 0.075 13.98 16.74 10.9
5/3/2023 2:45:00 AM 8.39 47.102 0.075 13.98 16.25 10.91
5/3/2023 3:00:00 AM 8.36 47.048 0.075 13.98 15.82 10.91
5/3/2023 3:15:00 AM 8.34 47.012 0.075 14.01 15.88 10.92
5/3/2023 3:30:00 AM 8.31 46.958 0.075 14.03 15.93 10.93
5/3/2023 3:45:00 AM 8.3 46.94 0.075 14.03 15.75 10.94
5/3/2023 4:00:00 AM 8.27 46.886 0.075 14.04 15.65 10.93
5/3/2023 4:15:00 AM 8.25 46.85 0.075 14.04 15.66 10.94
5/3/2023 4:30:00 AM 8.23 46.814 0.075 14.06 16.3 10.95
5/3/2023 4:45:00 AM 8.2 46.76 0.076 14.08 15.83 10.95
5/3/2023 5:00:00 AM 8.18 46.724 0.076 14.08 16.14 10.96
5/3/2023 5:15:00 AM 8.16 46.688 0.076 14.1 15.04 10.97
5/3/2023 5:30:00 AM 8.13 46.634 0.076 14.13 15.38 10.96
5/3/2023 5:45:00 AM 8.11 46.598 0.076 14.14 15.46 10.97
5/3/2023 6:00:00 AM 8.09 46.562 0.076 14.15 15.53 10.98
5/3/2023 6:15:00 AM 8.06 46.508 0.076 14.16 15.15 10.99
5/3/2023 6:30:00 AM 8.04 46.472 0.076 14.16 15.35 10.99
5/3/2023 6:45:00 AM 8.02 46.436 0.076 14.18 14.85 11
5/3/2023 7:00:00 AM 8 46.4 0.076 14.17 15.04 11.01
5/3/2023 7:15:00 AM 8 46.4 0.076 14.16 14.99 11.03
5/3/2023 7:30:00 AM 8 46.4 0.076 14.16 14.72 11.05
5/3/2023 7:45:00 AM 8 46.4 0.076 14.17 14.57 11.04
5/3/2023 8:00:00 AM 8 46.4 0.076 14.15 14.19 11.06
5/3/2023 8:15:00 AM 8.01 46.418 0.076 14.16 13.95 11.05
5/3/2023 8:30:00 AM 8.02 46.436 0.076 14.15 13.33 11.05
5/3/2023 8:45:00 AM 8.01 46.418 0.076 14.15 13.41 11.05
5/3/2023 9:00:00 AM 8.02 46.436 0.076 14.14 13.72 11.06
5/3/2023 9:15:00 AM 8.06 46.508 0.076 14.13 14.47 11.06
5/3/2023 9:30:00 AM 8.11 46.598 0.076 14.11 14.96 11.07
5/3/2023 9:45:00 AM 8.16 46.688 0.076 14.08 14.3 11.05
5/3/2023 10:00:00 AM 8.25 46.85 0.076 14.03 14.02 11.06
5/3/2023 10:15:00 AM 8.34 47.012 0.076 13.99 13.9 11.04
5/3/2023 10:30:00 AM 8.36 47.048 0.076 13.99 14.05 11.02
5/3/2023 10:45:00 AM 8.41 47.138 0.076 13.94 13.03 11.01
5/3/2023 11:00:00 AM 8.59 47.462 0.076 13.85 12.92 10.98
5/3/2023 11:15:00 AM 8.7 47.66 0.076 13.79 13.37 10.96
5/3/2023 11:30:00 AM 8.76 47.768 0.076 13.78 13.52 10.94
5/3/2023 11:45:00 AM 8.76 47.768 0.076 13.79 13.05 10.92
5/3/2023 12:00:00 PM 8.98 48.164 0.076 13.69 12.65 10.9
5/3/2023 12:15:00 PM 9.11 48.398 0.076 13.61 12.72 10.87
5/3/2023 12:30:00 PM 9.16 48.488 0.076 13.6 13.16 10.84
5/3/2023 12:45:00 PM 9.2 48.56 0.076 13.57 12.8 10.82
5/3/2023 1:00:00 PM 9.38 48.884 0.076 13.46 13.46 10.8
5/3/2023 1:15:00 PM 9.68 49.424 0.075 13.32 13.94 10.76
5/3/2023 1:30:00 PM 9.83 49.694 0.075 13.26 13.74 10.72
5/3/2023 1:45:00 PM 9.94 49.892 0.075 13.21 14.24 10.67
5/3/2023 2:00:00 PM 9.88 49.784 0.075 13.21 14.33 10.66
5/3/2023 2:15:00 PM 9.78 49.604 0.075 13.26 13.97 10.66
5/3/2023 2:30:00 PM 9.69 49.442 0.075 13.3 14.42 10.67
5/3/2023 2:45:00 PM 9.67 49.406 0.075 13.31 14.8 10.68
5/3/2023 3:00:00 PM 9.68 49.424 0.074 13.31 15.89 10.68
5/3/2023 3:15:00 PM 9.68 49.424 0.074 13.29 15.58 10.69
5/3/2023 3:30:00 PM 9.68 49.424 0.074 13.27 14.92 10.7
5/3/2023 3:45:00 PM 9.71 49.478 0.074 13.27 15.33 10.7
5/3/2023 4:00:00 PM 9.74 49.532 0.074 13.23 17.65 10.7
5/3/2023 4:15:00 PM 9.84 49.712 0.073 13.2 15.23 10.69
5/3/2023 4:30:00 PM 9.84 49.712 0.073 13.2 15.85 10.69
5/3/2023 4:45:00 PM 9.81 49.658 0.073 13.21 17.29 10.68
5/3/2023 5:00:00 PM 9.82 49.676 0.073 13.22 18.92 10.67
5/3/2023 5:15:00 PM 9.85 49.73 0.073 13.2 18.34 10.66
5/3/2023 5:30:00 PM 9.88 49.784 0.073 13.19 17.84 10.65
5/3/2023 5:45:00 PM 9.88 49.784 0.073 13.2 17.16 10.63
5/3/2023 6:00:00 PM 9.83 49.694 0.073 13.23 17.06 10.62
5/3/2023 6:15:00 PM 9.79 49.622 0.072 13.25 16.86 10.62
5/3/2023 6:30:00 PM 9.75 49.55 0.073 13.27 19.38 10.62
5/3/2023 6:45:00 PM 9.71 49.478 0.073 13.28 18.49 10.63
5/3/2023 7:00:00 PM 9.66 49.388 0.073 13.3 18.4 10.64
5/3/2023 7:15:00 PM 9.61 49.298 0.073 13.33 18.12 10.65
5/3/2023 7:30:00 PM 9.56 49.208 0.073 13.35 18.76 10.67
5/3/2023 7:45:00 PM 9.5 49.1 0.073 13.39 19.57 10.68
5/3/2023 8:00:00 PM 9.44 48.992 0.073 13.45 18.83 10.69
5/3/2023 8:15:00 PM 9.37 48.866 0.073 13.46 18.29 10.7
5/3/2023 8:30:00 PM 9.32 48.776 0.073 13.49 22.86 10.72
5/3/2023 8:45:00 PM 9.26 48.668 0.073 13.51 22.04 10.73
5/3/2023 9:00:00 PM 9.21 48.578 0.073 13.54 18.28 10.74
5/3/2023 9:15:00 PM 9.16 48.488 0.074 13.54 16.7 10.76
5/3/2023 9:30:00 PM 9.12 48.416 0.074 13.57 17.71 10.77
5/3/2023 9:45:00 PM 9.08 48.344 0.074 13.59 17.83 10.78
5/3/2023 10:00:00 PM 9.03 48.254 0.074 13.61 16.99 10.79
5/3/2023 10:15:00 PM 8.99 48.182 0.074 13.64 16.22 10.81
5/3/2023 10:30:00 PM 8.95 48.11 0.074 13.65 15.28 10.82
5/3/2023 10:45:00 PM 8.91 48.038 0.075 13.7 15.01 10.83
5/3/2023 11:00:00 PM 8.88 47.984 0.075 13.71 15.27 10.84
5/3/2023 11:15:00 PM 8.84 47.912 0.075 13.74 15.34 10.85
5/3/2023 11:30:00 PM 8.81 47.858 0.075 13.75 14.36 10.86
5/3/2023 11:45:00 PM 8.77 47.786 0.075 13.77 14.3 10.87
5/4/2023 12:00:00 AM 8.74 47.732 0.075 13.79 13.89 10.88
5/4/2023 12:15:00 AM 8.7 47.66 0.075 13.79 13.53 10.89
5/4/2023 12:30:00 AM 8.67 47.606 0.075 13.82 13.41 10.9
5/4/2023 12:45:00 AM 8.64 47.552 0.075 13.86 13.15 10.91
5/4/2023 1:00:00 AM 8.6 47.48 0.075 13.89 13.08 10.92
5/4/2023 1:15:00 AM 8.57 47.426 0.075 13.89 12.88 10.93
5/4/2023 1:30:00 AM 8.54 47.372 0.075 13.9 12.7 10.94
5/4/2023 1:45:00 AM 8.51 47.318 0.075 13.92 13.31 10.95
5/4/2023 2:00:00 AM 8.48 47.264 0.075 13.93 12.88 10.96
5/4/2023 2:15:00 AM 8.45 47.21 0.075 13.95 12.27 10.96
5/4/2023 2:30:00 AM 8.43 47.174 0.075 13.94 12.18 10.97
5/4/2023 2:45:00 AM 8.41 47.138 0.075 13.97 12.43 10.98
5/4/2023 3:00:00 AM 8.38 47.084 0.075 13.94 12.24 10.98
5/4/2023 3:15:00 AM 8.36 47.048 0.075 13.95 12.28 11
5/4/2023 3:30:00 AM 8.33 46.994 0.075 13.95 11.96 11
5/4/2023 3:45:00 AM 8.31 46.958 0.075 13.96 11.68 11
5/4/2023 4:00:00 AM 8.29 46.922 0.075 13.98 11.52 11.01
5/4/2023 4:15:00 AM 8.27 46.886 0.076 14 11.53 11.02
5/4/2023 4:30:00 AM 8.25 46.85 0.076 14.02 11.38 11.02
5/4/2023 4:45:00 AM 8.23 46.814 0.076 14.01 11.47 11.03
5/4/2023 5:00:00 AM 8.21 46.778 0.076 14.04 11.18 11.04
5/4/2023 5:15:00 AM 8.19 46.742 0.076 14.03 11.55 11.05
5/4/2023 5:30:00 AM 8.18 46.724 0.076 14.02 11.16 11.05
5/4/2023 5:45:00 AM 8.16 46.688 0.076 14.04 11.27 11.06
5/4/2023 6:00:00 AM 8.14 46.652 0.076 14.06 11.11 11.07
5/4/2023 6:15:00 AM 8.13 46.634 0.076 14.08 11.25 11.07
5/4/2023 6:30:00 AM 8.11 46.598 0.076 14.08 11.03 11.08
5/4/2023 6:45:00 AM 8.1 46.58 0.076 14.07 10.77 11.09
5/4/2023 7:00:00 AM 8.09 46.562 0.076 14.08 10.8 11.09
5/4/2023 7:15:00 AM 8.08 46.544 0.076 14.07 10.37 11.11
5/4/2023 7:30:00 AM 8.08 46.544 0.076 14.09 10.8 11.11
5/4/2023 7:45:00 AM 8.09 46.562 0.076 14.07 10.47 11.12
5/4/2023 8:00:00 AM 8.11 46.598 0.076 14.04 10.4 11.13
5/4/2023 8:15:00 AM 8.13 46.634 0.076 14.05 10.2 11.14
5/4/2023 8:30:00 AM 8.16 46.688 0.076 14.04 10.18 11.15
5/4/2023 8:45:00 AM 8.19 46.742 0.076 14.03 10.22 11.15
5/4/2023 9:00:00 AM 8.24 46.832 0.076 13.99 10 11.14
5/4/2023 9:15:00 AM 8.29 46.922 0.076 13.95 10.2 11.15
5/4/2023 9:30:00 AM 8.33 46.994 0.077 13.92 10.08 11.14
5/4/2023 9:45:00 AM 8.4 47.12 0.077 13.89 9.77 11.13
5/4/2023 10:00:00 AM 8.5 47.3 0.077 13.85 9.62 11.11
5/4/2023 10:15:00 AM 8.54 47.372 0.077 13.82 9.69 11.1
5/4/2023 10:30:00 AM 8.62 47.516 0.077 13.77 9.79 11.09
5/4/2023 10:45:00 AM 8.72 47.696 0.077 13.74 10.12 11.07
5/4/2023 11:00:00 AM 8.78 47.804 0.077 13.68 9.69 11.05
5/4/2023 11:15:00 AM 8.86 47.948 0.077 13.67 9.94 11.03
5/4/2023 11:30:00 AM 8.95 48.11 0.077 13.62 9.71 11.01
5/4/2023 11:45:00 AM 9.08 48.344 0.077 13.56 9.65 10.99
5/4/2023 12:00:00 PM 9.14 48.452 0.077 13.51 9.71 10.97
5/4/2023 12:15:00 PM 9.18 48.524 0.077 13.51 10 10.96
5/4/2023 12:30:00 PM 9.19 48.542 0.077 13.49 9.8 10.94
5/4/2023 12:45:00 PM 9.23 48.614 0.077 13.46 9.72 10.93
5/4/2023 1:00:00 PM 9.3 48.74 0.077 13.43 10.11 10.92
5/4/2023 1:15:00 PM 9.35 48.83 0.077 13.41 9.65 10.91
5/4/2023 1:30:00 PM 9.39 48.902 0.077 13.4 10.06 10.9
5/4/2023 1:45:00 PM 9.45 49.01 0.077 13.36 9.83 10.89
5/4/2023 2:00:00 PM 9.58 49.244 0.077 13.28 9.62 10.88
5/4/2023 2:15:00 PM 9.9 49.82 0.077 13.16 9.45 10.85
5/4/2023 2:30:00 PM 10.08 50.144 0.077 13.09 9.2 10.81
5/4/2023 2:45:00 PM 10.1 50.18 0.077 13.07 9.19 10.78
5/4/2023 3:00:00 PM 10.12 50.216 0.077 13.06 9.08 10.75
5/4/2023 3:15:00 PM 10.14 50.252 0.077 13.04 9.08 10.72
5/4/2023 3:30:00 PM 10.15 50.27 0.077 13.03 9.23 10.71
5/4/2023 3:45:00 PM 10.16 50.288 0.077 13.01 9.57 10.69
5/4/2023 4:00:00 PM 10.2 50.36 0.077 12.98 9.31 10.68
5/4/2023 4:15:00 PM 10.28 50.504 0.077 12.95 9.12 10.67
5/4/2023 4:30:00 PM 10.28 50.504 0.078 12.95 9.05 10.67
5/4/2023 4:45:00 PM 10.27 50.486 0.078 12.91 8.94 10.67
5/4/2023 5:00:00 PM 10.3 50.54 0.078 12.91 9.01 10.67
5/4/2023 5:15:00 PM 10.3 50.54 0.078 12.95 9.13 10.66
5/4/2023 5:30:00 PM 10.3 50.54 0.078 12.9 9.06 10.66
5/4/2023 5:45:00 PM 10.27 50.486 0.078 12.96 9.24 10.65
5/4/2023 6:00:00 PM 10.24 50.432 0.078 12.97 8.82 10.65
5/4/2023 6:15:00 PM 10.2 50.36 0.078 12.99 8.97 10.64
5/4/2023 6:30:00 PM 10.17 50.306 0.078 12.97 9.16 10.64
5/4/2023 6:45:00 PM 10.16 50.288 0.078 12.97 9.13 10.65
5/4/2023 7:00:00 PM 10.13 50.234 0.078 12.98 9.89 10.65
5/4/2023 7:15:00 PM 10.1 50.18 0.078 13.03 9.99 10.66
5/4/2023 7:30:00 PM 10.06 50.108 0.078 13.04 9.12 10.65
5/4/2023 7:45:00 PM 10.01 50.018 0.078 13.05 9.11 10.66
5/4/2023 8:00:00 PM 9.96 49.928 0.078 13.09 9.05 10.67
5/4/2023 8:15:00 PM 9.9 49.82 0.078 13.12 9.78 10.67
5/4/2023 8:30:00 PM 9.84 49.712 0.078 13.15 9.75 10.68
5/4/2023 8:45:00 PM 9.78 49.604 0.078 13.18 10.21 10.69
5/4/2023 9:00:00 PM 9.71 49.478 0.078 13.21 9.95 10.7
5/4/2023 9:15:00 PM 9.65 49.37 0.078 13.24 9.89 10.72
5/4/2023 9:30:00 PM 9.58 49.244 0.078 13.28 9.43 10.73
5/4/2023 9:45:00 PM 9.51 49.118 0.078 13.3 9.61 10.75
5/4/2023 10:00:00 PM 9.43 48.974 0.078 13.35 9.7 10.77
5/4/2023 10:15:00 PM 9.36 48.848 0.078 13.37 9.93 10.78
5/4/2023 10:30:00 PM 9.28 48.704 0.078 13.4 9.67 10.81
5/4/2023 10:45:00 PM 9.2 48.56 0.078 13.42 9.36 10.83
5/4/2023 11:00:00 PM 9.12 48.416 0.078 13.48 9.85 10.85
5/4/2023 11:15:00 PM 9.05 48.29 0.078 13.49 9.05 10.87
5/4/2023 11:30:00 PM 8.98 48.164 0.078 13.54 9.33 10.89
5/4/2023 11:45:00 PM 8.91 48.038 0.078 13.6 9.08 10.92
5/5/2023 12:00:00 AM 8.84 47.912 0.078 13.63 9.24 10.93
5/5/2023 12:15:00 AM 8.76 47.768 0.078 13.66 9 10.96
5/5/2023 12:30:00 AM 8.68 47.624 0.079 13.71 8.88 10.98
5/5/2023 12:45:00 AM 8.6 47.48 0.079 13.75 9.3 11
5/5/2023 1:00:00 AM 8.54 47.372 0.079 13.78 9.07 11.02
5/5/2023 1:15:00 AM 8.47 47.246 0.079 13.82 9.65 11.04
5/5/2023 1:30:00 AM 8.41 47.138 0.079 13.85 8.75 11.06
5/5/2023 1:45:00 AM 8.36 47.048 0.079 13.89 8.6 11.08
5/5/2023 2:00:00 AM 8.31 46.958 0.079 13.9 8.31 11.09
5/5/2023 2:15:00 AM 8.27 46.886 0.079 13.95 8.85 11.11
5/5/2023 2:30:00 AM 8.23 46.814 0.079 13.97 8.4 11.13
5/5/2023 2:45:00 AM 8.19 46.742 0.079 13.99 8.31 11.13
5/5/2023 3:00:00 AM 8.16 46.688 0.079 14.01 8.33 11.14
5/5/2023 3:15:00 AM 8.12 46.616 0.079 14.03 8.26 11.16
5/5/2023 3:30:00 AM 8.09 46.562 0.079 14.07 7.91 11.16
5/5/2023 3:45:00 AM 8.06 46.508 0.079 14.08 8.09 11.18
5/5/2023 4:00:00 AM 8.03 46.454 0.079 14.1 7.78 11.19
5/5/2023 4:15:00 AM 7.99 46.382 0.079 14.12 7.55 11.19
5/5/2023 4:30:00 AM 7.95 46.31 0.079 14.15 8.52 11.2
5/5/2023 4:45:00 AM 7.9 46.22 0.079 14.15 7.57 11.22
5/5/2023 5:00:00 AM 7.85 46.13 0.079 14.2 7.24 11.22
5/5/2023 5:15:00 AM 7.81 46.058 0.079 14.22 7.36 11.24
5/5/2023 5:30:00 AM 7.77 45.986 0.079 14.23 7.22 11.25
5/5/2023 5:45:00 AM 7.73 45.914 0.079 14.26 7.11 11.26
5/5/2023 6:00:00 AM 7.71 45.878 0.079 14.25 7.2 11.27
5/5/2023 6:15:00 AM 7.69 45.842 0.079 14.26 7.15 11.29
5/5/2023 6:30:00 AM 7.67 45.806 0.079 14.28 7.06 11.3
5/5/2023 6:45:00 AM 7.65 45.77 0.079 14.28 6.96 11.32
5/5/2023 7:00:00 AM 7.63 45.734 0.079 14.27 6.81 11.33
5/5/2023 7:15:00 AM 7.64 45.752 0.079 14.27 6.64 11.35
5/5/2023 7:30:00 AM 7.65 45.77 0.079 14.27 7.08 11.35
5/5/2023 7:45:00 AM 7.68 45.824 0.079 14.25 6.59 11.36
5/5/2023 8:00:00 AM 7.71 45.878 0.079 14.23 6.79 11.38
5/5/2023 8:15:00 AM 7.75 45.95 0.079 14.21 6.61 11.37
5/5/2023 8:30:00 AM 7.82 46.076 0.079 14.19 6.92 11.38
5/5/2023 8:45:00 AM 7.9 46.22 0.079 14.16 6.76 11.37
5/5/2023 9:00:00 AM 7.98 46.364 0.079 14.11 7.01 11.35
5/5/2023 9:15:00 AM 8.07 46.526 0.079 14.07 21.07 11.35
5/5/2023 9:30:00 AM 8.17 46.706 0.079 14.02 7.05 11.34
5/5/2023 9:45:00 AM 8.26 46.868 0.079 13.96 6.99 11.31
5/5/2023 10:00:00 AM 8.35 47.03 0.079 13.94 7.19 11.29
5/5/2023 10:15:00 AM 8.46 47.228 0.079 13.88 6.98 11.27
5/5/2023 10:30:00 AM 8.58 47.444 0.079 13.82 6.81 11.24
5/5/2023 10:45:00 AM 8.69 47.642 0.079 13.75 7.04 11.21
5/5/2023 11:00:00 AM 8.79 47.822 0.079 13.7 7.26 11.19
5/5/2023 11:15:00 AM 8.91 48.038 0.079 13.63 6.65 11.17
5/5/2023 11:30:00 AM 8.98 48.164 0.079 13.61 6.51 11.14
5/5/2023 11:45:00 AM 9.03 48.254 0.079 13.58 7.12 11.11
5/5/2023 12:00:00 PM 9.1 48.38 0.079 13.54 6.6 11.1
5/5/2023 12:15:00 PM 9.18 48.524 0.079 13.51 6.43 11.08
5/5/2023 12:30:00 PM 9.25 48.65 0.079 13.48 6.7 11.06
5/5/2023 12:45:00 PM 9.37 48.866 0.079 13.42 8.18 11.04
5/5/2023 1:00:00 PM 9.53 49.154 0.079 13.36 6.51 11.02
5/5/2023 1:15:00 PM 9.71 49.478 0.079 13.28 8.06 10.99
5/5/2023 1:30:00 PM 9.9 49.82 0.079 13.18 6.71 10.95
5/5/2023 1:45:00 PM 10.12 50.216 0.079 13.09 6.62 10.91
5/5/2023 2:00:00 PM 10.45 50.81 0.079 12.93 8.25 10.86
5/5/2023 2:15:00 PM 10.81 51.458 0.079 12.8 7.49 10.82
5/5/2023 2:30:00 PM 10.88 51.584 0.079 12.74 7.73 10.76
5/5/2023 2:45:00 PM 10.89 51.602 0.079 12.75 8.84 10.72
5/5/2023 3:00:00 PM 10.97 51.746 0.079 12.72 7.36 10.67
5/5/2023 3:15:00 PM 11.01 51.818 0.079 12.69 7.57 10.64
5/5/2023 3:30:00 PM 10.98 51.764 0.079 12.7 7.4 10.62
5/5/2023 3:45:00 PM 11.06 51.908 0.079 12.64 6.89 10.61
5/5/2023 4:00:00 PM 11.21 52.178 0.079 12.58 8.03 10.6
5/5/2023 4:15:00 PM 11.25 52.25 0.079 12.55 7.51 10.59
5/5/2023 4:30:00 PM 11.22 52.196 0.079 12.57 7.61 10.57
5/5/2023 4:45:00 PM 11.28 52.304 0.079 12.57 7.35 10.57
5/5/2023 5:00:00 PM 11.31 52.358 0.079 12.56 8.86 10.54
5/5/2023 5:15:00 PM 11.28 52.304 0.079 12.57 8.43 10.55
5/5/2023 5:30:00 PM 11.18 52.124 0.079 12.61 8.04 10.55
5/5/2023 5:45:00 PM 11.15 52.07 0.079 12.62 8.11 10.55
5/5/2023 6:00:00 PM 11.13 52.034 0.079 12.63 7.63 10.52
5/5/2023 6:15:00 PM 11.11 51.998 0.079 12.64 7.93 10.51
5/5/2023 6:30:00 PM 11.04 51.872 0.079 12.66 7.76 10.52
5/5/2023 6:45:00 PM 10.98 51.764 0.079 12.7 10.19 10.52
5/5/2023 7:00:00 PM 10.92 51.656 0.079 12.72 8.62 10.5
5/5/2023 7:15:00 PM 10.86 51.548 0.08 12.73 10.48 10.5
5/5/2023 7:30:00 PM 10.82 51.476 0.08 12.76 7.99 10.5
5/5/2023 7:45:00 PM 10.75 51.35 0.08 12.78 7.68 10.52
5/5/2023 8:00:00 PM 10.67 51.206 0.08 12.82 8.09 10.58
5/5/2023 8:15:00 PM 10.56 51.008 0.08 12.85 8.79 10.64
5/5/2023 8:30:00 PM 10.45 50.81 0.08 12.9 7.97 10.67
5/5/2023 8:45:00 PM 10.33 50.594 0.08 12.96 8.74 10.71
5/5/2023 9:00:00 PM 10.22 50.396 0.08 12.99 7.41 10.79
5/5/2023 9:15:00 PM 10.1 50.18 0.08 13.05 7.8 10.81
5/5/2023 9:30:00 PM 10.01 50.018 0.08 13.1 7.47 10.87
5/5/2023 9:45:00 PM 9.91 49.838 0.08 13.13 8.32 10.89
5/5/2023 10:00:00 PM 9.83 49.694 0.08 13.18 7.59 10.94
5/5/2023 10:15:00 PM 9.75 49.55 0.08 13.21 8.08 10.95
5/5/2023 10:30:00 PM 9.67 49.406 0.08 13.24 7.55 11
5/5/2023 10:45:00 PM 9.58 49.244 0.08 13.3 7.9 11.02
5/5/2023 11:00:00 PM 9.48 49.064 0.08 13.35 7.59 11.05
5/5/2023 11:15:00 PM 9.39 48.902 0.08 13.41 7.69 11.07
5/5/2023 11:30:00 PM 9.3 48.74 0.08 13.47 8.29 11.09
5/5/2023 11:45:00 PM 9.21 48.578 0.08 13.54 7.72 11.11
5/6/2023 12:00:00 AM 9.11 48.398 0.08 13.59 8.38 11.12
5/6/2023 12:15:00 AM 9.04 48.272 0.08 13.65 7.32 11.15
5/6/2023 12:30:00 AM 8.95 48.11 0.081 13.74 7.96 11.19
5/6/2023 12:45:00 AM 8.86 47.948 0.081 13.82 8.07 11.19
5/6/2023 1:00:00 AM 8.78 47.804 0.08 13.88 7.58 11.2
5/6/2023 1:15:00 AM 8.7 47.66 0.08 13.96 7.41 11.25
5/6/2023 1:30:00 AM 8.61 47.498 0.08 14.01 7.88 11.25
5/6/2023 1:45:00 AM 8.53 47.354 0.08 14.08 7.44 11.29
5/6/2023 2:00:00 AM 8.46 47.228 0.08 14.09 7.6 11.3
5/6/2023 2:15:00 AM 8.38 47.084 0.08 14.1 7.37 11.31
5/6/2023 2:30:00 AM 8.3 46.94 0.08 14.13 7.04 11.3
5/6/2023 2:45:00 AM 8.22 46.796 0.08 14.23 7.38 11.35
5/6/2023 3:00:00 AM 8.14 46.652 0.08 14.43 6.99 11.35
5/6/2023 3:15:00 AM 8.07 46.526 0.081 14.27 6.85 11.36
5/6/2023 3:30:00 AM 8 46.4 0.081 14.38 7.3 11.38
5/6/2023 3:45:00 AM 7.93 46.274 0.081 14.33 7.1 11.41
5/6/2023 4:00:00 AM 7.86 46.148 0.081 14.47 7.21 11.45
5/6/2023 4:15:00 AM 7.78 46.004 0.081 14.42 6.74 11.47
5/6/2023 4:30:00 AM 7.71 45.878 0.081 14.48 7.46 11.5
5/6/2023 4:45:00 AM 7.64 45.752 0.081 14.56 7.24 11.5
5/6/2023 5:00:00 AM 7.58 45.644 0.081 14.58 7.09 11.51
5/6/2023 5:15:00 AM 7.51 45.518 0.08 14.55 7.11 11.55
5/6/2023 5:30:00 AM 7.44 45.392 0.081 14.67 6.42 11.56
5/6/2023 5:45:00 AM 7.38 45.284 0.08 14.69 7.12 11.59
5/6/2023 6:00:00 AM 7.31 45.158 0.08 14.71 6.68 11.61
5/6/2023 6:15:00 AM 7.25 45.05 0.08 14.73 7.37 11.6
5/6/2023 6:30:00 AM 7.2 44.96 0.079 14.74 7.32 11.64
5/6/2023 6:45:00 AM 7.16 44.888 0.08 14.74 6.53 11.64
5/6/2023 7:00:00 AM 7.13 44.834 0.078 14.76 6.74 11.66
5/6/2023 7:15:00 AM 7.13 44.834 0.077 14.59 6.8 11.69
5/6/2023 7:30:00 AM 7.11 44.798 0.075 14.53 6.55 11.73
5/6/2023 7:45:00 AM 7.11 44.798 0.07 14.46 6.73 11.74
5/6/2023 8:00:00 AM 7.11 44.798 0.072 14.49 6.56 11.74
5/6/2023 8:15:00 AM 7.12 44.816 0.065 14.47 6.41 11.75
5/6/2023 8:30:00 AM 7.16 44.888 0.064 14.37 6.45 11.76
5/6/2023 8:45:00 AM 7.27 45.086 0.049 14.23 6.54 11.78
5/6/2023 9:00:00 AM 7.39 45.302 0.057 14.04 6.21 11.79
5/6/2023 9:15:00 AM 7.54 45.572 0.051 13.81 6.65 11.84
5/6/2023 9:30:00 AM 7.75 45.95 0.036 13.5 6.62 11.8
5/6/2023 9:45:00 AM 8 46.4 0.041 13.26 9.01 11.78
5/6/2023 10:00:00 AM 8.35 47.03 0.02 13.06 6.2 11.69
5/6/2023 10:15:00 AM 8.55 47.39 0.029 12.93 6.37 11.65
5/6/2023 10:30:00 AM 8.69 47.642 0.021 12.84 6.54 11.59
5/6/2023 10:45:00 AM 9 48.2 0.017 12.83 6.4 11.48
5/6/2023 11:00:00 AM 9.33 48.794 0.013 12.61 6.44 11.41
5/6/2023 11:15:00 AM 9.66 49.388 0.013 12.4 6.77 11.35
5/6/2023 11:30:00 AM 10.19 50.342 0.006 12.15 6.43 11.28
5/6/2023 11:45:00 AM 10.38 50.684 0.004 11.83 6.66 11.29
5/6/2023 12:00:00 PM 10.71 51.278 0.006 11.45 7.72 11.29
5/6/2023 12:15:00 PM 11.15 52.07 0.001 11.75 6.68 11.11
5/6/2023 12:30:00 PM 11.69 53.042 0 11 6.74 11
5/6/2023 12:45:00 PM 12 53.6 0.001 10.95 6.66 10.94
5/6/2023 1:00:00 PM 12.25 54.05 0 11.37 7.18 10.82
5/6/2023 1:15:00 PM 12.37 54.266 0 10.53 7 10.87
5/6/2023 1:30:00 PM 12.76 54.968 0 10.58 7.53 10.71
5/6/2023 1:45:00 PM 12.91 55.238 0 10.4 8.91 10.68
5/6/2023 2:00:00 PM 13.62 56.516 0 10.17 10.26 10.59
5/6/2023 2:15:00 PM 14.25 57.65 0 10.27 11.47 10.47
5/6/2023 2:30:00 PM 14.18 57.524 0 10.54 14.06 10.38
5/6/2023 2:45:00 PM 14.66 58.388 0 9.87 6.75 10.32
5/6/2023 3:00:00 PM 14.6 58.28 0 9.61 11.95 10.35
5/6/2023 3:15:00 PM 15.54 59.972 0 9.64 6.43 10.18
5/6/2023 3:30:00 PM 15.5 59.9 0 9.39 6.34 10.13
5/6/2023 3:45:00 PM 16.39 61.502 0 9.64 5.85 9.95
5/6/2023 4:00:00 PM 17.06 62.708 0 9.37 4.17 9.85
5/6/2023 4:15:00 PM 16.13 61.034 0 9.53 4.2 9.98
5/6/2023 4:30:00 PM 17.42 63.356 0 9.1 4.2 9.78
5/6/2023 4:45:00 PM 16.8 62.24 0 9.35 4.2 9.73
5/6/2023 5:00:00 PM 16.82 62.276 0 8.53 4.91 10.06
5/6/2023 5:15:00 PM 17.05 62.69 0 7.83 4.08 9.97
5/6/2023 5:30:00 PM 16.5 61.7 0 8.2 4.18 10.03
5/6/2023 5:45:00 PM 16.66 61.988 0 8.68 4.22 9.85
5/6/2023 6:00:00 PM 16.62 61.916 0 8.31 4.01 9.76
5/6/2023 6:15:00 PM 16.46 61.628 0 8.02 4.03 9.83
5/6/2023 6:30:00 PM 16.41 61.538 0 8.33 4.16 9.78
5/6/2023 6:45:00 PM 16.17 61.106 0 8.09 3.93 9.82
5/6/2023 7:00:00 PM 15.19 59.342 0 8.62 3.92 9.87
5/6/2023 7:15:00 PM 14.82 58.676 0 8.79 4.03 9.97
5/6/2023 7:30:00 PM 14.42 57.956 0 8.62 5.91 9.98
5/6/2023 7:45:00 PM 13.83 56.894 0 8.83 6.3 10.1
5/6/2023 8:00:00 PM 13.46 56.228 0 8.95 6.23 10.12
5/6/2023 8:15:00 PM 13.07 55.526 0 9.13 7.34 10.17
5/6/2023 8:30:00 PM 12.49 54.482 0 9.24 8.1 10.3
5/6/2023 8:45:00 PM 11.76 53.168 0 9.6 8.43 10.53
5/6/2023 9:00:00 PM 11.65 52.97 0 10.42 9.62 10.5
5/6/2023 9:15:00 PM 11.23 52.214 0 11.99 8.82 10.58
5/6/2023 9:30:00 PM 10.92 51.656 0 12.4 7.82 10.68
5/6/2023 9:45:00 PM 10.61 51.098 0 12.59 10.04 10.7
5/6/2023 10:00:00 PM 10.15 50.27 0 12.79 10.3 10.85
5/6/2023 10:15:00 PM 9.78 49.604 0 12.9 9.24 10.95
5/6/2023 10:30:00 PM 9.71 49.478 0 12.71 9.88 10.91
5/6/2023 10:45:00 PM 9.33 48.794 0 12.82 10.24 11.05
5/6/2023 11:00:00 PM 8.9 48.02 0 12.92 10.15 11.19
5/6/2023 11:15:00 PM 9.04 48.272 0 12.99 12.9 11.09
5/6/2023 11:30:00 PM 8.81 47.858 0 13.48 9.64 11.16
5/6/2023 11:45:00 PM 8.47 47.246 0 13.6 9.99 11.28
5/7/2023 12:00:00 AM 8.23 46.814 0 13.81 9.66 11.35
5/7/2023 12:15:00 AM 8.07 46.526 0 13.85 10.24 11.4
5/7/2023 12:30:00 AM 7.99 46.382 0 13.88 7.75 11.35
5/7/2023 12:45:00 AM 7.65 45.77 0 14.03 9.9 11.53
5/7/2023 1:00:00 AM 7.47 45.446 0 14.12 10.22 11.57
5/7/2023 1:15:00 AM 7.23 45.014 0 14.22 10.07 11.59
5/7/2023 1:30:00 AM 7.38 45.284 0 14.3 8.8 11.56
5/7/2023 1:45:00 AM 7.03 44.654 0 14.5 9.7 11.69
5/7/2023 2:00:00 AM 6.98 44.564 0 14.59 9.78 11.69
5/7/2023 2:15:00 AM 6.77 44.186 0 14.57 10.25 11.78
5/7/2023 2:30:00 AM 6.78 44.204 0 14.61 9.61 11.76
5/7/2023 2:45:00 AM 6.68 44.024 0 14.72 10.7 11.77
5/7/2023 3:00:00 AM 6.38 43.484 0 14.74 10.3 11.88
5/7/2023 3:15:00 AM 6.26 43.268 0 14.73 9.12 11.91
5/7/2023 3:30:00 AM 6.3 43.34 0 14.79 9.53 11.88
5/7/2023 3:45:00 AM 6.04 42.872 0 14.91 8.09 12
5/7/2023 4:00:00 AM 5.78 42.404 0 14.99 6.99 12.1
5/7/2023 4:15:00 AM 5.83 42.494 0 15.07 6.79 12.04
5/7/2023 4:30:00 AM 5.74 42.332 0 15.24 9.48 12.1
5/7/2023 4:45:00 AM 5.63 42.134 0 15.2 9.84 12.12
5/7/2023 5:00:00 AM 5.57 42.026 0 15.28 9.3 12.13
5/7/2023 5:15:00 AM 5.5 41.9 0 15.39 9.94 12.15
5/7/2023 5:30:00 AM 5.37 41.666 0 15.43 9.9 12.19
5/7/2023 5:45:00 AM 5.08 41.144 0 15.51 9.69 12.31
5/7/2023 6:00:00 AM 5.08 41.144 0 15.63 8.41 12.28
5/7/2023 6:15:00 AM 4.96 40.928 0 15.49 9.04 12.35
5/7/2023 6:30:00 AM 4.77 40.586 0 15.56 8.95 12.43
5/7/2023 6:45:00 AM 4.94 40.892 0 15.55 9.42 12.35
5/7/2023 7:00:00 AM 5.08 41.144 0 15.4 9.49 12.3
5/7/2023 7:15:00 AM 5.36 41.648 0 15.34 8.89 12.19
5/7/2023 7:30:00 AM 5.49 41.882 0 15.27 10.74 12.16
5/7/2023 7:45:00 AM 5.69 42.242 0 15.08 12.62 12.1
5/7/2023 8:00:00 AM 5.91 42.638 0 14.95 12.04 12.02
5/7/2023 8:15:00 AM 6.21 43.178 0 14.77 11.82 11.93
5/7/2023 8:30:00 AM 6.62 43.916 0 14.57 16.62 11.8
5/7/2023 8:45:00 AM 7.03 44.654 0 14.31 16.91 11.7
5/7/2023 9:00:00 AM 8.02 46.436 0 13.65 23.82 11.49
5/7/2023 9:15:00 AM 9.02 48.236 0 13.11 35.66 11.2
5/7/2023 9:30:00 AM 9.85 49.73 0 12.66 28.93 10.97
5/7/2023 9:45:00 AM 10.57 51.026 0 12.26 34.94 10.78
5/7/2023 10:00:00 AM 11.2 52.16 0 11.95 14.83 10.66
5/7/2023 10:15:00 AM 11.73 53.114 0 12.02 9.05 10.57
5/7/2023 10:30:00 AM 12.15 53.87 0 11.81 8.02 10.49
5/7/2023 10:45:00 AM 12.74 54.932 0 12.22 9.88 10.34
5/7/2023 11:00:00 AM 13.33 55.994 0 11.1 10.42 10.24
5/7/2023 11:15:00 AM 14.12 57.416 0 11.74 9.79 10.06
5/7/2023 11:30:00 AM 15.12 59.216 0 10.63 11.49 9.86
5/7/2023 11:45:00 AM 15.61 60.098 0 10.81 10.31 9.75
5/7/2023 12:00:00 PM 16.45 61.61 0 11.67 9.42 9.49
5/7/2023 12:15:00 PM 16.78 62.204 0 10.37 10.36 9.52
5/7/2023 12:30:00 PM 18.09 64.562 0 11.42 9.92 9.16
5/7/2023 12:45:00 PM 18.26 64.868 0 9.04 9.56 9.23
5/7/2023 1:00:00 PM 18.63 65.534 0 9.48 10.05 9.09
5/7/2023 1:15:00 PM 18.94 66.092 0 10.37 9.94 9.07
5/7/2023 1:30:00 PM 19.44 66.992 0 11.22 9.84 8.99
5/7/2023 1:45:00 PM 20.95 69.71 0 10.58 9.77 8.69
5/7/2023 2:00:00 PM 21.51 70.718 0 10.21 9.69 8.68
5/7/2023 2:15:00 PM 21.69 71.042 0 14.62 9.57 8.7
5/7/2023 2:30:00 PM 22.07 71.726 0 13 9.52 8.62
5/7/2023 2:45:00 PM 22.74 72.932 0 10.02 9.39 8.39
5/7/2023 3:00:00 PM 21.68 71.024 0 12.62 9.36 8.63
5/7/2023 3:15:00 PM 21.15 70.07 0 13.97 9.34 8.7
5/7/2023 3:30:00 PM 20.74 69.332 0 10.09 9.3 8.68
5/7/2023 3:45:00 PM 20.23 68.414 0 14.82 9.31 8.82
5/7/2023 4:00:00 PM 20.98 69.764 0 9.07 9.26 8.53
5/7/2023 4:15:00 PM 19.57 67.226 0 10.45 9.39 8.86
5/7/2023 4:30:00 PM 19.53 67.154 0 8.64 9.3 8.81
5/7/2023 4:45:00 PM 18.76 65.768 0 12.11 9.32 8.98
5/7/2023 5:00:00 PM 18.11 64.598 0 11.83 9.34 9.09
5/7/2023 5:15:00 PM 18.09 64.562 0 9.06 9.3 9.05
5/7/2023 5:30:00 PM 17.65 63.77 0 10.81 9.32 9.12
5/7/2023 5:45:00 PM 17.13 62.834 0 12.71 9.34 9.2
5/7/2023 6:00:00 PM 16.65 61.97 0 10.04 9.38 9.26
5/7/2023 6:15:00 PM 16.3 61.34 0 9.73 9.41 9.3
5/7/2023 6:30:00 PM 15.94 60.692 0 8.99 9.37 9.37
5/7/2023 6:45:00 PM 15.58 60.044 0 8.7 9.37 9.42
5/7/2023 7:00:00 PM 15.11 59.198 0 9.4 9.35 9.53
5/7/2023 7:15:00 PM 15.04 59.072 0 9.45 9.37 9.52
5/7/2023 7:30:00 PM 14.97 58.946 0 9.55 9.2 9.51
5/7/2023 7:45:00 PM 14.84 58.712 0 9.85 8.6 9.56
5/7/2023 8:00:00 PM 14.6 58.28 0 10.02 5.69 9.62
5/7/2023 8:15:00 PM 14.29 57.722 0 10.22 6.45 9.68
5/7/2023 8:30:00 PM 14.08 57.344 0 10.43 6.22 9.71
5/7/2023 8:45:00 PM 13.85 56.93 0 10.35 6.44 9.76
5/7/2023 9:00:00 PM 13.66 56.588 0 10.57 5.76 9.8
5/7/2023 9:15:00 PM 13.44 56.192 0 10.53 5.4 9.84
5/7/2023 9:30:00 PM 13.39 56.102 0 10.79 6.12 9.85
5/7/2023 9:45:00 PM 13.29 55.922 0 10.85 4.21 9.86
5/7/2023 10:00:00 PM 13.19 55.742 0 10.91 4.32 9.89
5/7/2023 10:15:00 PM 13.12 55.616 0 10.84 4.58 9.92
5/7/2023 10:30:00 PM 13.04 55.472 0 10.68 4.52 9.92
5/7/2023 10:45:00 PM 12.91 55.238 0 10.71 4.3 9.96
5/7/2023 11:00:00 PM 12.81 55.058 0 10.6 4.3 9.99
5/7/2023 11:15:00 PM 12.69 54.842 0 10.19 4.45 10.01
5/7/2023 11:30:00 PM 12.55 54.59 0 10.25 4.66 10.04
5/7/2023 11:45:00 PM 12.47 54.446 0 10.52 5.04 10.06
5/8/2023 12:00:00 AM 12.41 54.338 0 10.45 4.19 10.08
5/8/2023 12:15:00 AM 12.33 54.194 0 10.47 4.81 10.09
5/8/2023 12:30:00 AM 12.24 54.032 0 10.82 4.88 10.12
5/8/2023 12:45:00 AM 12.17 53.906 0.001 10.77 6.2 10.13
5/8/2023 1:00:00 AM 12.03 53.654 0.001 10.82 4.28 10.17
5/8/2023 1:15:00 AM 11.95 53.51 0 10.89 4.03 10.19
5/8/2023 1:30:00 AM 11.86 53.348 0 10.76 3.65 10.21
5/8/2023 1:45:00 AM 11.78 53.204 0 10.79 11.22 10.23
5/8/2023 2:00:00 AM 11.7 53.06 0 10.86 20.19 10.25
5/8/2023 2:15:00 AM 11.64 52.952 0 10.98 12.66 10.28
5/8/2023 2:30:00 AM 11.6 52.88 0 10.8 9.58 10.29
5/8/2023 2:45:00 AM 11.56 52.808 0 10.99 9.09 10.3
5/8/2023 3:00:00 AM 11.52 52.736 0 10.99 9.18 10.3
5/8/2023 3:15:00 AM 11.47 52.646 0 11.04 10.78 10.32
5/8/2023 3:30:00 AM 11.43 52.574 0 11.04 8.85 10.32
5/8/2023 3:45:00 AM 11.39 52.502 0 11.53 9.39 10.33
5/8/2023 4:00:00 AM 11.34 52.412 0 11.55 9.02 10.34
5/8/2023 4:15:00 AM 11.28 52.304 0 11.64 8.89 10.36
5/8/2023 4:30:00 AM 11.27 52.286 0 11.7 9.7 10.35
5/8/2023 4:45:00 AM 11.22 52.196 0 11.79 9.09 10.37
5/8/2023 5:00:00 AM 11.19 52.142 0 11.85 12.07 10.37
5/8/2023 5:15:00 AM 11.14 52.052 0 11.85 11.36 10.39
5/8/2023 5:30:00 AM 11.1 51.98 0 11.97 13.13 10.4
5/8/2023 5:45:00 AM 11.02 51.836 0 12.04 11.47 10.41
5/8/2023 6:00:00 AM 10.82 51.476 0 12.13 7.11 10.47
5/8/2023 6:15:00 AM 10.77 51.386 0 12.23 4.17 10.47
5/8/2023 6:30:00 AM 10.74 51.332 0 12.24 3.32 10.47
5/8/2023 6:45:00 AM 10.71 51.278 0 12.22 3.58 10.5
5/8/2023 7:00:00 AM 10.66 51.188 0 12.26 3.72 10.52
5/8/2023 7:15:00 AM 10.69 51.242 0 12.24 3.72 10.52
5/8/2023 7:30:00 AM 10.84 51.512 0 12.13 3.68 10.5
5/8/2023 7:45:00 AM 10.95 51.71 0 12.06 3.73 10.49
5/8/2023 8:00:00 AM 10.97 51.746 0 12.02 3.64 10.49
5/8/2023 8:15:00 AM 11.04 51.872 0 12 3.65 10.48
5/8/2023 8:30:00 AM 11.11 51.998 0 11.97 3.42 10.46
5/8/2023 8:45:00 AM 11.41 52.538 0 11.83 3.53 10.4
5/8/2023 9:00:00 AM 11.5 52.7 0 11.88 3.41 10.38
5/8/2023 9:15:00 AM 11.64 52.952 0 11.84 3.6 10.35
5/8/2023 9:30:00 AM 12.25 54.05 0 11.67 3.7 10.23
5/8/2023 9:45:00 AM 12.38 54.284 0 11.31 1199.17 10.2
5/8/2023 10:00:00 AM 12.76 54.968 0 11.16 1721.12 10.12
5/8/2023 10:15:00 AM 12.57 54.626 0 11.16 4.02 10.21
5/8/2023 10:30:00 AM 12.64 54.752 0 11.16 5.75 10.21
5/8/2023 10:45:00 AM 12.69 54.842 0 7.72 8.18 10.11
5/8/2023 11:00:00 AM 12.09 53.762 0.077 7.13 4.77 10.33
5/8/2023 11:15:00 AM 12.41 54.338 0.079 7.12 4.66 10.29
5/8/2023 11:30:00 AM 12.67 54.806 0.078 7.11 4.68 10.25
5/8/2023 11:45:00 AM 12.95 55.31 0.079 7.11 4.8 10.21
5/8/2023 12:00:00 PM 13.21 55.778 0.079 7.11 4.73 10.16
5/8/2023 12:15:00 PM 13.44 56.192 0.078 7.11 4.78 10.1
5/8/2023 12:30:00 PM 13.73 56.714 0.078 7.11 4.76 10.06
5/8/2023 12:45:00 PM 14 57.2 0.078 7.11 4.74 10.01
5/8/2023 1:00:00 PM 14.3 57.74 0.078 7.12 4.64 9.95
5/8/2023 1:15:00 PM 14.53 58.154 0.077 7.12 4.6 9.89
5/8/2023 1:30:00 PM 14.8 58.64 0.08 7.12 4.57 9.84
5/8/2023 1:45:00 PM 15.08 59.144 0.079 7.12 4.49 9.78
5/8/2023 2:00:00 PM 15.32 59.576 0.079 7.12 4.63 9.74
5/8/2023 2:15:00 PM 15.5 59.9 0.077 7.12 4.53 9.69
5/8/2023 2:30:00 PM 15.71 60.278 0.081 7.12 4.7 9.66
5/8/2023 2:45:00 PM 15.85 60.53 0.079 7.12 4.74 9.62
5/8/2023 3:00:00 PM 15.97 60.746 0.079 7.12 4.54 9.58
5/8/2023 3:15:00 PM 16.1 60.98 0.081 7.12 4.48 9.54
5/8/2023 3:30:00 PM 16.23 61.214 0.081 7.12 7.97 9.51
5/8/2023 3:45:00 PM 16.32 61.376 0.08 7.12 4.86 9.48
5/8/2023 4:00:00 PM 16.26 61.268 0.08 7.12 4.43 9.46
5/8/2023 4:15:00 PM 16.23 61.214 0.08 7.12 4.55 9.45
5/8/2023 4:30:00 PM 16.22 61.196 0.081 7.12 4.45 9.45
5/8/2023 4:45:00 PM 16.24 61.232 0.082 7.11 4.41 9.44
5/8/2023 5:00:00 PM 16.21 61.178 0.08 7.11 4.4 9.44
5/8/2023 5:15:00 PM 16.13 61.034 0.079 7.11 4.39 9.43
5/8/2023 5:30:00 PM 16.05 60.89 0.078 7.1 4.25 9.43
5/8/2023 5:45:00 PM 15.94 60.692 0.08 7.1 4.37 9.43
5/8/2023 6:00:00 PM 15.83 60.494 0.079 7.1 4.33 9.44
5/8/2023 6:15:00 PM 15.69 60.242 0.08 7.09 4.27 9.45
5/8/2023 6:30:00 PM 15.51 59.918 0.079 7.09 4.41 9.46
5/8/2023 6:45:00 PM 15.31 59.558 0.079 7.08 4.55 9.47
5/8/2023 7:00:00 PM 15.1 59.18 0.079 7.07 4.61 9.48
5/8/2023 7:15:00 PM 14.9 58.82 0.079 7.07 4.39 9.5
5/8/2023 7:30:00 PM 14.72 58.496 0.08 7.06 4.48 9.5
5/8/2023 7:45:00 PM 14.53 58.154 0.078 7.05 4.41 9.51
5/8/2023 8:00:00 PM 14.36 57.848 0.079 7.04 4.35 9.51
5/8/2023 8:15:00 PM 14.2 57.56 0.079 7.03 4.35 9.52
5/8/2023 8:30:00 PM 14.05 57.29 0.081 7.02 4.68 9.53
5/8/2023 8:45:00 PM 13.89 57.002 0.079 7.01 4.55 9.54
5/8/2023 9:00:00 PM 13.74 56.732 0.082 7 4.68 9.57
5/8/2023 9:15:00 PM 13.59 56.462 0.082 6.99 4.76 9.58
5/8/2023 9:30:00 PM 13.45 56.21 0.082 6.99 4.84 9.61
5/8/2023 9:45:00 PM 13.3 55.94 0.081 6.98 4.87 9.65
5/8/2023 10:00:00 PM 13.16 55.688 0.082 6.98 5.09 9.68
5/8/2023 10:15:00 PM 13.02 55.436 0.08 6.98 4.84 9.71
5/8/2023 10:30:00 PM 12.87 55.166 0.082 6.98 4.94 9.75
5/8/2023 10:45:00 PM 12.72 54.896 0.081 6.98 4.9 9.78
5/8/2023 11:00:00 PM 12.58 54.644 0.082 6.98 4.82 9.81
5/8/2023 11:15:00 PM 12.44 54.392 0.083 6.98 4.79 9.84
5/8/2023 11:30:00 PM 12.3 54.14 0.082 6.98 4.81 9.87
5/8/2023 11:45:00 PM 12.17 53.906 0.082 6.98 4.78 9.91
5/9/2023 12:00:00 AM 12.04 53.672 0.084 6.98 5 9.94
5/9/2023 12:15:00 AM 11.92 53.456 0.081 6.98 4.9 9.97
5/9/2023 12:30:00 AM 11.8 53.24 0.082 6.98 4.83 10
5/9/2023 12:45:00 AM 11.69 53.042 0.082 6.98 4.83 10.02
5/9/2023 1:00:00 AM 11.59 52.862 0.082 6.98 4.8 10.05
5/9/2023 1:15:00 AM 11.48 52.664 0.084 6.98 4.85 10.08
5/9/2023 1:30:00 AM 11.36 52.448 0.084 6.98 4.86 10.1
5/9/2023 1:45:00 AM 11.25 52.25 0.083 6.98 4.73 10.13
5/9/2023 2:00:00 AM 11.15 52.07 0.083 6.99 4.8 10.16
5/9/2023 2:15:00 AM 11.04 51.872 0.084 6.99 4.86 10.17
5/9/2023 2:30:00 AM 10.93 51.674 0.083 6.99 4.69 10.2
5/9/2023 2:45:00 AM 10.83 51.494 0.082 6.99 4.54 10.23
5/9/2023 3:00:00 AM 10.73 51.314 0.082 6.99 4.53 10.26
5/9/2023 3:15:00 AM 10.63 51.134 0.084 6.99 4.47 10.28
5/9/2023 3:30:00 AM 10.54 50.972 0.084 6.99 4.86 10.31
5/9/2023 3:45:00 AM 10.46 50.828 0.083 7 4.61 10.33
5/9/2023 4:00:00 AM 10.37 50.666 0.083 7 4.41 10.35
5/9/2023 4:15:00 AM 10.29 50.522 0.083 7 4.48 10.37
5/9/2023 4:30:00 AM 10.2 50.36 0.084 7 4.39 10.4
5/9/2023 4:45:00 AM 10.13 50.234 0.083 7 4.26 10.42
5/9/2023 5:00:00 AM 10.06 50.108 0.084 7 4.23 10.44
5/9/2023 5:15:00 AM 9.99 49.982 0.084 7 4.18 10.46
5/9/2023 5:30:00 AM 9.91 49.838 0.084 7 4.17 10.48
5/9/2023 5:45:00 AM 9.83 49.694 0.085 7 4.24 10.5
5/9/2023 6:00:00 AM 9.77 49.586 0.085 7 4.04 10.52
5/9/2023 6:15:00 AM 9.72 49.496 0.085 7 4 10.54
5/9/2023 6:30:00 AM 9.67 49.406 0.085 7.01 3.99 10.56
5/9/2023 6:45:00 AM 9.63 49.334 0.083 7.01 3.91 10.59
5/9/2023 7:00:00 AM 9.61 49.298 0.084 7.02 3.8 10.64
5/9/2023 7:15:00 AM 9.61 49.298 0.085 7.03 3.74 10.68
5/9/2023 7:30:00 AM 9.6 49.28 0.085 7.04 3.78 10.73
5/9/2023 7:45:00 AM 9.6 49.28 0.085 7.05 3.75 10.76
5/9/2023 8:00:00 AM 9.62 49.316 0.083 7.06 3.75 10.8
5/9/2023 8:15:00 AM 9.64 49.352 0.083 7.07 3.69 10.83
5/9/2023 8:30:00 AM 9.68 49.424 0.084 7.08 3.62 10.84
5/9/2023 8:45:00 AM 9.76 49.568 0.084 7.09 3.64 10.87
5/9/2023 9:00:00 AM 9.82 49.676 0.085 7.09 3.72 10.86
5/9/2023 9:15:00 AM 9.9 49.82 0.085 7.1 3.57 10.87
5/9/2023 9:30:00 AM 10 50 0.084 7.1 3.76 10.85
5/9/2023 9:45:00 AM 10.12 50.216 0.083 7.11 3.6 10.83
5/9/2023 10:00:00 AM 10.26 50.468 0.083 7.11 3.47 10.82
5/9/2023 10:15:00 AM 10.42 50.756 0.084 7.11 3.56 10.79
5/9/2023 10:30:00 AM 10.61 51.098 0.084 7.12 3.52 10.77
5/9/2023 10:45:00 AM 10.81 51.458 0.082 7.12 3.46 10.73
5/9/2023 11:00:00 AM 11.05 51.89 0.082 7.13 3.44 10.69
5/9/2023 11:15:00 AM 11.31 52.358 0.083 7.13 3.41 10.65
5/9/2023 11:30:00 AM 11.58 52.844 0.084 7.13 3.42 10.59
5/9/2023 11:45:00 AM 11.86 53.348 0.084 7.14 3.5 10.54
5/9/2023 12:00:00 PM 12.14 53.852 0.084 7.14 3.46 10.49
5/9/2023 12:15:00 PM 12.46 54.428 0.085 7.15 3.62 10.43
5/9/2023 12:30:00 PM 12.78 55.004 0.084 7.15 3.49 10.37
5/9/2023 12:45:00 PM 13.1 55.58 0.082 7.16 3.53 10.31
5/9/2023 1:00:00 PM 13.43 56.174 0.083 7.16 3.47 10.24
5/9/2023 1:15:00 PM 13.74 56.732 0.084 7.16 3.53 10.18
5/9/2023 1:30:00 PM 14.05 57.29 0.084 7.16 3.56 10.11
5/9/2023 1:45:00 PM 14.34 57.812 0.084 7.17 3.43 10.05
5/9/2023 2:00:00 PM 14.59 58.262 0.083 7.17 3.46 9.99
5/9/2023 2:15:00 PM 14.83 58.694 0.083 7.18 3.46 9.95
5/9/2023 2:30:00 PM 15.04 59.072 0.082 7.18 3.45 9.89
5/9/2023 2:45:00 PM 15.19 59.342 0.082 7.18 4.07 9.85
5/9/2023 3:00:00 PM 15.3 59.54 0.082 7.18 3.55 9.81
5/9/2023 3:15:00 PM 15.38 59.684 0.082 7.18 3.79 9.78
5/9/2023 3:30:00 PM 15.43 59.774 0.082 7.18 3.54 9.75
5/9/2023 3:45:00 PM 15.51 59.918 0.084 7.18 3.52 9.73
5/9/2023 4:00:00 PM 15.52 59.936 0.082 7.18 3.56 9.71
5/9/2023 4:15:00 PM 15.53 59.954 0.083 7.18 3.48 9.69
5/9/2023 4:30:00 PM 15.51 59.918 0.083 7.18 3.48 9.69
5/9/2023 4:45:00 PM 15.48 59.864 0.083 7.18 3.52 9.69
5/9/2023 5:00:00 PM 15.44 59.792 0.083 7.18 3.37 9.69
5/9/2023 5:15:00 PM 15.34 59.612 0.083 7.18 3.43 9.68
5/9/2023 5:30:00 PM 15.23 59.414 0.083 7.18 3.35 9.69
5/9/2023 5:45:00 PM 15.12 59.216 0.082 7.17 3.38 9.69
5/9/2023 6:00:00 PM 14.99 58.982 0.083 7.17 3.36 9.7
5/9/2023 6:15:00 PM 14.85 58.73 0.083 7.17 3.31 9.72
5/9/2023 6:30:00 PM 14.7 58.46 0.083 7.16 3.44 9.72
5/9/2023 6:45:00 PM 14.52 58.136 0.083 7.16 3.39 9.73
5/9/2023 7:00:00 PM 14.34 57.812 0.084 7.15 3.32 9.74
5/9/2023 7:15:00 PM 14.13 57.434 0.083 7.14 3.41 9.74
5/9/2023 7:30:00 PM 13.94 57.092 0.083 7.14 3.57 9.74
5/9/2023 7:45:00 PM 13.75 56.75 0.083 7.12 3.52 9.74
5/9/2023 8:00:00 PM 13.57 56.426 0.083 7.11 3.41 9.74
5/9/2023 8:15:00 PM 13.4 56.12 0.083 7.1 3.48 9.74
5/9/2023 8:30:00 PM 13.24 55.832 0.084 7.09 3.62 9.73
5/9/2023 8:45:00 PM 13.1 55.58 0.083 7.08 3.6 9.74
5/9/2023 9:00:00 PM 12.95 55.31 0.083 7.07 3.71 9.75
5/9/2023 9:15:00 PM 12.8 55.04 0.083 7.06 3.93 9.78
5/9/2023 9:30:00 PM 12.66 54.788 0.084 7.05 3.71 9.8
5/9/2023 9:45:00 PM 12.52 54.536 0.083 7.04 3.74 9.82
5/9/2023 10:00:00 PM 12.37 54.266 0.084 7.03 3.74 9.85
5/9/2023 10:15:00 PM 12.23 54.014 0.085 7.03 3.75 9.88
5/9/2023 10:30:00 PM 12.08 53.744 0.084 7.02 3.93 9.92
5/9/2023 10:45:00 PM 11.94 53.492 0.084 7.02 3.83 9.95
5/9/2023 11:00:00 PM 11.79 53.222 0.084 7.01 3.92 9.99
5/9/2023 11:15:00 PM 11.65 52.97 0.085 7.01 4.11 10.03
5/9/2023 11:30:00 PM 11.51 52.718 0.085 7.01 3.98 10.06
5/9/2023 11:45:00 PM 11.37 52.466 0.084 7.02 3.87 10.1
5/10/2023 12:00:00 AM 11.23 52.214 0.085 7.01 3.94 10.13
5/10/2023 12:15:00 AM 11.09 51.962 0.085 7.01 3.81 10.17
5/10/2023 12:30:00 AM 10.96 51.728 0.084 7.02 3.9 10.21
5/10/2023 12:45:00 AM 10.83 51.494 0.084 7.02 3.75 10.24
5/10/2023 1:00:00 AM 10.7 51.26 0.085 7.02 3.73 10.27
5/10/2023 1:15:00 AM 10.57 51.026 0.085 7.01 3.81 10.3
5/10/2023 1:30:00 AM 10.45 50.81 0.085 7.02 3.68 10.34
5/10/2023 1:45:00 AM 10.32 50.576 0.084 7.01 3.87 10.37
5/10/2023 2:00:00 AM 10.21 50.378 0.085 7.01 3.92 10.4
5/10/2023 2:15:00 AM 10.09 50.162 0.087 7.01 3.8 10.43
5/10/2023 2:30:00 AM 9.98 49.964 0.086 7.01 3.78 10.46
5/10/2023 2:45:00 AM 9.87 49.766 0.086 7.01 3.76 10.49
5/10/2023 3:00:00 AM 9.76 49.568 0.086 7.01 3.69 10.52
5/10/2023 3:15:00 AM 9.65 49.37 0.085 7.01 3.97 10.55
5/10/2023 3:30:00 AM 9.55 49.19 0.086 7.01 3.62 10.57
5/10/2023 3:45:00 AM 9.45 49.01 0.085 7.01 3.56 10.6
5/10/2023 4:00:00 AM 9.35 48.83 0.086 7.01 3.75 10.63
5/10/2023 4:15:00 AM 9.26 48.668 0.085 7.01 3.65 10.66
5/10/2023 4:30:00 AM 9.16 48.488 0.086 7.01 3.6 10.69
5/10/2023 4:45:00 AM 9.06 48.308 0.085 7.01 3.58 10.71
5/10/2023 5:00:00 AM 8.97 48.146 0.085 7.01 3.46 10.73
5/10/2023 5:15:00 AM 8.88 47.984 0.084 7.01 3.64 10.76
5/10/2023 5:30:00 AM 8.79 47.822 0.086 7.01 3.59 10.78
5/10/2023 5:45:00 AM 8.7 47.66 0.087 7.01 3.81 10.81
5/10/2023 6:00:00 AM 8.62 47.516 0.086 7.01 4.35 10.84
5/10/2023 6:15:00 AM 8.54 47.372 0.086 7.02 4.34 10.87
5/10/2023 6:30:00 AM 8.47 47.246 0.084 7.03 4.14 10.91
5/10/2023 6:45:00 AM 8.41 47.138 0.085 7.04 4.08 10.96
5/10/2023 7:00:00 AM 8.36 47.048 0.085 7.04 3.86 11.01
5/10/2023 7:15:00 AM 8.31 46.958 0.086 7.05 4.08 11.07
5/10/2023 7:30:00 AM 8.29 46.922 0.085 7.06 3.71 11.1
5/10/2023 7:45:00 AM 8.27 46.886 0.086 7.07 3.42 11.16
5/10/2023 8:00:00 AM 8.26 46.868 0.085 7.08 3.46 11.2
5/10/2023 8:15:00 AM 8.27 46.886 0.086 7.09 3.45 11.23
5/10/2023 8:30:00 AM 8.3 46.94 0.086 7.09 3.26 11.26
5/10/2023 8:45:00 AM 8.35 47.03 0.085 7.1 3.38 11.27
5/10/2023 9:00:00 AM 8.42 47.156 0.085 7.1 3.31 11.29
5/10/2023 9:15:00 AM 8.53 47.354 0.086 7.11 3.24 11.29
5/10/2023 9:30:00 AM 8.65 47.57 0.085 7.11 3.18 11.28
5/10/2023 9:45:00 AM 8.82 47.876 0.085 7.12 3.17 11.28
5/10/2023 10:00:00 AM 9 48.2 0.085 7.12 3.11 11.26
5/10/2023 10:15:00 AM 9.21 48.578 0.086 7.13 3.18 11.23
5/10/2023 10:30:00 AM 9.43 48.974 0.086 7.13 3.17 11.19
5/10/2023 10:45:00 AM 9.69 49.442 0.084 7.13 3.14 11.14
5/10/2023 11:00:00 AM 9.97 49.946 0.085 7.14 3.3 11.1
5/10/2023 11:15:00 AM 10.27 50.486 0.086 7.14 3.42 11.05
5/10/2023 11:30:00 AM 10.58 51.044 0.084 7.14 3.33 10.99
5/10/2023 11:45:00 AM 10.92 51.656 0.086 7.14 3.4 10.92
5/10/2023 12:00:00 PM 11.29 52.322 0.085 7.15 3.33 10.85
5/10/2023 12:15:00 PM 11.67 53.006 0.084 7.15 3.26 10.77
5/10/2023 12:30:00 PM 12.06 53.708 0.085 7.15 3.13 10.7
5/10/2023 12:45:00 PM 12.47 54.446 0.085 7.16 3.09 10.61
5/10/2023 1:00:00 PM 12.87 55.166 0.085 7.16 3.02 10.53
5/10/2023 1:15:00 PM 13.25 55.85 0.084 7.16 3.23 10.44
5/10/2023 1:30:00 PM 13.62 56.516 0.085 7.17 3.03 10.36
5/10/2023 1:45:00 PM 13.98 57.164 0.085 7.18 3.17 10.28
5/10/2023 2:00:00 PM 14.33 57.794 0.085 7.18 3.06 10.21
5/10/2023 2:15:00 PM 14.64 58.352 0.085 7.19 3.14 10.13
5/10/2023 2:30:00 PM 14.93 58.874 0.084 7.19 3.23 10.06
5/10/2023 2:45:00 PM 15.17 59.306 0.085 7.19 3.06 10
5/10/2023 3:00:00 PM 15.39 59.702 0.085 7.19 3.07 9.94
5/10/2023 3:15:00 PM 15.59 60.062 0.085 7.19 3.13 9.89
5/10/2023 3:30:00 PM 15.77 60.386 0.085 7.2 3.12 9.84
5/10/2023 3:45:00 PM 15.9 60.62 0.084 7.2 3.26 9.79
5/10/2023 4:00:00 PM 15.99 60.782 0.085 7.2 3.52 9.76
5/10/2023 4:15:00 PM 16.06 60.908 0.085 7.19 3.25 9.74
5/10/2023 4:30:00 PM 16.09 60.962 0.085 7.2 3.37 9.7
5/10/2023 4:45:00 PM 16.08 60.944 0.085 7.2 3.33 9.68
5/10/2023 5:00:00 PM 16.05 60.89 0.085 7.2 3.3 9.67
5/10/2023 5:15:00 PM 15.99 60.782 0.085 7.2 3.37 9.66
5/10/2023 5:30:00 PM 15.88 60.584 0.085 7.2 3.27 9.66
5/10/2023 5:45:00 PM 15.78 60.404 0.085 7.19 3.25 9.66
5/10/2023 6:00:00 PM 15.64 60.152 0.085 7.19 3.29 9.66
5/10/2023 6:15:00 PM 15.49 59.882 0.085 7.19 3.42 9.66
5/10/2023 6:30:00 PM 15.33 59.594 0.085 7.18 3.26 9.66
5/10/2023 6:45:00 PM 15.16 59.288 0.084 7.17 3.23 9.66
5/10/2023 7:00:00 PM 14.97 58.946 0.084 7.16 3.23 9.68
5/10/2023 7:15:00 PM 14.8 58.64 0.084 7.16 3.27 9.68
5/10/2023 7:30:00 PM 14.62 58.316 0.084 7.15 3.25 9.67
5/10/2023 7:45:00 PM 14.44 57.992 0.085 7.14 3.28 9.65
5/10/2023 8:00:00 PM 14.26 57.668 0.084 7.12 3.24 9.64
5/10/2023 8:15:00 PM 14.1 57.38 0.085 7.1 3.55 9.61
5/10/2023 8:30:00 PM 13.94 57.092 0.085 7.08 3.57 9.6
5/10/2023 8:45:00 PM 13.79 56.822 0.085 7.07 3.39 9.58
5/10/2023 9:00:00 PM 13.64 56.552 0.085 7.06 3.46 9.59
5/10/2023 9:15:00 PM 13.49 56.282 0.085 7.05 3.44 9.59
5/10/2023 9:30:00 PM 13.34 56.012 0.085 7.04 3.83 9.61
5/10/2023 9:45:00 PM 13.2 55.76 0.085 7.04 3.66 9.64
5/10/2023 10:00:00 PM 13.06 55.508 0.085 7.03 3.53 9.66
5/10/2023 10:15:00 PM 12.92 55.256 0.085 7.03 3.64 9.69
5/10/2023 10:30:00 PM 12.78 55.004 0.085 7.03 3.79 9.72
5/10/2023 10:45:00 PM 12.64 54.752 0.086 7.03 3.58 9.75
5/10/2023 11:00:00 PM 12.5 54.5 0.085 7.03 3.67 9.78
5/10/2023 11:15:00 PM 12.36 54.248 0.086 7.03 3.72 9.81
5/10/2023 11:30:00 PM 12.22 53.996 0.086 7.03 3.62 9.85
5/10/2023 11:45:00 PM 12.08 53.744 0.086 7.03 3.66 9.89
5/11/2023 12:00:00 AM 11.95 53.51 0.087 7.03 3.68 9.92
5/11/2023 12:15:00 AM 11.82 53.276 0.086 7.03 3.96 9.95
5/11/2023 12:30:00 AM 11.69 53.042 0.086 7.03 3.68 9.98
5/11/2023 12:45:00 AM 11.56 52.808 0.087 7.03 3.62 10.02
5/11/2023 1:00:00 AM 11.44 52.592 0.087 7.03 3.61 10.04
5/11/2023 1:15:00 AM 11.32 52.376 0.086 7.03 3.65 10.08
5/11/2023 1:30:00 AM 11.2 52.16 0.086 7.03 3.66 10.1
5/11/2023 1:45:00 AM 11.09 51.962 0.087 7.03 3.77 10.14
5/11/2023 2:00:00 AM 10.97 51.746 0.087 7.03 3.47 10.16
5/11/2023 2:15:00 AM 10.87 51.566 0.088 7.04 3.66 10.19
5/11/2023 2:30:00 AM 10.76 51.368 0.087 7.03 3.58 10.22
5/11/2023 2:45:00 AM 10.66 51.188 0.087 7.03 3.52 10.24
5/11/2023 3:00:00 AM 10.56 51.008 0.087 7.03 3.57 10.27
5/11/2023 3:15:00 AM 10.46 50.828 0.088 7.03 3.49 10.3
5/11/2023 3:30:00 AM 10.37 50.666 0.087 7.03 3.39 10.32
5/11/2023 3:45:00 AM 10.27 50.486 0.087 7.03 3.3 10.35
5/11/2023 4:00:00 AM 10.18 50.324 0.087 7.03 3.38 10.37
5/11/2023 4:15:00 AM 10.09 50.162 0.087 7.03 3.3 10.4
5/11/2023 4:30:00 AM 9.99 49.982 0.087 7.03 3.45 10.43
5/11/2023 4:45:00 AM 9.91 49.838 0.088 7.03 3.31 10.44
5/11/2023 5:00:00 AM 9.82 49.676 0.087 7.03 3.28 10.48
5/11/2023 5:15:00 AM 9.74 49.532 0.088 7.03 3.26 10.49
5/11/2023 5:30:00 AM 9.65 49.37 0.087 7.03 3.29 10.52
5/11/2023 5:45:00 AM 9.58 49.244 0.088 7.03 3.28 10.54
5/11/2023 6:00:00 AM 9.49 49.082 0.088 7.03 3.15 10.57
5/11/2023 6:15:00 AM 9.42 48.956 0.088 7.03 3.09 10.6
5/11/2023 6:30:00 AM 9.36 48.848 0.089 7.04 3.08 10.64
5/11/2023 6:45:00 AM 9.31 48.758 0.088 7.04 3.13 10.69
5/11/2023 7:00:00 AM 9.27 48.686 0.089 7.05 3.07 10.75
5/11/2023 7:15:00 AM 9.23 48.614 0.088 7.06 3.07 10.82
5/11/2023 7:30:00 AM 9.21 48.578 0.088 7.07 3.06 10.87
5/11/2023 7:45:00 AM 9.2 48.56 0.088 7.08 3 10.92
5/11/2023 8:00:00 AM 9.22 48.596 0.089 7.09 3 10.98
5/11/2023 8:15:00 AM 9.24 48.632 0.088 7.1 2.97 11.02
5/11/2023 8:30:00 AM 9.28 48.704 0.088 7.11 2.95 11.05
5/11/2023 8:45:00 AM 9.34 48.812 0.088 7.12 3.11 11.08
5/11/2023 9:00:00 AM 9.42 48.956 0.087 7.13 2.86 11.1
5/11/2023 9:15:00 AM 9.52 49.136 0.087 7.14 3 11.09
5/11/2023 9:30:00 AM 9.66 49.388 0.088 7.15 2.83 11.1
5/11/2023 9:45:00 AM 9.82 49.676 0.088 7.15 2.82 11.09
5/11/2023 10:00:00 AM 10 50 0.087 7.16 2.81 11.07
5/11/2023 10:15:00 AM 10.23 50.414 0.089 7.17 2.86 11.04
5/11/2023 10:30:00 AM 10.46 50.828 0.088 7.17 2.81 11.01
5/11/2023 10:45:00 AM 10.7 51.26 0.087 7.18 2.76 10.96
5/11/2023 11:00:00 AM 10.94 51.692 0.088 7.18 2.86 10.93
5/11/2023 11:15:00 AM 11.22 52.196 0.087 7.18 2.79 10.87
5/11/2023 11:30:00 AM 11.57 52.826 0.087 7.19 2.8 10.82
5/11/2023 11:45:00 AM 11.93 53.474 0.086 7.2 2.77 10.75
5/11/2023 12:00:00 PM 12.3 54.14 0.087 7.2 2.71 10.69
5/11/2023 12:15:00 PM 12.68 54.824 0.087 7.21 5.71 10.61
5/11/2023 12:30:00 PM 13.07 55.526 0.087 7.21 2.99 10.53
5/11/2023 12:45:00 PM 13.47 56.246 0.087 7.22 2.85 10.46
5/11/2023 1:00:00 PM 13.9 57.02 0.087 7.23 2.8 10.37
5/11/2023 1:15:00 PM 14.32 57.776 0.087 7.22 2.88 10.29
5/11/2023 1:30:00 PM 14.71 58.478 0.087 7.22 2.75 10.22
5/11/2023 1:45:00 PM 15.08 59.144 0.087 7.23 2.77 10.14
5/11/2023 2:00:00 PM 15.45 59.81 0.087 7.23 2.93 10.06
5/11/2023 2:15:00 PM 15.8 60.44 0.087 7.23 2.79 9.99
5/11/2023 2:30:00 PM 16.12 61.016 0.087 7.24 2.75 9.92
5/11/2023 2:45:00 PM 16.4 61.52 0.086 7.24 2.73 9.85
5/11/2023 3:00:00 PM 16.64 61.952 0.087 7.25 2.83 9.79
5/11/2023 3:15:00 PM 16.87 62.366 0.087 7.25 2.76 9.73
5/11/2023 3:30:00 PM 17.08 62.744 0.087 7.25 2.82 9.68
5/11/2023 3:45:00 PM 17.26 63.068 0.087 7.27 2.84 9.64
5/11/2023 4:00:00 PM 17.36 63.248 0.087 7.28 2.85 9.59
5/11/2023 4:15:00 PM 17.52 63.536 0.087 7.29 2.87 9.54
5/11/2023 4:30:00 PM 17.5 63.5 0.087 7.28 2.81 9.5
5/11/2023 4:45:00 PM 17.51 63.518 0.087 7.33 2.83 9.49
5/11/2023 5:00:00 PM 17.46 63.428 0.087 7.33 3.46 9.45
5/11/2023 5:15:00 PM 17.41 63.338 0.087 7.35 2.87 9.44
5/11/2023 5:30:00 PM 17.3 63.14 0.087 7.35 3 9.42
5/11/2023 5:45:00 PM 17.16 62.888 0.087 7.39 2.97 9.42
5/11/2023 6:00:00 PM 17 62.6 0.087 7.24 2.87 9.42
5/11/2023 6:15:00 PM 16.89 62.402 0.087 7.31 2.85 9.42
5/11/2023 6:30:00 PM 16.73 62.114 0.087 7.37 2.85 9.43
5/11/2023 6:45:00 PM 16.54 61.772 0.087 7.38 2.78 9.43
5/11/2023 7:00:00 PM 16.38 61.484 0.087 7.37 2.87 9.42
5/11/2023 7:15:00 PM 16.21 61.178 0.087 7.24 2.83 9.42
5/11/2023 7:30:00 PM 16.03 60.854 0.087 7.04 2.95 9.4
5/11/2023 7:45:00 PM 15.84 60.512 0.087 6.97 2.86 9.38
5/11/2023 8:00:00 PM 15.66 60.188 0.087 7.09 3.03 9.35
5/11/2023 8:15:00 PM 15.49 59.882 0.087 6.96 3.17 9.31
5/11/2023 8:30:00 PM 15.32 59.576 0.087 7.04 3.07 9.29
5/11/2023 8:45:00 PM 15.17 59.306 0.087 7.17 3.09 9.27
5/11/2023 9:00:00 PM 15.03 59.054 0.088 7.19 3.21 9.25
5/11/2023 9:15:00 PM 14.89 58.802 0.088 7.22 3.17 9.25
5/11/2023 9:30:00 PM 14.76 58.568 0.087 7.04 3.32 9.26
5/11/2023 9:45:00 PM 14.63 58.334 0.087 7.07 3.75 9.27
5/11/2023 10:00:00 PM 14.5 58.1 0.087 7.22 3.76 9.29
5/11/2023 10:15:00 PM 14.38 57.884 0.087 7.2 3.73 9.31
5/11/2023 10:30:00 PM 14.27 57.686 0.088 7.02 3.63 9.34
5/11/2023 10:45:00 PM 14.14 57.452 0.087 7.17 3.69 9.36
5/11/2023 11:00:00 PM 14.02 57.236 0.088 7.17 3.78 9.39
5/11/2023 11:15:00 PM 13.89 57.002 0.088 7.11 3.67 9.42
5/11/2023 11:30:00 PM 13.77 56.786 0.088 7.19 3.7 9.45
5/11/2023 11:45:00 PM 13.65 56.57 0.088 7.2 3.67 9.48
5/12/2023 12:00:00 AM 13.52 56.336 0.088 7.15 3.58 9.51
5/12/2023 12:15:00 AM 13.39 56.102 0.088 7.29 3.59 9.54
5/12/2023 12:30:00 AM 13.28 55.904 0.088 7.18 3.63 9.56
5/12/2023 12:45:00 AM 13.15 55.67 0.088 7.24 3.56 9.58
5/12/2023 1:00:00 AM 13.04 55.472 0.088 7.25 3.63 9.62
5/12/2023 1:15:00 AM 12.93 55.274 0.088 7.35 3.68 9.64
5/12/2023 1:30:00 AM 12.83 55.094 0.089 7.27 3.7 9.67
5/12/2023 1:45:00 AM 12.72 54.896 0.088 7.36 3.55 9.7
5/12/2023 2:00:00 AM 12.62 54.716 0.088 7.33 3.57 9.72
5/12/2023 2:15:00 AM 12.52 54.536 0.089 7.23 3.62 9.74
5/12/2023 2:30:00 AM 12.42 54.356 0.089 7.33 3.76 9.77
5/12/2023 2:45:00 AM 12.32 54.176 0.089 7.24 3.77 9.8
5/12/2023 3:00:00 AM 12.22 53.996 0.089 7.24 4.17 9.81
5/12/2023 3:15:00 AM 12.13 53.834 0.089 7.29 3.5 9.84
5/12/2023 3:30:00 AM 12.04 53.672 0.089 7.3 3.55 9.87
5/12/2023 3:45:00 AM 11.95 53.51 0.089 7.31 3.46 9.89
5/12/2023 4:00:00 AM 11.87 53.366 0.089 7.26 3.49 9.91
5/12/2023 4:15:00 AM 11.78 53.204 0.089 7.37 3.33 9.92
5/12/2023 4:30:00 AM 11.7 53.06 0.089 7.28 3.27 9.94
5/12/2023 4:45:00 AM 11.62 52.916 0.09 7.33 3.35 9.97
5/12/2023 5:00:00 AM 11.54 52.772 0.089 7.28 3.38 9.99
5/12/2023 5:15:00 AM 11.46 52.628 0.089 7.29 3.44 10.01
5/12/2023 5:30:00 AM 11.38 52.484 0.089 7.33 3.37 10.03
5/12/2023 5:45:00 AM 11.32 52.376 0.089 7.32 3.39 10.06
5/12/2023 6:00:00 AM 11.25 52.25 0.089 7.31 3.25 10.08
5/12/2023 6:15:00 AM 11.19 52.142 0.089 7.34 3.27 10.11
5/12/2023 6:30:00 AM 11.15 52.07 0.089 7.34 3.26 10.17
5/12/2023 6:45:00 AM 11.11 51.998 0.09 7.38 3.28 10.23
5/12/2023 7:00:00 AM 11.09 51.962 0.089 7.35 3.17 10.3
5/12/2023 7:15:00 AM 11.07 51.926 0.09 7.37 3.13 10.36
5/12/2023 7:30:00 AM 11.07 51.926 0.09 7.34 3.16 10.43
5/12/2023 7:45:00 AM 11.08 51.944 0.09 7.35 3.1 10.48
5/12/2023 8:00:00 AM 11.11 51.998 0.089 7.36 3.17 10.54
5/12/2023 8:15:00 AM 11.14 52.052 0.089 7.39 3.05 10.58
5/12/2023 8:30:00 AM 11.19 52.142 0.089 7.39 2.97 10.61
5/12/2023 8:45:00 AM 11.24 52.232 0.09 7.37 3.01 10.63
5/12/2023 9:00:00 AM 11.3 52.34 0.089 7.34 3.01 10.65
5/12/2023 9:15:00 AM 11.39 52.502 0.089 7.31 2.99 10.66
5/12/2023 9:30:00 AM 11.5 52.7 0.088 7.28 2.97 10.66
5/12/2023 9:45:00 AM 11.66 52.988 0.089 7.29 3.03 10.66
5/12/2023 10:00:00 AM 11.84 53.312 0.089 7.28 2.99 10.66
5/12/2023 10:15:00 AM 12.06 53.708 0.089 7.28 3 10.65
5/12/2023 10:30:00 AM 12.28 54.104 0.089 7.06 3 10.63
5/12/2023 10:45:00 AM 12.52 54.536 0.089 7.35 3 10.61
5/12/2023 11:00:00 AM 12.81 55.058 0.088 7.38 2.98 10.58
5/12/2023 11:15:00 AM 13.07 55.526 0.089 7.41 3.04 10.55
5/12/2023 11:30:00 AM 13.37 56.066 0.089 7.07 2.99 10.52
5/12/2023 11:45:00 AM 13.71 56.678 0.089 7.24 3.01 10.47
5/12/2023 12:00:00 PM 13.99 57.182 0.088 7.27 3.04 10.42
5/12/2023 12:15:00 PM 14.26 57.668 0.088 7.48 3 10.37
5/12/2023 12:30:00 PM 14.56 58.208 0.089 7.03 3.03 10.32
5/12/2023 12:45:00 PM 14.88 58.784 0.088 7.29 3.13 10.27
5/12/2023 1:00:00 PM 15.26 59.468 0.089 7.32 3.18 10.2
5/12/2023 1:15:00 PM 15.63 60.134 0.088 7.32 3.21 10.15
5/12/2023 1:30:00 PM 15.95 60.71 0.088 7.23 3.19 10.09
5/12/2023 1:45:00 PM 16.24 61.232 0.088 7.29 3.24 10.04
5/12/2023 2:00:00 PM 16.43 61.574 0.088 7.19 3.46 9.97
5/12/2023 2:15:00 PM 16.68 62.024 0.088 7.54 3.46 9.93
5/12/2023 2:30:00 PM 16.93 62.474 0.088 7.22 3.45 9.89
5/12/2023 2:45:00 PM 17.19 62.942 0.088 7.36 3.58 9.83
5/12/2023 3:00:00 PM 17.29 63.122 0.088 7.24 3.63 9.78
5/12/2023 3:15:00 PM 17.43 63.374 0.088 7.54 3.98 9.73
5/12/2023 3:30:00 PM 17.43 63.374 0.088 7.54 3.98 9.69
5/12/2023 3:45:00 PM 17.45 63.41 0.088 7.36 7.82 9.66
5/12/2023 4:00:00 PM 17.56 63.608 0.088 7.33 6.04 9.66
5/12/2023 4:15:00 PM 17.55 63.59 0.088 7.57 10.35 9.62
5/12/2023 4:30:00 PM 17.72 63.896 0.088 7.48 10.03 9.62
5/12/2023 4:45:00 PM 17.83 64.094 0.088 7.37 10.32 9.6
5/12/2023 5:00:00 PM 17.83 64.094 0.088 7.44 11.4 9.57
5/12/2023 5:15:00 PM 17.83 64.094 0.088 7.49 14.56 9.54
5/12/2023 5:30:00 PM 17.88 64.184 0.088 7.5 6.75 9.52
5/12/2023 5:45:00 PM 17.83 64.094 0.088 7.53 5.71 9.49
5/12/2023 6:00:00 PM 17.78 64.004 0.088 7.45 4.44 9.48
5/12/2023 6:15:00 PM 17.76 63.968 0.088 7.69 3.71 9.45
5/12/2023 6:30:00 PM 17.68 63.824 0.087 7.6 3.58 9.43
5/12/2023 6:45:00 PM 17.57 63.626 0.087 7.59 3.41 9.4
5/12/2023 7:00:00 PM 17.42 63.356 0.088 7.64 3.39 9.34
5/12/2023 7:15:00 PM 17.29 63.122 0.087 7.61 3.34 9.31
5/12/2023 7:30:00 PM 17.13 62.834 0.088 7.53 3.36 9.26
5/12/2023 7:45:00 PM 16.96 62.528 0.087 7.52 3.36 9.24
5/12/2023 8:00:00 PM 16.8 62.24 0.088 7.22 3.36 9.23
5/12/2023 8:15:00 PM 16.63 61.934 0.088 7.5 3.38 9.22
5/12/2023 8:30:00 PM 16.47 61.646 0.088 7.43 3.4 9.24
5/12/2023 8:45:00 PM 16.31 61.358 0.088 7.43 3.35 9.23
5/12/2023 9:00:00 PM 16.17 61.106 0.088 7.41 3.34 9.29
5/12/2023 9:15:00 PM 16.01 60.818 0.089 7.31 3.36 9.35
5/12/2023 9:30:00 PM 15.9 60.62 0.088 7.42 3.38 9.4
5/12/2023 9:45:00 PM 15.78 60.404 0.087 7.39 3.35 9.44
5/12/2023 10:00:00 PM 15.67 60.206 0.087 7.37 3.33 9.47
5/12/2023 10:15:00 PM 15.54 59.972 0.087 7.37 3.33 9.5
5/12/2023 10:30:00 PM 15.42 59.756 0.086 7.38 3.36 9.54
5/12/2023 10:45:00 PM 15.3 59.54 0.086 7.45 3.35 9.57
5/12/2023 11:00:00 PM 15.15 59.27 0.081 7.42 3.36 9.61
5/12/2023 11:15:00 PM 15.06 59.108 0.084 7.44 3.3 9.64
5/12/2023 11:30:00 PM 14.95 58.91 0.084 7.43 3.33 9.65
5/12/2023 11:45:00 PM 14.83 58.694 0.084 7.29 3.35 9.66
5/13/2023 12:00:00 AM 14.72 58.496 0.085 7.32 3.4 9.7
5/13/2023 12:15:00 AM 14.62 58.316 0.081 7.25 3.38 9.73
5/13/2023 12:30:00 AM 14.5 58.1 0.082 7.45 2.99 9.75
5/13/2023 12:45:00 AM 14.42 57.956 0.084 7.38 3.41 9.76
5/13/2023 1:00:00 AM 14.29 57.722 0.071 7.41 3.39 9.81
5/13/2023 1:15:00 AM 14.2 57.56 0.081 7.4 3.4 9.82
5/13/2023 1:30:00 AM 14.11 57.398 0.077 7.4 3.37 9.85
5/13/2023 1:45:00 AM 14.01 57.218 0.07 7.37 3.02 9.88
5/13/2023 2:00:00 AM 13.93 57.074 0.066 7.35 3.37 9.89
5/13/2023 2:15:00 AM 13.8 56.84 0.057 7.42 3.43 9.93
5/13/2023 2:30:00 AM 13.77 56.786 0.001 7.39 3.06 9.94
5/13/2023 2:45:00 AM 13.64 56.552 0.01 7.34 3.26 9.97
5/13/2023 3:00:00 AM 13.57 56.426 0.045 7.37 3.09 10
5/13/2023 3:15:00 AM 13.43 56.174 0.004 7.34 3.06 10.02
5/13/2023 3:30:00 AM 13.24 55.832 0.001 7.34 3.14 10.08
5/13/2023 3:45:00 AM 13.12 55.616 0.014 7.18 3.24 10.11
5/13/2023 4:00:00 AM 13.06 55.508 0.02 7.39 3.06 10.11
5/13/2023 4:15:00 AM 13.04 55.472 0.003 7.36 3.17 10.11
5/13/2023 4:30:00 AM 12.83 55.094 0 7.39 2.91 10.18
5/13/2023 4:45:00 AM 12.71 54.878 0 7.37 2.9 10.22
5/13/2023 5:00:00 AM 12.67 54.806 0 7.3 3.08 10.22
5/13/2023 5:15:00 AM 12.55 54.59 0 7.35 3.07 10.26
5/13/2023 5:30:00 AM 12.57 54.626 0 7.28 2.94 10.27
5/13/2023 5:45:00 AM 12.5 54.5 0 7.3 3.09 10.27
5/13/2023 6:00:00 AM 12.45 54.41 0 7.33 3.11 10.31
5/13/2023 6:15:00 AM 12.38 54.284 0 7.29 3.08 10.31
5/13/2023 6:30:00 AM 12.25 54.05 0 7.36 3.09 10.35
5/13/2023 6:45:00 AM 12.27 54.086 0 7.36 3 10.37
5/13/2023 7:00:00 AM 12.3 54.14 0 7.36 3.09 10.36
5/13/2023 7:15:00 AM 12.31 54.158 0 7.36 2.96 10.36
5/13/2023 7:30:00 AM 12.38 54.284 0 7.36 3.1 10.35
5/13/2023 7:45:00 AM 12.38 54.284 0 7.36 2.89 10.34
5/13/2023 8:00:00 AM 12.54 54.572 0 7.42 2.84 10.3
5/13/2023 8:15:00 AM 12.73 54.914 0 7.42 2.99 10.25
5/13/2023 8:30:00 AM 12.94 55.292 0 7.4 2.99 10.19
5/13/2023 8:45:00 AM 13.12 55.616 0 7.42 2.85 10.14
5/13/2023 9:00:00 AM 13.25 55.85 0 7.4 3.03 10.11
5/13/2023 9:15:00 AM 13.39 56.102 0 7.36 3.02 10.07
5/13/2023 9:30:00 AM 13.49 56.282 0 7.41 2.93 10.05
5/13/2023 9:45:00 AM 13.67 56.606 0 7.39 3 9.99
5/13/2023 10:00:00 AM 13.82 56.876 0 7.26 3.05 9.94
5/13/2023 10:15:00 AM 13.88 56.984 0 7.37 2.92 9.95
5/13/2023 10:30:00 AM 14.02 57.236 0 7.47 3.07 9.92
5/13/2023 10:45:00 AM 14.18 57.524 0 7.36 2.91 9.89
5/13/2023 11:00:00 AM 14.13 57.434 0 7.34 3.11 9.96
5/13/2023 11:15:00 AM 14.53 58.154 0 7.53 3.18 9.81
5/13/2023 11:30:00 AM 14.74 58.532 0 7.6 2.92 9.78
5/13/2023 11:45:00 AM 14.74 58.532 0 7.37 3.15 9.8
5/13/2023 12:00:00 PM 14.98 58.964 0 7.41 3.34 9.73
5/13/2023 12:15:00 PM 15.32 59.576 0 7.52 2.95 9.67
5/13/2023 12:30:00 PM 15.82 60.476 0 7.47 2.98 9.54
5/13/2023 12:45:00 PM 15.9 60.62 0 7.31 3.26 9.54
5/13/2023 1:00:00 PM 15.81 60.458 0 7.19 3.04 9.6
5/13/2023 1:15:00 PM 15.95 60.71 0 7.32 3.18 9.58
5/13/2023 1:30:00 PM 16.61 61.898 0 7.34 3.16 9.36
5/13/2023 1:45:00 PM 16.68 62.024 0 7.31 3.48 9.33
5/13/2023 2:00:00 PM 16.82 62.276 0 7.3 3.54 9.35
5/13/2023 2:15:00 PM 16.95 62.51 0 7.23 3.66 9.37
5/13/2023 2:30:00 PM 17.41 63.338 0 6.7 3.44 9.25
5/13/2023 2:45:00 PM 17.97 64.346 0 7.13 3.46 9.13
5/13/2023 3:00:00 PM 18.11 64.598 0 6.77 3.49 9.13
5/13/2023 3:15:00 PM 18.56 65.408 0 6.67 3.47 9.02
5/13/2023 3:30:00 PM 18.66 65.588 0 6.57 3.5 8.98
5/13/2023 3:45:00 PM 18.82 65.876 0 6.59 3.46 8.95
5/13/2023 4:00:00 PM 18.87 65.966 0 6.52 3.44 8.89
5/13/2023 4:15:00 PM 19.16 66.488 0 6.57 3.51 8.86
5/13/2023 4:30:00 PM 19.05 66.29 0 6.67 3.61 8.83
5/13/2023 4:45:00 PM 18.92 66.056 0 6.6 3.97 8.86
5/13/2023 5:00:00 PM 19.23 66.614 0 7.1 3.88 8.77
5/13/2023 5:15:00 PM 19.79 67.622 0 7.13 4.67 8.77
5/13/2023 5:30:00 PM 19.6 67.28 0 6.66 5.02 8.77
5/13/2023 5:45:00 PM 19.81 67.658 0 7.16 3.77 8.76
5/13/2023 6:00:00 PM 19.9 67.82 0 6.53 4.31 8.71
5/13/2023 6:15:00 PM 19.93 67.874 0 6.33 8.29 8.73
5/13/2023 6:30:00 PM 20.15 68.27 0 7.06 8.16 8.7
5/13/2023 6:45:00 PM 18.97 66.146 0 6.75 8.28 8.95
5/13/2023 7:00:00 PM 17.53 63.554 0 6.8 8.33 9.27
5/13/2023 7:15:00 PM 16.92 62.456 0 7.01 8.36 9.37
5/13/2023 7:30:00 PM 16.29 61.322 0 6.93 8.42 9.5
5/13/2023 7:45:00 PM 16.07 60.926 0 6.92 8.42 9.49
5/13/2023 8:00:00 PM 15.64 60.152 0 6.98 8.44 9.59
5/13/2023 8:15:00 PM 15.33 59.594 0 7.08 8.43 9.63
5/13/2023 8:30:00 PM 15.15 59.27 0 7.28 8.16 9.63
5/13/2023 8:45:00 PM 14.73 58.514 0 7.16 8.47 9.7
5/13/2023 9:00:00 PM 14.55 58.19 0 7.19 8.43 9.75
5/13/2023 9:15:00 PM 14.28 57.704 0 7.16 8.03 9.82
5/13/2023 9:30:00 PM 13.84 56.912 0 7 8.51 9.92
5/13/2023 9:45:00 PM 13.6 56.48 0 7.05 7.36 9.97
5/13/2023 10:00:00 PM 13.29 55.922 0 7.23 8.29 10.05
5/13/2023 10:15:00 PM 12.95 55.31 0 6.88 8.51 10.13
5/13/2023 10:30:00 PM 12.34 54.212 0 7.04 8.55 10.24
5/13/2023 10:45:00 PM 11.91 53.438 0 7.03 8.29 10.34
5/13/2023 11:00:00 PM 11.75 53.15 0 7.09 8.53 10.37
5/13/2023 11:15:00 PM 11.29 52.322 0 6.95 8.54 10.45
5/13/2023 11:30:00 PM 11.1 51.98 0 7.14 7.16 10.5
5/13/2023 11:45:00 PM 10.8 51.44 0 7.04 8.48 10.58
5/14/2023 12:00:00 AM 10.46 50.828 0 7.04 8.52 10.67
5/14/2023 12:15:00 AM 10.38 50.684 0 7.35 5.99 10.71
5/14/2023 12:30:00 AM 10.31 50.558 0 7.42 5.53 10.71
5/14/2023 12:45:00 AM 10 50 0 7.02 8.5 10.79
5/14/2023 1:00:00 AM 9.77 49.586 0 7.29 7.52 10.85
5/14/2023 1:15:00 AM 9.72 49.496 0 7.42 5.98 10.91
5/14/2023 1:30:00 AM 9.6 49.28 0 7.3 8.28 10.92
5/14/2023 1:45:00 AM 9.24 48.632 0 6.95 8.38 10.98
5/14/2023 2:00:00 AM 8.97 48.146 0 7.52 5.22 11.08
5/14/2023 2:15:00 AM 8.95 48.11 0 7.59 5.02 11.06
5/14/2023 2:30:00 AM 8.76 47.768 0 7.42 5.39 11.14
5/14/2023 2:45:00 AM 8.65 47.57 0 7.25 5.95 11.16
5/14/2023 3:00:00 AM 8.39 47.102 0 7.53 5.32 11.24
5/14/2023 3:15:00 AM 8.3 46.94 0 7.39 5.4 11.26
5/14/2023 3:30:00 AM 8.31 46.958 0 7.48 5.39 11.25
5/14/2023 3:45:00 AM 8.19 46.742 0 7.12 6.26 11.31
5/14/2023 4:00:00 AM 8.17 46.706 0 7.54 5.26 11.35
5/14/2023 4:15:00 AM 8.08 46.544 0 7.66 5.78 11.35
5/14/2023 4:30:00 AM 8 46.4 0 7.71 5.27 11.4
5/14/2023 4:45:00 AM 7.71 45.878 0 7.11 8.77 11.43
5/14/2023 5:00:00 AM 7.61 45.698 0 7.52 5.86 11.49
5/14/2023 5:15:00 AM 7.41 45.338 0 7.34 8.55 11.57
5/14/2023 5:30:00 AM 7.53 45.554 0 7.24 8.55 11.52
5/14/2023 5:45:00 AM 7.4 45.32 0 7.69 5.15 11.55
5/14/2023 6:00:00 AM 7.21 44.978 0 7.25 8.43 11.62
5/14/2023 6:15:00 AM 7.19 44.942 0 7.55 7.28 11.65
5/14/2023 6:30:00 AM 7.27 45.086 0 7.65 5.05 11.63
5/14/2023 6:45:00 AM 7.47 45.446 0 7.63 5.23 11.58
5/14/2023 7:00:00 AM 7.59 45.662 0 7.5 4.46 11.53
5/14/2023 7:15:00 AM 7.82 46.076 0 7.63 4.38 11.46
5/14/2023 7:30:00 AM 8.15 46.67 0 7.63 4.27 11.37
5/14/2023 7:45:00 AM 8.37 47.066 0 7.32 4.07 11.31
5/14/2023 8:00:00 AM 8.7 47.66 0 7.58 3.81 11.24
5/14/2023 8:15:00 AM 9.12 48.416 0 7.35 3.85 11.14
5/14/2023 8:30:00 AM 9.45 49.01 0 7.21 4.44 11.05
5/14/2023 8:45:00 AM 9.72 49.496 0 6.99 6.82 10.95
5/14/2023 9:00:00 AM 9.85 49.73 0 7.01 7.21 10.92
5/14/2023 9:15:00 AM 10.05 50.09 0 7.06 7.46 10.87
5/14/2023 9:30:00 AM 10.45 50.81 0 6.85 8.53 10.76
5/14/2023 9:45:00 AM 10.58 51.044 0 6.96 7.63 10.74
5/14/2023 10:00:00 AM 10.81 51.458 0 6.9 8.51 10.69
5/14/2023 10:15:00 AM 11.09 51.962 0 6.97 8.53 10.63
5/14/2023 10:30:00 AM 11.25 52.25 0 6.89 8.5 10.57
5/14/2023 10:45:00 AM 11.54 52.772 0 6.93 8.49 10.51
5/14/2023 11:00:00 AM 11.97 53.546 0 6.86 8.56 10.41
5/14/2023 11:15:00 AM 12.45 54.41 0 6.74 8.53 10.31
5/14/2023 11:30:00 AM 12.5 54.5 0 6.61 8.54 10.28
5/14/2023 11:45:00 AM 12.84 55.112 0 6.7 8.5 10.2
5/14/2023 12:00:00 PM 13.44 56.192 0 6.65 8.49 10.1
5/14/2023 12:15:00 PM 13.83 56.894 0 6.61 8.44 9.99
5/14/2023 12:30:00 PM 14.57 58.226 0 6.51 8.42 9.85
5/14/2023 12:45:00 PM 14.95 58.91 0 6.52 8.41 9.73
5/14/2023 1:00:00 PM 15.34 59.612 0 6.46 8.37 9.68
5/14/2023 1:15:00 PM 15.77 60.386 0 6.35 8.34 9.58
5/14/2023 1:30:00 PM 15.95 60.71 0 6.34 8.32 9.53
5/14/2023 1:45:00 PM 16.44 61.592 0 6.39 8.32 9.43
5/14/2023 2:00:00 PM 16.63 61.934 0 6.36 8.29 9.38
5/14/2023 2:15:00 PM 16.91 62.438 0 6.36 8.25 9.33
5/14/2023 2:30:00 PM 17.76 63.968 0 6.36 8.24 9.17
5/14/2023 2:45:00 PM 18.38 65.084 0 6.33 8.27 9.05
5/14/2023 3:00:00 PM 18.88 65.984 0 6.34 8.24 8.96
5/14/2023 3:15:00 PM 19.57 67.226 0 6.27 8.24 8.84
5/14/2023 3:30:00 PM 19.84 67.712 0 6.26 8.28 8.77
5/14/2023 3:45:00 PM 20.21 68.378 0 6.25 8.24 8.72
5/14/2023 4:00:00 PM 20.2 68.36 0 6.13 8.29 8.7
5/14/2023 4:15:00 PM 19.88 67.784 0 6.26 8.35 8.77
5/14/2023 4:30:00 PM 20 68 0 6.17 8.35 8.72
5/14/2023 4:45:00 PM 20.13 68.234 0 6.19 8.35 8.7
5/14/2023 5:00:00 PM 20.02 68.036 0 6.15 8.4 8.73
5/14/2023 5:15:00 PM 19.83 67.694 0 6.27 8.41 8.72
5/14/2023 5:30:00 PM 19.83 67.694 0 6.14 8.45 8.71
5/14/2023 5:45:00 PM 20.04 68.07201 0 6.17 8.54 8.67
5/14/2023 6:00:00 PM 19.58 67.244 0 6.07 8.65 8.73
5/14/2023 6:15:00 PM 18.86 65.948 0 6.16 8.65 8.84
5/14/2023 6:30:00 PM 18.25 64.85 0 6.14 8.74 8.98
5/14/2023 6:45:00 PM 17.65 63.77 0 6.31 8.79 9.09
5/14/2023 7:00:00 PM 16.66 61.988 0 6.37 8.81 9.29
5/14/2023 7:15:00 PM 16.03 60.854 0 6.43 8.85 9.4
5/14/2023 7:30:00 PM 15.38 59.684 0 6.45 8.88 9.53
5/14/2023 7:45:00 PM 14.74 58.532 0 6.48 8.93 9.65
5/14/2023 8:00:00 PM 14.24 57.632 0 6.52 8.98 9.74
5/14/2023 8:15:00 PM 13.7 56.66 0 6.53 9.02 9.85
5/14/2023 8:30:00 PM 13.15 55.67 0 6.6 9.03 9.96
5/14/2023 8:45:00 PM 12.49 54.482 0 6.59 9.03 10.08
5/14/2023 9:00:00 PM 12.16 53.888 0 6.63 9.09 10.15
5/14/2023 9:15:00 PM 11.57 52.826 0 6.6 9.12 10.24
5/14/2023 9:30:00 PM 11.02 51.836 0 6.64 9.15 10.35
5/14/2023 9:45:00 PM 10.56 51.008 0 6.64 9.16 10.49
5/14/2023 10:00:00 PM 10.23 50.414 0 6.67 9.18 10.58
5/14/2023 10:15:00 PM 9.94 49.892 0 6.75 9.18 10.67
5/14/2023 10:30:00 PM 9.32 48.776 0 6.66 9.21 10.78
5/14/2023 10:45:00 PM 8.83 47.894 0 6.71 9.18 10.93
5/14/2023 11:00:00 PM 8.46 47.228 0 6.71 9.21 11.05
5/14/2023 11:15:00 PM 8.24 46.832 0 6.71 9.25 11.1
5/14/2023 11:30:00 PM 8.06 46.508 0 6.84 9.2 11.07
5/14/2023 11:45:00 PM 7.78 46.004 0 6.76 9.27 11.22
5/15/2023 12:00:00 AM 7.81 46.058 0 6.92 9.23 11.24
5/15/2023 12:15:00 AM 7.48 45.464 0 6.92 9.22 11.33
5/15/2023 12:30:00 AM 7.24 45.032 0 6.82 9.24 11.37
5/15/2023 12:45:00 AM 6.83 44.294 0 6.93 9.22 11.52
5/15/2023 1:00:00 AM 6.73 44.114 0 7.27 9.43 11.53
5/15/2023 1:15:00 AM 6.46 43.628 0 6.98 9.2 11.59
5/15/2023 1:30:00 AM 6.14 43.052 0 6.95 9.29 11.71
5/15/2023 1:45:00 AM 5.97 42.746 0 6.91 9.19 11.68
5/15/2023 2:00:00 AM 5.71 42.278 0 7.06 9.14 11.85
5/15/2023 2:15:00 AM 5.34 41.612 0 7.08 9.22 11.96
5/15/2023 2:30:00 AM 5.13 41.234 0 7.14 9.13 12.01
5/15/2023 2:45:00 AM 5.05 41.09 0 7.11 9.1 12.04
5/15/2023 3:00:00 AM 4.89 40.802 0 6.96 9.13 12.06
5/15/2023 3:15:00 AM 4.43 39.974 0 7.2 9.12 12.22
5/15/2023 3:30:00 AM 4.59 40.262 0 7.36 9.22 12.18
5/15/2023 3:45:00 AM 4.25 39.65 0 7.07 9.18 12.3
5/15/2023 4:00:00 AM 4.1 39.38 0 7.08 9.2 12.33
5/15/2023 4:15:00 AM 4.31 39.758 0 7.1 9.08 12.27
5/15/2023 4:30:00 AM 4.05 39.29 0 7.11 9.1 12.34
5/15/2023 4:45:00 AM 3.82 38.876 0 7.22 9.14 12.41
5/15/2023 5:00:00 AM 3.73 38.714 0 7.32 9.16 12.47
5/15/2023 5:15:00 AM 3.68 38.624 0 7.33 9.25 12.46
5/15/2023 5:30:00 AM 3.8 38.84 0 7.39 9.11 12.44
5/15/2023 5:45:00 AM 3.56 38.408 0 7.18 9.13 12.49
5/15/2023 6:00:00 AM 3.58 38.444 0 7.2 9.15 12.48
5/15/2023 6:15:00 AM 3.41 38.138 0 7.19 9.11 12.56
5/15/2023 6:30:00 AM 3.29 37.922 0 7.26 9.08 12.63
5/15/2023 6:45:00 AM 3.39 38.102 0 7.23 9.1 12.56
5/15/2023 7:00:00 AM 3.35 38.03 0 7.27 9.11 12.6
5/15/2023 7:15:00 AM 3.6 38.48 0 7.39 9.08 12.52
5/15/2023 7:30:00 AM 3.96 39.128 0 7.37 9.09 12.4
5/15/2023 7:45:00 AM 4.42 39.956 0 7.44 9.32 12.25
5/15/2023 8:00:00 AM 4.84 40.712 0 7.48 8.7 12.11
5/15/2023 8:15:00 AM 5.31 41.558 0 7.31 8.67 11.96
5/15/2023 8:30:00 AM 5.85 42.53 0 7.48 7.77 11.79
5/15/2023 8:45:00 AM 6.43 43.574 0 7.42 7.58 11.64
5/15/2023 9:00:00 AM 7.11 44.798 0 7.45 7.41 11.45
5/15/2023 9:15:00 AM 7.79 46.022 0 7.36 7.6 11.26
5/15/2023 9:30:00 AM 8.39 47.102 0 7.23 8.18 11.1
5/15/2023 9:45:00 AM 8.96 48.128 0 7.19 8.41 10.94
5/15/2023 10:00:00 AM 9.5 49.1 0 7.14 8.72 10.81
5/15/2023 10:15:00 AM 10.15 50.27 0 6.87 9.3 10.66
5/15/2023 10:30:00 AM 10.55 50.99 0 6.88 9.25 10.57
5/15/2023 10:45:00 AM 11.11 51.998 0 6.78 9.25 10.51
5/15/2023 11:00:00 AM 11.97 53.546 0 6.71 9.19 10.34
5/15/2023 11:15:00 AM 12.5 54.5 0 6.72 9.12 10.15
5/15/2023 11:30:00 AM 13.06 55.508 0 6.67 9.13 10.05
5/15/2023 11:45:00 AM 13.71 56.678 0 6.66 9.08 9.9
5/15/2023 12:00:00 PM 14.36 57.848 0 6.64 9.04 9.75
5/15/2023 12:15:00 PM 15.08 59.144 0 6.59 9.02 9.61
5/15/2023 12:30:00 PM 16.05 60.89 0 6.57 8.94 9.42
5/15/2023 12:45:00 PM 16.34 61.412 0 6.54 8.91 9.34
5/15/2023 1:00:00 PM 17.01 62.618 0 6.56 8.92 9.28
5/15/2023 1:15:00 PM 17.72 63.896 0 6.54 8.87 9.08
5/15/2023 1:30:00 PM 18.2 64.76 0 6.54 8.9 9
5/15/2023 1:45:00 PM 18.66 65.588 0 6.4 8.84 8.91
5/15/2023 2:00:00 PM 19.01 66.218 0 6.23 8.87 8.84
5/15/2023 2:15:00 PM 19.44 66.992 0 6.16 8.84 8.76
5/15/2023 2:30:00 PM 20.07 68.126 0 6.16 8.84 8.64
5/15/2023 2:45:00 PM 20.88 69.584 0 6.16 8.84 8.51
5/15/2023 3:00:00 PM 21.47 70.646 0 6.14 8.9 8.4
5/15/2023 3:15:00 PM 22.26 72.068 0 5.73 9 8.29
5/15/2023 3:30:00 PM 22.89 73.202 0 5.43 9 8.21
5/15/2023 3:45:00 PM 23.6 74.48 0 5.28 8.95 8.06
5/15/2023 4:00:00 PM 24.12 75.416 0 4.78 8.94 7.98
5/15/2023 4:15:00 PM 24.37 75.866 0 5.33 8.88 7.91
5/15/2023 4:30:00 PM 24.6 76.28 0 4.51 8.86 7.89
5/15/2023 4:45:00 PM 24.64 76.352 0 4.22 8.83 7.86
5/15/2023 5:00:00 PM 24.76 76.568 0 3.79 8.88 7.85
5/15/2023 5:15:00 PM 24.78 76.604 0 5.05 8.87 7.82
5/15/2023 5:30:00 PM 24.96 76.92799 0 3.93 8.91 7.79
5/15/2023 5:45:00 PM 24.75 76.55 0 3.66 8.85 7.81
5/15/2023 6:00:00 PM 24.77 76.586 0 4.29 8.87 7.76
5/15/2023 6:15:00 PM 24.57 76.226 0 4.14 8.9 7.77
5/15/2023 6:30:00 PM 24.02 75.236 0 3.85 8.98 7.87
5/15/2023 6:45:00 PM 23.33 73.994 0 2.81 8.98 7.97
5/15/2023 7:00:00 PM 21.84 71.312 0 4.94 9.04 8.16
5/15/2023 7:15:00 PM 20.41 68.738 0 5.64 9.11 8.33
5/15/2023 7:30:00 PM 19.27 66.686 0 6.15 9.19 8.53
5/15/2023 7:45:00 PM 18.12 64.616 0 6.32 9.21 8.7
5/15/2023 8:00:00 PM 16.92 62.456 0 6.47 9.3 8.95
5/15/2023 8:15:00 PM 16.08 60.944 0 6.61 9.33 9.07
5/15/2023 8:30:00 PM 15.08 59.144 0 6.74 9.38 9.24
5/15/2023 8:45:00 PM 14.39 57.902 0 6.77 9.37 9.37
5/15/2023 9:00:00 PM 13.63 56.534 0 6.77 9.48 9.52
5/15/2023 9:15:00 PM 13.22 55.796 0 6.84 9.53 9.6
5/15/2023 9:30:00 PM 12.52 54.536 0 6.82 9.54 9.75
5/15/2023 9:45:00 PM 11.96 53.528 0 6.8 9.56 9.85
5/15/2023 10:00:00 PM 11.45 52.61 0 6.82 9.6 10
5/15/2023 10:15:00 PM 11.02 51.836 0 6.81 9.61 10.07
5/15/2023 10:30:00 PM 10.67 51.206 0 6.85 9.6 10.17
5/15/2023 10:45:00 PM 10.35 50.63 0 6.83 9.59 10.22
5/15/2023 11:00:00 PM 9.95 49.91 0 6.89 9.59 10.31
5/15/2023 11:15:00 PM 9.68 49.424 0 7.04 9.59 10.42
5/15/2023 11:30:00 PM 9.49 49.082 0 6.91 9.59 10.47
5/15/2023 11:45:00 PM 9.15 48.47 0 6.92 9.6 10.51
5/16/2023 12:00:00 AM 8.79 47.822 0 6.94 9.58 10.61
5/16/2023 12:15:00 AM 8.51 47.318 0 6.99 9.62 10.67
5/16/2023 12:30:00 AM 8.38 47.084 0 7.07 9.56 10.74
5/16/2023 12:45:00 AM 8.12 46.616 0 7.16 9.58 10.81
5/16/2023 1:00:00 AM 7.41 45.338 0 7.06 9.67 10.98
5/16/2023 1:15:00 AM 7.09 44.762 0 7.05 9.62 11.07
5/16/2023 1:30:00 AM 6.95 44.51 0 7.09 9.64 11.07
5/16/2023 1:45:00 AM 6.78 44.204 0 7.14 9.61 11.17
5/16/2023 2:00:00 AM 6.55 43.79 0 7.18 9.6 11.25
5/16/2023 2:15:00 AM 6.12 43.016 0 7.1 9.66 11.33
5/16/2023 2:30:00 AM 6.13 43.034 0 7.18 9.59 11.32
5/16/2023 2:45:00 AM 5.78 42.404 0 7.17 9.58 11.43
5/16/2023 3:00:00 AM 5.74 42.332 0 7.1 9.66 11.42
5/16/2023 3:15:00 AM 5.57 42.026 0 7.22 9.63 11.53
5/16/2023 3:30:00 AM 5.5 41.9 0 7.21 9.63 11.55
5/16/2023 3:45:00 AM 5.39 41.702 0 7.31 9.68 11.56
5/16/2023 4:00:00 AM 5.14 41.252 0 7.29 9.69 11.64
5/16/2023 4:15:00 AM 5.04 41.072 0 7.22 9.65 11.68
5/16/2023 4:30:00 AM 4.9 40.82 0 7.26 9.66 11.72
5/16/2023 4:45:00 AM 4.89 40.802 0 7.19 9.58 11.69
5/16/2023 5:00:00 AM 4.72 40.496 0 7.31 9.6 11.79
5/16/2023 5:15:00 AM 4.7 40.46 0 7.29 9.67 11.79
5/16/2023 5:30:00 AM 4.52 40.136 0 7.21 9.58 11.86
5/16/2023 5:45:00 AM 4.48 40.064 0 7.3 9.71 11.86
5/16/2023 6:00:00 AM 4.49 40.082 0 7.3 9.57 11.8
5/16/2023 6:15:00 AM 4.45 40.01 0 7.32 9.62 11.87
5/16/2023 6:30:00 AM 4.61 40.298 0 7.37 9.57 11.8
5/16/2023 6:45:00 AM 4.66 40.388 0 7.37 9.82 11.77
5/16/2023 7:00:00 AM 4.77 40.586 0 7.31 9.79 11.75
5/16/2023 7:15:00 AM 5.04 41.072 0 7.37 9.74 11.68
5/16/2023 7:30:00 AM 5.35 41.63 0 7.35 9.78 11.56
5/16/2023 7:45:00 AM 5.79 42.422 0 7.38 9.86 11.43
5/16/2023 8:00:00 AM 6.46 43.628 0 7.48 10.61 11.26
5/16/2023 8:15:00 AM 7.35 45.23 0 7.08 9.63 11
5/16/2023 8:30:00 AM 8.77 47.786 0 6.89 9.56 10.69
5/16/2023 8:45:00 AM 9.82 49.676 0 6.8 9.56 10.44
5/16/2023 9:00:00 AM 10.84 51.512 0 6.76 9.56 10.2
5/16/2023 9:15:00 AM 11.64 52.952 0 6.73 9.59 10.02
5/16/2023 9:30:00 AM 12.21 53.978 0 6.72 9.54 9.9
5/16/2023 9:45:00 AM 12.7 54.86 0 6.69 9.54 9.78
5/16/2023 10:00:00 AM 13.25 55.85 0 6.66 9.54 9.67
5/16/2023 10:15:00 AM 13.65 56.57 0 6.66 9.48 9.58
5/16/2023 10:30:00 AM 14.11 57.398 0 6.64 9.47 9.49
5/16/2023 10:45:00 AM 14.45 58.01 0 6.63 9.48 9.42
5/16/2023 11:00:00 AM 15.02 59.036 0 6.65 9.43 9.3
5/16/2023 11:15:00 AM 15.5 59.9 0 6.64 9.4 9.2
5/16/2023 11:30:00 AM 16.08 60.944 0 6.6 9.36 9.1
5/16/2023 11:45:00 AM 16.51 61.718 0 6.59 9.33 9.02
5/16/2023 12:00:00 PM 17.17 62.906 0 6.55 9.29 8.89
5/16/2023 12:15:00 PM 17.76 63.968 0 6.42 9.29 8.8
5/16/2023 12:30:00 PM 18.76 65.768 0 6.45 9.23 8.62
5/16/2023 12:45:00 PM 19.31 66.758 0 6.41 9.19 8.52
5/16/2023 1:00:00 PM 19.59 67.262 0 6.26 9.13 8.49
5/16/2023 1:15:00 PM 20.25 68.45 0 6.4 9.13 8.36
5/16/2023 1:30:00 PM 20.51 68.918 0 6.28 9.11 8.32
5/16/2023 1:45:00 PM 20.82 69.476 0 6.18 9.09 8.25
5/16/2023 2:00:00 PM 21.4 70.52 0 6.43 9.05 8.16
5/16/2023 2:15:00 PM 22 71.6 0 6.1 9.06 8.06
5/16/2023 2:30:00 PM 22.67 72.806 0 5.89 9 7.96
5/16/2023 2:45:00 PM 22.87 73.166 0 5.9 8.99 7.92
5/16/2023 3:00:00 PM 23.04 73.472 0 6.01 8.99 7.89
5/16/2023 3:15:00 PM 23.52 74.336 0 5.58 8.95 7.85
5/16/2023 3:30:00 PM 23.52 74.336 0 5.23 8.96 7.83
5/16/2023 3:45:00 PM 23.25 73.85 0 6.23 8.92 7.84
5/16/2023 4:00:00 PM 23.13 73.634 0 5.75 8.94 7.86
5/16/2023 4:15:00 PM 23.04 73.472 0 5.93 8.98 7.86
5/16/2023 4:30:00 PM 23.17 73.706 0 5.14 9 7.83
5/16/2023 4:45:00 PM 23.27 73.886 0 5.4 8.98 7.82
5/16/2023 5:00:00 PM 22.88 73.184 0 5.03 8.99 7.88
5/16/2023 5:15:00 PM 22.66 72.788 0 5.18 9.11 7.91
5/16/2023 5:30:00 PM 22.46 72.42799 0 5.31 8.98 7.91
5/16/2023 5:45:00 PM 21.91 71.438 0 5.4 9.06 7.99
5/16/2023 6:00:00 PM 21.63 70.934 0 5.45 9.05 8
5/16/2023 6:15:00 PM 21.36 70.448 0 5.72 9.11 8.05
5/16/2023 6:30:00 PM 21.19 70.142 0 5.4 9.09 8.1
5/16/2023 6:45:00 PM 21 69.8 0 5.79 9.11 8.09
5/16/2023 7:00:00 PM 20.56 69.008 0 5.51 9.13 8.16
5/16/2023 7:15:00 PM 20.04 68.07201 0 6.29 9.17 8.2
5/16/2023 7:30:00 PM 19.37 66.866 0 6.37 9.17 8.3
5/16/2023 7:45:00 PM 18.73 65.714 0 6.42 9.21 8.4
5/16/2023 8:00:00 PM 17.88 64.184 0 6.55 9.26 8.53
5/16/2023 8:15:00 PM 16.84 62.312 0 6.58 9.32 8.71
5/16/2023 8:30:00 PM 16 60.8 0 6.54 9.35 8.84
5/16/2023 8:45:00 PM 15.09 59.162 0 6.63 9.4 9.01
5/16/2023 9:00:00 PM 14.42 57.956 0 6.76 9.42 9.13
5/16/2023 9:15:00 PM 14.14 57.452 0 6.81 9.5 9.18
5/16/2023 9:30:00 PM 13.81 56.858 0 6.78 9.47 9.26
5/16/2023 9:45:00 PM 13.55 56.39 0 6.78 9.53 9.3
5/16/2023 10:00:00 PM 13.4 56.12 0 6.77 9.53 9.31
5/16/2023 10:15:00 PM 13.26 55.868 0 6.76 9.53 9.35
5/16/2023 10:30:00 PM 13.38 56.084 0 6.74 9.52 9.35
5/16/2023 10:45:00 PM 13.63 56.534 0 6.72 9.49 9.32
5/16/2023 11:00:00 PM 13.74 56.732 0 6.73 9.52 9.29
5/16/2023 11:15:00 PM 13.71 56.678 0 6.74 9.51 9.3
5/16/2023 11:30:00 PM 13.53 56.354 0 6.74 9.55 9.33
5/16/2023 11:45:00 PM 13.34 56.012 0 6.74 9.53 9.37
5/17/2023 12:00:00 AM 13.24 55.832 0 6.75 9.53 9.4
5/17/2023 12:15:00 AM 13.07 55.526 0 6.74 9.53 9.44
5/17/2023 12:30:00 AM 12.87 55.166 0 6.74 9.54 9.47
5/17/2023 12:45:00 AM 12.61 54.698 0 6.74 9.57 9.53
5/17/2023 1:00:00 AM 12.31 54.158 0 6.73 9.59 9.6
5/17/2023 1:15:00 AM 12.01 53.618 0 6.76 9.59 9.66
5/17/2023 1:30:00 AM 11.69 53.042 0 6.74 9.61 9.71
5/17/2023 1:45:00 AM 11.27 52.286 0 6.75 9.63 9.83
5/17/2023 2:00:00 AM 10.95 51.71 0 6.76 9.65 9.89
5/17/2023 2:15:00 AM 10.62 51.116 0 6.77 9.68 9.95
5/17/2023 2:30:00 AM 10.22 50.396 0 6.78 9.7 10.05
5/17/2023 2:45:00 AM 9.89 49.802 0 6.8 9.72 10.12
5/17/2023 3:00:00 AM 9.57 49.226 0 6.79 9.73 10.21
5/17/2023 3:15:00 AM 9.17 48.506 0 6.78 9.72 10.32
5/17/2023 3:30:00 AM 8.95 48.11 0 6.8 9.74 10.38
5/17/2023 3:45:00 AM 8.83 47.894 0 6.8 9.77 10.4
5/17/2023 4:00:00 AM 8.67 47.606 0 6.8 9.76 10.45
5/17/2023 4:15:00 AM 8.51 47.318 0 6.86 9.82 10.48
5/17/2023 4:30:00 AM 8.47 47.246 0 6.89 9.76 10.5
5/17/2023 4:45:00 AM 8.51 47.318 0 6.84 9.75 10.49
5/17/2023 5:00:00 AM 8.49 47.282 0 6.75 9.76 10.49
5/17/2023 5:15:00 AM 8.5 47.3 0 6.83 9.76 10.52
5/17/2023 5:30:00 AM 8.39 47.102 0 6.76 9.78 10.55
5/17/2023 5:45:00 AM 8.2 46.76 0 6.75 9.8 10.62
5/17/2023 6:00:00 AM 7.96 46.328 0 6.75 9.83 10.68
5/17/2023 6:15:00 AM 7.69 45.842 0 6.75 9.8 10.77
5/17/2023 6:30:00 AM 7.52 45.536 0 6.76 9.86 10.81
5/17/2023 6:45:00 AM 7.44 45.392 0 6.75 9.85 10.85
5/17/2023 7:00:00 AM 7.47 45.446 0 6.75 9.81 10.81
5/17/2023 7:15:00 AM 7.62 45.716 0 6.76 9.81 10.81
5/17/2023 7:30:00 AM 7.83 46.094 0 6.76 9.86 10.77
5/17/2023 7:45:00 AM 8.06 46.508 0 6.75 9.8 10.7
5/17/2023 8:00:00 AM 8.04 46.472 0 6.73 9.79 10.68
5/17/2023 8:15:00 AM 8.19 46.742 0 6.72 9.8 10.65
5/17/2023 8:30:00 AM 8.16 46.688 0 6.74 9.8 10.69
5/17/2023 8:45:00 AM 7.95 46.31 0 6.73 9.8 10.74
5/17/2023 9:00:00 AM 7.99 46.382 0 6.67 9.82 10.73
5/17/2023 9:15:00 AM 8.13 46.634 0 6.71 9.83 10.71
5/17/2023 9:30:00 AM 8.12 46.616 0 6.7 9.81 10.7
5/17/2023 9:45:00 AM 8.08 46.544 0 6.71 9.82 10.71
5/17/2023 10:00:00 AM 8.07 46.526 0 6.7 9.8 10.72
5/17/2023 10:15:00 AM 8.16 46.688 0 6.75 9.78 10.69
5/17/2023 10:30:00 AM 8.25 46.85 0 6.69 9.79 10.68
5/17/2023 10:45:00 AM 8.31 46.958 0 6.63 9.78 10.65
5/17/2023 11:00:00 AM 8.82 47.876 0 6.72 9.79 10.52
5/17/2023 11:15:00 AM 8.92 48.056 0 6.66 9.78 10.51
5/17/2023 11:30:00 AM 9.28 48.704 0 6.67 9.77 10.42
5/17/2023 11:45:00 AM 9.75 49.55 0 6.6 9.71 10.32
5/17/2023 12:00:00 PM 10.02 50.036 0 6.66 9.68 10.23
5/17/2023 12:15:00 PM 10.34 50.612 0 6.61 9.66 10.17
5/17/2023 12:30:00 PM 11.31 52.358 0 6.6 9.66 10
5/17/2023 12:45:00 PM 12.52 54.536 0 6.6 9.57 9.71
5/17/2023 1:00:00 PM 12.67 54.806 0 6.58 9.55 9.67
5/17/2023 1:15:00 PM 13.23 55.814 0 6.57 9.51 9.56
5/17/2023 1:30:00 PM 13.55 56.39 0 6.56 9.47 9.49
5/17/2023 1:45:00 PM 13.89 57.002 0 6.5 9.45 9.43
5/17/2023 2:00:00 PM 14.16 57.488 0 6.55 9.44 9.35
5/17/2023 2:15:00 PM 14.37 57.866 0 6.43 9.42 9.3
5/17/2023 2:30:00 PM 15.3 59.54 0 6.5 9.38 9.14
5/17/2023 2:45:00 PM 16.25 61.25 0 6.16 9.35 8.99
5/17/2023 3:00:00 PM 17.1 62.78 0 6.51 9.29 8.85
5/17/2023 3:15:00 PM 17.5 63.5 0 6.2 9.28 8.74
5/17/2023 3:30:00 PM 17.86 64.148 0 6.27 9.28 8.68
5/17/2023 3:45:00 PM 18.39 65.102 0 5.44 9.26 8.59
5/17/2023 4:00:00 PM 18.64 65.552 0 5.53 9.21 8.53
5/17/2023 4:15:00 PM 18.68 65.624 0 4.63 9.22 8.51
5/17/2023 4:30:00 PM 18.98 66.164 0 5.47 9.21 8.48
5/17/2023 4:45:00 PM 19.45 67.01 0 4.51 9.17 8.41
5/17/2023 5:00:00 PM 19.43 66.974 0 5.21 9.12 8.4
5/17/2023 5:15:00 PM 18.91 66.038 0 3.87 9.26 8.47
5/17/2023 5:30:00 PM 18.47 65.246 0 3.79 9.15 8.53
5/17/2023 5:45:00 PM 18.28 64.904 0 3.85 9.27 8.54
5/17/2023 6:00:00 PM 18 64.4 0 4.26 9.23 8.58
5/17/2023 6:15:00 PM 17.16 62.888 0 4.48 9.32 8.71
5/17/2023 6:30:00 PM 16.2 61.16 0 2.15 9.36 8.92
5/17/2023 6:45:00 PM 15.39 59.702 0 3.4 9.42 9.05
5/17/2023 7:00:00 PM 14.23 57.614 0 3.63 9.44 9.3
5/17/2023 7:15:00 PM 13.17 55.706 0 4.02 9.51 9.51
5/17/2023 7:30:00 PM 12.43 54.374 0 5.29 9.54 9.66
5/17/2023 7:45:00 PM 11.37 52.466 0 5.45 9.57 9.89
5/17/2023 8:00:00 PM 10.8 51.44 0 5.56 9.63 9.98
5/17/2023 8:15:00 PM 9.81 49.658 0 6.47 9.69 10.26
5/17/2023 8:30:00 PM 9.19 48.542 0 6.59 9.75 10.36
5/17/2023 8:45:00 PM 8.55 47.39 0 6.58 9.79 10.49
5/17/2023 9:00:00 PM 8.04 46.472 0 6.58 9.77 10.7
5/17/2023 9:15:00 PM 7.43 45.374 0 6.55 9.83 10.85
5/17/2023 9:30:00 PM 7.15 44.87 0 6.8 9.88 10.93
5/17/2023 9:45:00 PM 6.71 44.078 0 6.83 9.9 11.02
5/17/2023 10:00:00 PM 6.08 42.944 0 6.78 9.93 11.18
5/17/2023 10:15:00 PM 5.73 42.314 0 6.84 9.92 11.28
5/17/2023 10:30:00 PM 4.92 40.856 0 6.92 9.97 11.53
5/17/2023 10:45:00 PM 4.64 40.352 0 6.91 10 11.64
5/17/2023 11:00:00 PM 4.33 39.794 0 6.86 10.03 11.73
5/17/2023 11:15:00 PM 3.67 38.606 0 6.97 10.04 11.96
5/17/2023 11:30:00 PM 3.36 38.048 0 6.91 10.04 12.04
5/17/2023 11:45:00 PM 3.3 37.94 0 7.03 10.04 12.06
5/18/2023 12:00:00 AM 3.29 37.922 0 6.99 10.04 12.05
5/18/2023 12:15:00 AM 2.99 37.382 0 6.93 10.03 12.19
5/18/2023 12:30:00 AM 2.96 37.328 0 6.95 10.07 12.13
5/18/2023 12:45:00 AM 2.88 37.184 0 7.01 10.12 12.21
5/18/2023 1:00:00 AM 2.36 36.248 0 7.02 10.1 12.33
5/18/2023 1:15:00 AM 2.23 36.014 0 7.01 10.09 12.41
5/18/2023 1:30:00 AM 2.1 35.78 0 7.14 10.14 12.45
5/18/2023 1:45:00 AM 1.54 34.772 0 7.13 10.11 12.68
5/18/2023 2:00:00 AM 1.31 34.358 0 7.09 10.14 12.72
5/18/2023 2:15:00 AM 0.98 33.764 0 7.15 10.13 12.89
5/18/2023 2:30:00 AM 1.03 33.854 0 7.08 10.19 12.81
5/18/2023 2:45:00 AM 0.86 33.548 0 7.12 10.19 12.92
5/18/2023 3:00:00 AM 0.97 33.746 0 7.13 10.09 12.85
5/18/2023 3:15:00 AM 0.71 33.278 0 7.18 10.19 12.95
5/18/2023 3:30:00 AM 0.65 33.17 0 7.11 10.12 12.98
5/18/2023 3:45:00 AM 0.61 33.098 0 7.15 10.12 13.01
5/18/2023 4:00:00 AM 0.37 32.666 0 7.21 10.16 13.1
5/18/2023 4:15:00 AM 0.55 32.99 0 7.17 10.08 13.04
5/18/2023 4:30:00 AM 0.5 32.9 0 7.25 10.04 13.06
5/18/2023 4:45:00 AM 0.42 32.756 0 7.12 10.09 13.07
5/18/2023 5:00:00 AM 0.36 32.648 0 7.14 10.12 13.1
5/18/2023 5:15:00 AM 0.27 32.486 0 7.16 10.13 13.19
5/18/2023 5:30:00 AM 0.04 32.072 0 7.1 10.24 13.18
5/18/2023 5:45:00 AM -0.35 31.37 0 7.19 10.26 13.36
5/18/2023 6:00:00 AM -0.71 30.722 0 7.24 10.21 13.57
5/18/2023 6:15:00 AM -0.9 30.38 0 7.2 10.21 13.63
5/18/2023 6:30:00 AM -1.09 30.038 0 7.25 10.2 13.72
5/18/2023 6:45:00 AM -0.79 30.578 0 7.35 10.27 13.6
5/18/2023 7:00:00 AM -0.4 31.28 0 7.38 10.46 13.42
5/18/2023 7:15:00 AM -0.07 31.874 0 7.33 10.63 13.27
5/18/2023 7:30:00 AM 0.23 32.414 0 7.09 10.25 13.17
5/18/2023 7:45:00 AM 0.58 33.044 0 7.16 10.23 13.07
5/18/2023 8:00:00 AM 1.03 33.854 0 7.21 10.22 12.9
5/18/2023 8:15:00 AM 1.52 34.736 0 7.19 10.23 12.73
5/18/2023 8:30:00 AM 2.02 35.636 0 7.21 10.23 12.57
5/18/2023 8:45:00 AM 2.61 36.698 0 7.08 10.15 12.37
5/18/2023 9:00:00 AM 3.31 37.958 0 6.92 10.08 12.14
5/18/2023 9:15:00 AM 4.06 39.308 0 6.77 10.06 11.94
5/18/2023 9:30:00 AM 4.99 40.982 0 6.72 10.01 11.67
5/18/2023 9:45:00 AM 5.93 42.674 0 6.74 9.93 11.41
5/18/2023 10:00:00 AM 6.57 43.826 0 6.72 9.93 11.22
5/18/2023 10:15:00 AM 7.02 44.636 0 6.67 9.92 11.11
5/18/2023 10:30:00 AM 7.32 45.176 0 6.69 9.87 11.02
5/18/2023 10:45:00 AM 7.96 46.328 0 6.68 9.84 10.86
5/18/2023 11:00:00 AM 8.6 47.48 0 6.7 9.84 10.68
5/18/2023 11:15:00 AM 8.91 48.038 0 6.76 9.79 10.61
5/18/2023 11:30:00 AM 9.24 48.632 0 6.75 9.81 10.53
5/18/2023 11:45:00 AM 9.8 49.64 0 6.81 9.72 10.41
5/18/2023 12:00:00 PM 10.36 50.648 0 6.71 9.72 10.26
5/18/2023 12:15:00 PM 10.91 51.638 0 6.74 9.69 10.13
5/18/2023 12:30:00 PM 12.32 54.176 0 6.77 9.61 9.84
5/18/2023 12:45:00 PM 13.15 55.67 0 6.77 9.55 9.64
5/18/2023 1:00:00 PM 13.3 55.94 0 6.75 9.55 9.61
5/18/2023 1:15:00 PM 14.14 57.452 0 6.48 9.49 9.46
5/18/2023 1:30:00 PM 14.68 58.424 0 6.9 9.49 9.34
5/18/2023 1:45:00 PM 15.14 59.252 0 6.51 9.39 9.25
5/18/2023 2:00:00 PM 15.36 59.648 0 6.5 9.41 9.2
5/18/2023 2:15:00 PM 16.19 61.142 0 6.72 9.33 9.05
5/18/2023 2:30:00 PM 17.05 62.69 0 6.3 9.29 8.88
5/18/2023 2:45:00 PM 18.3 64.94 0 6.71 9.22 8.68
5/18/2023 3:00:00 PM 19.51 67.118 0 6.43 9.17 8.53
5/18/2023 3:15:00 PM 19.84 67.712 0 6.5 9.2 8.41
5/18/2023 3:30:00 PM 20.65 69.17 0 5.84 9.15 8.31
5/18/2023 3:45:00 PM 20.98 69.764 0 6.01 9.09 8.22
5/18/2023 4:00:00 PM 21.51 70.718 0 6.02 9.05 8.13
5/18/2023 4:15:00 PM 21.97 71.546 0 5.19 9.08 8.09
5/18/2023 4:30:00 PM 22.47 72.446 0 4.37 9.08 8
5/18/2023 4:45:00 PM 22.66 72.788 0 5.06 9.03 7.94
5/18/2023 5:00:00 PM 22.55 72.59 0 5.18 9.07 7.93
5/18/2023 5:15:00 PM 22.75 72.95 0 4.46 8.99 7.92
5/18/2023 5:30:00 PM 22.57 72.626 0 5.27 9.08 7.92
5/18/2023 5:45:00 PM 22.77 72.986 0 4.68 8.95 7.85
5/18/2023 6:00:00 PM 23.05 73.49 0 5.37 9.03 7.77
5/18/2023 6:15:00 PM 22.47 72.446 0 3.96 8.86 7.85
5/18/2023 6:30:00 PM 22.16 71.888 0 6.78 9.08 7.94
5/18/2023 6:45:00 PM 22.16 71.888 0 4.32 9.1 7.91
5/18/2023 7:00:00 PM 20.25 68.45 0 5.54 9.17 8.26

These are provisional data and have not been subject to a quality assurance process, but rather are the raw data reported by the instrument.
H: value is above sensor operating range
L: value is below sensor operating range
Offline: station is not reporting data
NC: parameter is not collected at site

Data Availability & Limitations

Uncertainty and potential for error can be associated with environmental monitoring data. Provisional data have not been subject to a quality assurance process, but rather are the raw data reported by the instrument. Data users are cautioned to consider carefully the provisional nature of the information before using it for decisions that concern personal or public safety or the conduct of business that involves substantial monetary or operational consequences.

Approved data are currently available by request by emailing: [email protected]. Approved data have been subject to a quality assurance process to correct for equipment or fouling drift. Data recorded during equipment malfunctions have been removed.

View Historical Stations that have been discontinued.